<?xml version="1.0" encoding="UTF-8" standalone="no" ?>
<gpx xmlns="http://www.topografix.com/GPX/1/1" xmlns:xsi="http://www.w3.org/2001/XMLSchema-instance" xsi:schemaLocation="http://www.topografix.com/GPX/1/1 http://www.topografix.com/GPX/1/1/gpx.xsd" version="1.1" creator="VisuGPX - https://www.visugpx.com">
  <metadata>
    <name>07-02-2010_BaladeEntreAntibesCagnesSurMer EtLeRetourParVaugrenier, Biot</name>
    <desc><![CDATA[Une sortie assez urbaine sur certains passages, mais bien pour se tester sur du plat !]]></desc>
  </metadata>
  <trk>
    <name><![CDATA[07-02-2010_BaladeEntreAntibesCagnesSurMer EtLeRetourParVaugrenier, Biot_1]]></name>
    <trkseg>
      <trkpt lat="43.60309" lon="7.10451">
        <ele>55</ele>
        <time>2010-02-07T10:40:24Z</time>
      </trkpt>
      <trkpt lat="43.60316" lon="7.10495">
        <ele>56</ele>
        <time>2010-02-07T10:40:24Z</time>
      </trkpt>
      <trkpt lat="43.60316" lon="7.10495">
        <ele>56</ele>
        <time>2010-02-07T10:40:28Z</time>
      </trkpt>
      <trkpt lat="43.60316" lon="7.10495">
        <ele>56</ele>
        <time>2010-02-07T10:40:30Z</time>
      </trkpt>
      <trkpt lat="43.60329" lon="7.10549">
        <ele>60</ele>
        <time>2010-02-07T10:40:33Z</time>
      </trkpt>
      <trkpt lat="43.60342" lon="7.10581">
        <ele>58</ele>
        <time>2010-02-07T10:40:44Z</time>
      </trkpt>
      <trkpt lat="43.6033" lon="7.10542">
        <ele>60</ele>
        <time>2010-02-07T10:40:53Z</time>
      </trkpt>
      <trkpt lat="43.6033" lon="7.10542">
        <ele>60</ele>
        <time>2010-02-07T10:40:56Z</time>
      </trkpt>
      <trkpt lat="43.6033" lon="7.10542">
        <ele>60</ele>
        <time>2010-02-07T10:41:02Z</time>
      </trkpt>
      <trkpt lat="43.6033" lon="7.10542">
        <ele>60</ele>
        <time>2010-02-07T10:41:13Z</time>
      </trkpt>
      <trkpt lat="43.60358" lon="7.1054">
        <ele>55</ele>
        <time>2010-02-07T10:41:20Z</time>
      </trkpt>
      <trkpt lat="43.60358" lon="7.1054">
        <ele>55</ele>
        <time>2010-02-07T10:41:25Z</time>
      </trkpt>
      <trkpt lat="43.60358" lon="7.1054">
        <ele>55</ele>
        <time>2010-02-07T10:41:29Z</time>
      </trkpt>
      <trkpt lat="43.60358" lon="7.1054">
        <ele>55</ele>
        <time>2010-02-07T10:41:44Z</time>
      </trkpt>
      <trkpt lat="43.60385" lon="7.10553">
        <ele>54</ele>
        <time>2010-02-07T10:41:48Z</time>
      </trkpt>
      <trkpt lat="43.60385" lon="7.10553">
        <ele>54</ele>
        <time>2010-02-07T10:41:55Z</time>
      </trkpt>
      <trkpt lat="43.60385" lon="7.10553">
        <ele>54</ele>
        <time>2010-02-07T10:41:59Z</time>
      </trkpt>
      <trkpt lat="43.60385" lon="7.10553">
        <ele>54</ele>
        <time>2010-02-07T10:42:05Z</time>
      </trkpt>
      <trkpt lat="43.60412" lon="7.1056">
        <ele>53</ele>
        <time>2010-02-07T10:42:10Z</time>
      </trkpt>
      <trkpt lat="43.60412" lon="7.1056">
        <ele>53</ele>
        <time>2010-02-07T10:42:16Z</time>
      </trkpt>
      <trkpt lat="43.60412" lon="7.1056">
        <ele>53</ele>
        <time>2010-02-07T10:42:18Z</time>
      </trkpt>
      <trkpt lat="43.60412" lon="7.1056">
        <ele>53</ele>
        <time>2010-02-07T10:42:28Z</time>
      </trkpt>
      <trkpt lat="43.60439" lon="7.10566">
        <ele>50</ele>
        <time>2010-02-07T10:42:34Z</time>
      </trkpt>
      <trkpt lat="43.60439" lon="7.10566">
        <ele>50</ele>
        <time>2010-02-07T10:42:42Z</time>
      </trkpt>
      <trkpt lat="43.60442" lon="7.10577">
        <ele>50</ele>
        <time>2010-02-07T10:42:46Z</time>
      </trkpt>
      <trkpt lat="43.60442" lon="7.10577">
        <ele>50</ele>
        <time>2010-02-07T10:42:53Z</time>
      </trkpt>
      <trkpt lat="43.60442" lon="7.10577">
        <ele>50</ele>
        <time>2010-02-07T10:42:55Z</time>
      </trkpt>
      <trkpt lat="43.60442" lon="7.10577">
        <ele>50</ele>
        <time>2010-02-07T10:43:07Z</time>
      </trkpt>
      <trkpt lat="43.60437" lon="7.10605">
        <ele>51</ele>
        <time>2010-02-07T10:43:11Z</time>
      </trkpt>
      <trkpt lat="43.60429" lon="7.10633">
        <ele>51</ele>
        <time>2010-02-07T10:43:25Z</time>
      </trkpt>
      <trkpt lat="43.60429" lon="7.10633">
        <ele>51</ele>
        <time>2010-02-07T10:43:27Z</time>
      </trkpt>
      <trkpt lat="43.60429" lon="7.10633">
        <ele>51</ele>
        <time>2010-02-07T10:43:29Z</time>
      </trkpt>
      <trkpt lat="43.60426" lon="7.10648">
        <ele>51</ele>
        <time>2010-02-07T10:43:34Z</time>
      </trkpt>
      <trkpt lat="43.60422" lon="7.10665">
        <ele>52</ele>
        <time>2010-02-07T10:43:48Z</time>
      </trkpt>
      <trkpt lat="43.60422" lon="7.10665">
        <ele>52</ele>
        <time>2010-02-07T10:43:50Z</time>
      </trkpt>
      <trkpt lat="43.60422" lon="7.10665">
        <ele>52</ele>
        <time>2010-02-07T10:43:52Z</time>
      </trkpt>
      <trkpt lat="43.60422" lon="7.10665">
        <ele>52</ele>
        <time>2010-02-07T10:43:55Z</time>
      </trkpt>
      <trkpt lat="43.60421" lon="7.1069">
        <ele>49</ele>
        <time>2010-02-07T10:43:58Z</time>
      </trkpt>
      <trkpt lat="43.60421" lon="7.1069">
        <ele>49</ele>
        <time>2010-02-07T10:44:06Z</time>
      </trkpt>
      <trkpt lat="43.60422" lon="7.10718">
        <ele>47</ele>
        <time>2010-02-07T10:44:13Z</time>
      </trkpt>
      <trkpt lat="43.60422" lon="7.10731">
        <ele>46</ele>
        <time>2010-02-07T10:44:22Z</time>
      </trkpt>
      <trkpt lat="43.60423" lon="7.10744">
        <ele>45</ele>
        <time>2010-02-07T10:44:25Z</time>
      </trkpt>
      <trkpt lat="43.60415" lon="7.10768">
        <ele>43</ele>
        <time>2010-02-07T10:44:35Z</time>
      </trkpt>
      <trkpt lat="43.60415" lon="7.10768">
        <ele>43</ele>
        <time>2010-02-07T10:44:37Z</time>
      </trkpt>
      <trkpt lat="43.60415" lon="7.10768">
        <ele>43</ele>
        <time>2010-02-07T10:44:39Z</time>
      </trkpt>
      <trkpt lat="43.60407" lon="7.10778">
        <ele>43</ele>
        <time>2010-02-07T10:44:43Z</time>
      </trkpt>
      <trkpt lat="43.60397" lon="7.10785">
        <ele>42</ele>
        <time>2010-02-07T10:44:49Z</time>
      </trkpt>
      <trkpt lat="43.60383" lon="7.10789">
        <ele>42</ele>
        <time>2010-02-07T10:44:54Z</time>
      </trkpt>
      <trkpt lat="43.60376" lon="7.10791">
        <ele>43</ele>
        <time>2010-02-07T10:45:02Z</time>
      </trkpt>
      <trkpt lat="43.60376" lon="7.10791">
        <ele>43</ele>
        <time>2010-02-07T10:45:06Z</time>
      </trkpt>
      <trkpt lat="43.60364" lon="7.10791">
        <ele>43</ele>
        <time>2010-02-07T10:45:11Z</time>
      </trkpt>
      <trkpt lat="43.60347" lon="7.10796">
        <ele>43</ele>
        <time>2010-02-07T10:45:25Z</time>
      </trkpt>
      <trkpt lat="43.60332" lon="7.10796">
        <ele>45</ele>
        <time>2010-02-07T10:45:35Z</time>
      </trkpt>
      <trkpt lat="43.60309" lon="7.10796">
        <ele>45</ele>
        <time>2010-02-07T10:45:51Z</time>
      </trkpt>
      <trkpt lat="43.60289" lon="7.108">
        <ele>45</ele>
        <time>2010-02-07T10:46:06Z</time>
      </trkpt>
      <trkpt lat="43.60269" lon="7.108">
        <ele>45</ele>
        <time>2010-02-07T10:46:18Z</time>
      </trkpt>
      <trkpt lat="43.60252" lon="7.108">
        <ele>45</ele>
        <time>2010-02-07T10:46:32Z</time>
      </trkpt>
      <trkpt lat="43.60238" lon="7.10802">
        <ele>48</ele>
        <time>2010-02-07T10:46:49Z</time>
      </trkpt>
      <trkpt lat="43.60239" lon="7.10806">
        <ele>47</ele>
        <time>2010-02-07T10:46:52Z</time>
      </trkpt>
      <trkpt lat="43.60242" lon="7.10828">
        <ele>44</ele>
        <time>2010-02-07T10:47:05Z</time>
      </trkpt>
      <trkpt lat="43.60245" lon="7.10847">
        <ele>42</ele>
        <time>2010-02-07T10:47:20Z</time>
      </trkpt>
      <trkpt lat="43.60246" lon="7.10862">
        <ele>41</ele>
        <time>2010-02-07T10:47:23Z</time>
      </trkpt>
      <trkpt lat="43.60248" lon="7.10875">
        <ele>40</ele>
        <time>2010-02-07T10:47:30Z</time>
      </trkpt>
      <trkpt lat="43.60259" lon="7.10942">
        <ele>34</ele>
        <time>2010-02-07T10:48:06Z</time>
      </trkpt>
      <trkpt lat="43.60263" lon="7.10978">
        <ele>33</ele>
        <time>2010-02-07T10:48:23Z</time>
      </trkpt>
      <trkpt lat="43.60267" lon="7.11002">
        <ele>31</ele>
        <time>2010-02-07T10:48:37Z</time>
      </trkpt>
      <trkpt lat="43.60267" lon="7.11002">
        <ele>31</ele>
        <time>2010-02-07T10:48:39Z</time>
      </trkpt>
      <trkpt lat="43.60267" lon="7.11002">
        <ele>31</ele>
        <time>2010-02-07T10:48:41Z</time>
      </trkpt>
      <trkpt lat="43.60267" lon="7.11002">
        <ele>31</ele>
        <time>2010-02-07T10:48:44Z</time>
      </trkpt>
      <trkpt lat="43.60271" lon="7.11021">
        <ele>30</ele>
        <time>2010-02-07T10:48:48Z</time>
      </trkpt>
      <trkpt lat="43.60271" lon="7.11042">
        <ele>30</ele>
        <time>2010-02-07T10:48:54Z</time>
      </trkpt>
      <trkpt lat="43.60271" lon="7.1107">
        <ele>30</ele>
        <time>2010-02-07T10:49:06Z</time>
      </trkpt>
      <trkpt lat="43.60275" lon="7.11096">
        <ele>29</ele>
        <time>2010-02-07T10:49:20Z</time>
      </trkpt>
      <trkpt lat="43.60275" lon="7.11096">
        <ele>29</ele>
        <time>2010-02-07T10:49:22Z</time>
      </trkpt>
      <trkpt lat="43.60275" lon="7.11096">
        <ele>29</ele>
        <time>2010-02-07T10:49:25Z</time>
      </trkpt>
      <trkpt lat="43.60275" lon="7.11096">
        <ele>29</ele>
        <time>2010-02-07T10:49:27Z</time>
      </trkpt>
      <trkpt lat="43.60277" lon="7.11117">
        <ele>29</ele>
        <time>2010-02-07T10:49:32Z</time>
      </trkpt>
      <trkpt lat="43.6029" lon="7.11199">
        <ele>30</ele>
        <time>2010-02-07T10:50:08Z</time>
      </trkpt>
      <trkpt lat="43.60296" lon="7.11214">
        <ele>29</ele>
        <time>2010-02-07T10:50:16Z</time>
      </trkpt>
      <trkpt lat="43.60294" lon="7.11223">
        <ele>29</ele>
        <time>2010-02-07T10:50:21Z</time>
      </trkpt>
      <trkpt lat="43.60284" lon="7.1124">
        <ele>30</ele>
        <time>2010-02-07T10:50:31Z</time>
      </trkpt>
      <trkpt lat="43.6028" lon="7.11261">
        <ele>30</ele>
        <time>2010-02-07T10:50:43Z</time>
      </trkpt>
      <trkpt lat="43.60283" lon="7.1127">
        <ele>30</ele>
        <time>2010-02-07T10:50:48Z</time>
      </trkpt>
      <trkpt lat="43.60289" lon="7.11274">
        <ele>30</ele>
        <time>2010-02-07T10:50:53Z</time>
      </trkpt>
      <trkpt lat="43.60298" lon="7.11289">
        <ele>29</ele>
        <time>2010-02-07T10:51:05Z</time>
      </trkpt>
      <trkpt lat="43.603" lon="7.11298">
        <ele>29</ele>
        <time>2010-02-07T10:51:16Z</time>
      </trkpt>
      <trkpt lat="43.60303" lon="7.11317">
        <ele>29</ele>
        <time>2010-02-07T10:51:21Z</time>
      </trkpt>
      <trkpt lat="43.60304" lon="7.1133">
        <ele>29</ele>
        <time>2010-02-07T10:51:29Z</time>
      </trkpt>
      <trkpt lat="43.603" lon="7.11351">
        <ele>29</ele>
        <time>2010-02-07T10:51:40Z</time>
      </trkpt>
      <trkpt lat="43.603" lon="7.11375">
        <ele>29</ele>
        <time>2010-02-07T10:51:56Z</time>
      </trkpt>
      <trkpt lat="43.603" lon="7.11375">
        <ele>29</ele>
        <time>2010-02-07T10:52:00Z</time>
      </trkpt>
      <trkpt lat="43.603" lon="7.11375">
        <ele>29</ele>
        <time>2010-02-07T10:52:00Z</time>
      </trkpt>
      <trkpt lat="43.60298" lon="7.11388">
        <ele>29</ele>
        <time>2010-02-07T10:52:04Z</time>
      </trkpt>
      <trkpt lat="43.60298" lon="7.11405">
        <ele>29</ele>
        <time>2010-02-07T10:52:10Z</time>
      </trkpt>
      <trkpt lat="43.60294" lon="7.11429">
        <ele>30</ele>
        <time>2010-02-07T10:52:22Z</time>
      </trkpt>
      <trkpt lat="43.60285" lon="7.11446">
        <ele>30</ele>
        <time>2010-02-07T10:52:33Z</time>
      </trkpt>
      <trkpt lat="43.60275" lon="7.11474">
        <ele>30</ele>
        <time>2010-02-07T10:52:48Z</time>
      </trkpt>
      <trkpt lat="43.6027" lon="7.11499">
        <ele>29</ele>
        <time>2010-02-07T10:53:01Z</time>
      </trkpt>
      <trkpt lat="43.60267" lon="7.11529">
        <ele>30</ele>
        <time>2010-02-07T10:53:17Z</time>
      </trkpt>
      <trkpt lat="43.60265" lon="7.11542">
        <ele>30</ele>
        <time>2010-02-07T10:53:29Z</time>
      </trkpt>
      <trkpt lat="43.60265" lon="7.11547">
        <ele>30</ele>
        <time>2010-02-07T10:53:31Z</time>
      </trkpt>
      <trkpt lat="43.60264" lon="7.11572">
        <ele>30</ele>
        <time>2010-02-07T10:53:47Z</time>
      </trkpt>
      <trkpt lat="43.60264" lon="7.11572">
        <ele>30</ele>
        <time>2010-02-07T10:53:49Z</time>
      </trkpt>
      <trkpt lat="43.60264" lon="7.11572">
        <ele>30</ele>
        <time>2010-02-07T10:53:51Z</time>
      </trkpt>
      <trkpt lat="43.60263" lon="7.11585">
        <ele>29</ele>
        <time>2010-02-07T10:53:55Z</time>
      </trkpt>
      <trkpt lat="43.60263" lon="7.11585">
        <ele>29</ele>
        <time>2010-02-07T10:54:01Z</time>
      </trkpt>
      <trkpt lat="43.60263" lon="7.11602">
        <ele>29</ele>
        <time>2010-02-07T10:54:04Z</time>
      </trkpt>
      <trkpt lat="43.60262" lon="7.11607">
        <ele>29</ele>
        <time>2010-02-07T10:54:06Z</time>
      </trkpt>
      <trkpt lat="43.60261" lon="7.11626">
        <ele>28</ele>
        <time>2010-02-07T10:54:14Z</time>
      </trkpt>
      <trkpt lat="43.60256" lon="7.11645">
        <ele>28</ele>
        <time>2010-02-07T10:54:27Z</time>
      </trkpt>
      <trkpt lat="43.60257" lon="7.11658">
        <ele>27</ele>
        <time>2010-02-07T10:54:37Z</time>
      </trkpt>
      <trkpt lat="43.60257" lon="7.11667">
        <ele>27</ele>
        <time>2010-02-07T10:54:39Z</time>
      </trkpt>
      <trkpt lat="43.60259" lon="7.11686">
        <ele>26</ele>
        <time>2010-02-07T10:54:49Z</time>
      </trkpt>
      <trkpt lat="43.60257" lon="7.1171">
        <ele>25</ele>
        <time>2010-02-07T10:55:03Z</time>
      </trkpt>
      <trkpt lat="43.6026" lon="7.11735">
        <ele>25</ele>
        <time>2010-02-07T10:55:15Z</time>
      </trkpt>
      <trkpt lat="43.60256" lon="7.11755">
        <ele>24</ele>
        <time>2010-02-07T10:55:25Z</time>
      </trkpt>
      <trkpt lat="43.6025" lon="7.11798">
        <ele>24</ele>
        <time>2010-02-07T10:55:44Z</time>
      </trkpt>
      <trkpt lat="43.60249" lon="7.11813">
        <ele>24</ele>
        <time>2010-02-07T10:55:54Z</time>
      </trkpt>
      <trkpt lat="43.60248" lon="7.11819">
        <ele>24</ele>
        <time>2010-02-07T10:55:57Z</time>
      </trkpt>
      <trkpt lat="43.60247" lon="7.11853">
        <ele>22</ele>
        <time>2010-02-07T10:56:13Z</time>
      </trkpt>
      <trkpt lat="43.60245" lon="7.11879">
        <ele>22</ele>
        <time>2010-02-07T10:56:28Z</time>
      </trkpt>
      <trkpt lat="43.60245" lon="7.11879">
        <ele>22</ele>
        <time>2010-02-07T10:56:30Z</time>
      </trkpt>
      <trkpt lat="43.60245" lon="7.11879">
        <ele>22</ele>
        <time>2010-02-07T10:56:32Z</time>
      </trkpt>
      <trkpt lat="43.60245" lon="7.11879">
        <ele>22</ele>
        <time>2010-02-07T10:56:39Z</time>
      </trkpt>
      <trkpt lat="43.60246" lon="7.11896">
        <ele>21</ele>
        <time>2010-02-07T10:56:43Z</time>
      </trkpt>
      <trkpt lat="43.60246" lon="7.11907">
        <ele>21</ele>
        <time>2010-02-07T10:56:47Z</time>
      </trkpt>
      <trkpt lat="43.60241" lon="7.11926">
        <ele>20</ele>
        <time>2010-02-07T10:56:57Z</time>
      </trkpt>
      <trkpt lat="43.6024" lon="7.11952">
        <ele>19</ele>
        <time>2010-02-07T10:57:08Z</time>
      </trkpt>
      <trkpt lat="43.6024" lon="7.11952">
        <ele>19</ele>
        <time>2010-02-07T10:57:10Z</time>
      </trkpt>
      <trkpt lat="43.6024" lon="7.11952">
        <ele>19</ele>
        <time>2010-02-07T10:57:14Z</time>
      </trkpt>
      <trkpt lat="43.6024" lon="7.11965">
        <ele>18</ele>
        <time>2010-02-07T10:57:18Z</time>
      </trkpt>
      <trkpt lat="43.6024" lon="7.11965">
        <ele>18</ele>
        <time>2010-02-07T10:57:24Z</time>
      </trkpt>
      <trkpt lat="43.60238" lon="7.11991">
        <ele>17</ele>
        <time>2010-02-07T10:57:29Z</time>
      </trkpt>
      <trkpt lat="43.60237" lon="7.12021">
        <ele>16</ele>
        <time>2010-02-07T10:57:39Z</time>
      </trkpt>
      <trkpt lat="43.60238" lon="7.12055">
        <ele>15</ele>
        <time>2010-02-07T10:57:53Z</time>
      </trkpt>
      <trkpt lat="43.60238" lon="7.12055">
        <ele>15</ele>
        <time>2010-02-07T10:57:55Z</time>
      </trkpt>
      <trkpt lat="43.60238" lon="7.12062">
        <ele>15</ele>
        <time>2010-02-07T10:57:58Z</time>
      </trkpt>
      <trkpt lat="43.6024" lon="7.12081">
        <ele>15</ele>
        <time>2010-02-07T10:58:09Z</time>
      </trkpt>
      <trkpt lat="43.60236" lon="7.12102">
        <ele>13</ele>
        <time>2010-02-07T10:58:21Z</time>
      </trkpt>
      <trkpt lat="43.6023" lon="7.12109">
        <ele>13</ele>
        <time>2010-02-07T10:58:28Z</time>
      </trkpt>
      <trkpt lat="43.60219" lon="7.12113">
        <ele>13</ele>
        <time>2010-02-07T10:58:36Z</time>
      </trkpt>
      <trkpt lat="43.60207" lon="7.12113">
        <ele>13</ele>
        <time>2010-02-07T10:58:44Z</time>
      </trkpt>
      <trkpt lat="43.60187" lon="7.12115">
        <ele>13</ele>
        <time>2010-02-07T10:59:01Z</time>
      </trkpt>
      <trkpt lat="43.60178" lon="7.1212">
        <ele>13</ele>
        <time>2010-02-07T10:59:07Z</time>
      </trkpt>
      <trkpt lat="43.60173" lon="7.12126">
        <ele>13</ele>
        <time>2010-02-07T10:59:11Z</time>
      </trkpt>
      <trkpt lat="43.60163" lon="7.12132">
        <ele>11</ele>
        <time>2010-02-07T10:59:19Z</time>
      </trkpt>
      <trkpt lat="43.60157" lon="7.12141">
        <ele>11</ele>
        <time>2010-02-07T10:59:26Z</time>
      </trkpt>
      <trkpt lat="43.60141" lon="7.12154">
        <ele>10</ele>
        <time>2010-02-07T10:59:42Z</time>
      </trkpt>
      <trkpt lat="43.60127" lon="7.1216">
        <ele>10</ele>
        <time>2010-02-07T10:59:53Z</time>
      </trkpt>
      <trkpt lat="43.60119" lon="7.1216">
        <ele>10</ele>
        <time>2010-02-07T10:59:59Z</time>
      </trkpt>
      <trkpt lat="43.60089" lon="7.12165">
        <ele>8</ele>
        <time>2010-02-07T11:00:22Z</time>
      </trkpt>
      <trkpt lat="43.60077" lon="7.12167">
        <ele>8</ele>
        <time>2010-02-07T11:00:35Z</time>
      </trkpt>
      <trkpt lat="43.60072" lon="7.12165">
        <ele>8</ele>
        <time>2010-02-07T11:00:38Z</time>
      </trkpt>
      <trkpt lat="43.60059" lon="7.12158">
        <ele>8</ele>
        <time>2010-02-07T11:00:48Z</time>
      </trkpt>
      <trkpt lat="43.60044" lon="7.12154">
        <ele>8</ele>
        <time>2010-02-07T11:00:58Z</time>
      </trkpt>
      <trkpt lat="43.60028" lon="7.12154">
        <ele>8</ele>
        <time>2010-02-07T11:01:08Z</time>
      </trkpt>
      <trkpt lat="43.60023" lon="7.12162">
        <ele>8</ele>
        <time>2010-02-07T11:01:17Z</time>
      </trkpt>
      <trkpt lat="43.60018" lon="7.12171">
        <ele>7</ele>
        <time>2010-02-07T11:01:19Z</time>
      </trkpt>
      <trkpt lat="43.60017" lon="7.12182">
        <ele>7</ele>
        <time>2010-02-07T11:01:26Z</time>
      </trkpt>
      <trkpt lat="43.60016" lon="7.12184">
        <ele>7</ele>
        <time>2010-02-07T11:01:31Z</time>
      </trkpt>
      <trkpt lat="43.60012" lon="7.12193">
        <ele>7</ele>
        <time>2010-02-07T11:01:35Z</time>
      </trkpt>
      <trkpt lat="43.60011" lon="7.12195">
        <ele>7</ele>
        <time>2010-02-07T11:01:41Z</time>
      </trkpt>
      <trkpt lat="43.60011" lon="7.12195">
        <ele>7</ele>
        <time>2010-02-07T11:01:44Z</time>
      </trkpt>
      <trkpt lat="43.60011" lon="7.12195">
        <ele>7</ele>
        <time>2010-02-07T11:01:50Z</time>
      </trkpt>
    </trkseg>
      <trkpt lat="43.60152" lon="7.1224">
        <ele>7</ele>
        <time>2010-02-07T11:01:50Z</time>
      </trkpt>
      <trkpt lat="43.60162" lon="7.12244">
        <ele>7</ele>
        <time>2010-02-07T11:02:03Z</time>
      </trkpt>
      <trkpt lat="43.60178" lon="7.12248">
        <ele>7</ele>
        <time>2010-02-07T11:02:15Z</time>
      </trkpt>
      <trkpt lat="43.60188" lon="7.1225">
        <ele>8</ele>
        <time>2010-02-07T11:02:26Z</time>
      </trkpt>
      <trkpt lat="43.60188" lon="7.1225">
        <ele>8</ele>
        <time>2010-02-07T11:02:31Z</time>
      </trkpt>
      <trkpt lat="43.60204" lon="7.12255">
        <ele>6</ele>
        <time>2010-02-07T11:02:35Z</time>
      </trkpt>
      <trkpt lat="43.60212" lon="7.12255">
        <ele>6</ele>
        <time>2010-02-07T11:02:43Z</time>
      </trkpt>
      <trkpt lat="43.60212" lon="7.12255">
        <ele>6</ele>
        <time>2010-02-07T11:02:49Z</time>
      </trkpt>
      <trkpt lat="43.6023" lon="7.12261">
        <ele>6</ele>
        <time>2010-02-07T11:02:54Z</time>
      </trkpt>
      <trkpt lat="43.6024" lon="7.12261">
        <ele>6</ele>
        <time>2010-02-07T11:03:01Z</time>
      </trkpt>
      <trkpt lat="43.60248" lon="7.12263">
        <ele>6</ele>
        <time>2010-02-07T11:03:10Z</time>
      </trkpt>
      <trkpt lat="43.60265" lon="7.1227">
        <ele>6</ele>
        <time>2010-02-07T11:03:16Z</time>
      </trkpt>
      <trkpt lat="43.60273" lon="7.12272">
        <ele>6</ele>
        <time>2010-02-07T11:03:23Z</time>
      </trkpt>
      <trkpt lat="43.60273" lon="7.12272">
        <ele>6</ele>
        <time>2010-02-07T11:03:27Z</time>
      </trkpt>
      <trkpt lat="43.60291" lon="7.12274">
        <ele>5</ele>
        <time>2010-02-07T11:03:31Z</time>
      </trkpt>
      <trkpt lat="43.60304" lon="7.12278">
        <ele>5</ele>
        <time>2010-02-07T11:03:43Z</time>
      </trkpt>
      <trkpt lat="43.60314" lon="7.12283">
        <ele>5</ele>
        <time>2010-02-07T11:03:49Z</time>
      </trkpt>
      <trkpt lat="43.60314" lon="7.12283">
        <ele>5</ele>
        <time>2010-02-07T11:03:55Z</time>
      </trkpt>
      <trkpt lat="43.60326" lon="7.12287">
        <ele>5</ele>
        <time>2010-02-07T11:03:59Z</time>
      </trkpt>
      <trkpt lat="43.60333" lon="7.12289">
        <ele>5</ele>
        <time>2010-02-07T11:04:01Z</time>
      </trkpt>
      <trkpt lat="43.60336" lon="7.12289">
        <ele>5</ele>
        <time>2010-02-07T11:04:07Z</time>
      </trkpt>
      <trkpt lat="43.60345" lon="7.12289">
        <ele>5</ele>
        <time>2010-02-07T11:04:12Z</time>
      </trkpt>
      <trkpt lat="43.60367" lon="7.12287">
        <ele>5</ele>
        <time>2010-02-07T11:04:28Z</time>
      </trkpt>
      <trkpt lat="43.60378" lon="7.12291">
        <ele>6</ele>
        <time>2010-02-07T11:04:33Z</time>
      </trkpt>
      <trkpt lat="43.60394" lon="7.12296">
        <ele>6</ele>
        <time>2010-02-07T11:04:43Z</time>
      </trkpt>
      <trkpt lat="43.60394" lon="7.12296">
        <ele>6</ele>
        <time>2010-02-07T11:04:48Z</time>
      </trkpt>
      <trkpt lat="43.60394" lon="7.12296">
        <ele>6</ele>
        <time>2010-02-07T11:04:53Z</time>
      </trkpt>
      <trkpt lat="43.60417" lon="7.12298">
        <ele>7</ele>
        <time>2010-02-07T11:04:57Z</time>
      </trkpt>
      <trkpt lat="43.60431" lon="7.12293">
        <ele>7</ele>
        <time>2010-02-07T11:05:03Z</time>
      </trkpt>
      <trkpt lat="43.60444" lon="7.12293">
        <ele>7</ele>
        <time>2010-02-07T11:05:09Z</time>
      </trkpt>
      <trkpt lat="43.60465" lon="7.12293">
        <ele>7</ele>
        <time>2010-02-07T11:05:22Z</time>
      </trkpt>
      <trkpt lat="43.60466" lon="7.12296">
        <ele>7</ele>
        <time>2010-02-07T11:05:27Z</time>
      </trkpt>
      <trkpt lat="43.60481" lon="7.12298">
        <ele>7</ele>
        <time>2010-02-07T11:05:33Z</time>
      </trkpt>
      <trkpt lat="43.60488" lon="7.12302">
        <ele>7</ele>
        <time>2010-02-07T11:05:38Z</time>
      </trkpt>
      <trkpt lat="43.60521" lon="7.12321">
        <ele>7</ele>
        <time>2010-02-07T11:06:04Z</time>
      </trkpt>
      <trkpt lat="43.60529" lon="7.12326">
        <ele>7</ele>
        <time>2010-02-07T11:06:06Z</time>
      </trkpt>
      <trkpt lat="43.60538" lon="7.12326">
        <ele>8</ele>
        <time>2010-02-07T11:06:13Z</time>
      </trkpt>
      <trkpt lat="43.60557" lon="7.1233">
        <ele>8</ele>
        <time>2010-02-07T11:06:27Z</time>
      </trkpt>
      <trkpt lat="43.60571" lon="7.12336">
        <ele>6</ele>
        <time>2010-02-07T11:06:35Z</time>
      </trkpt>
      <trkpt lat="43.60586" lon="7.12343">
        <ele>7</ele>
        <time>2010-02-07T11:06:48Z</time>
      </trkpt>
      <trkpt lat="43.60595" lon="7.12341">
        <ele>7</ele>
        <time>2010-02-07T11:06:57Z</time>
      </trkpt>
      <trkpt lat="43.60601" lon="7.12336">
        <ele>7</ele>
        <time>2010-02-07T11:06:59Z</time>
      </trkpt>
      <trkpt lat="43.6061" lon="7.12334">
        <ele>7</ele>
        <time>2010-02-07T11:07:03Z</time>
      </trkpt>
      <trkpt lat="43.60624" lon="7.1233">
        <ele>10</ele>
        <time>2010-02-07T11:07:13Z</time>
      </trkpt>
      <trkpt lat="43.60635" lon="7.12332">
        <ele>11</ele>
        <time>2010-02-07T11:07:22Z</time>
      </trkpt>
      <trkpt lat="43.60641" lon="7.12336">
        <ele>8</ele>
        <time>2010-02-07T11:07:26Z</time>
      </trkpt>
      <trkpt lat="43.60641" lon="7.12336">
        <ele>8</ele>
        <time>2010-02-07T11:07:26Z</time>
      </trkpt>
    </trkseg>
      <trkpt lat="43.60719" lon="7.12381">
        <ele>6</ele>
        <time>2010-02-07T11:07:26Z</time>
      </trkpt>
      <trkpt lat="43.60723" lon="7.12388">
        <ele>6</ele>
        <time>2010-02-07T11:07:37Z</time>
      </trkpt>
      <trkpt lat="43.60735" lon="7.12401">
        <ele>6</ele>
        <time>2010-02-07T11:07:49Z</time>
      </trkpt>
      <trkpt lat="43.60743" lon="7.12405">
        <ele>5</ele>
        <time>2010-02-07T11:07:57Z</time>
      </trkpt>
      <trkpt lat="43.60767" lon="7.12416">
        <ele>5</ele>
        <time>2010-02-07T11:08:16Z</time>
      </trkpt>
      <trkpt lat="43.60786" lon="7.12424">
        <ele>4</ele>
        <time>2010-02-07T11:08:37Z</time>
      </trkpt>
      <trkpt lat="43.60786" lon="7.12424">
        <ele>4</ele>
        <time>2010-02-07T11:08:41Z</time>
      </trkpt>
      <trkpt lat="43.60796" lon="7.12429">
        <ele>4</ele>
        <time>2010-02-07T11:08:44Z</time>
      </trkpt>
      <trkpt lat="43.60805" lon="7.12431">
        <ele>4</ele>
        <time>2010-02-07T11:08:55Z</time>
      </trkpt>
      <trkpt lat="43.60813" lon="7.12433">
        <ele>4</ele>
        <time>2010-02-07T11:08:57Z</time>
      </trkpt>
      <trkpt lat="43.60826" lon="7.12437">
        <ele>5</ele>
        <time>2010-02-07T11:09:05Z</time>
      </trkpt>
      <trkpt lat="43.60837" lon="7.12446">
        <ele>4</ele>
        <time>2010-02-07T11:09:14Z</time>
      </trkpt>
      <trkpt lat="43.6085" lon="7.12452">
        <ele>4</ele>
        <time>2010-02-07T11:09:22Z</time>
      </trkpt>
      <trkpt lat="43.60863" lon="7.12463">
        <ele>4</ele>
        <time>2010-02-07T11:09:34Z</time>
      </trkpt>
      <trkpt lat="43.60878" lon="7.12471">
        <ele>4</ele>
        <time>2010-02-07T11:09:45Z</time>
      </trkpt>
      <trkpt lat="43.60912" lon="7.12486">
        <ele>4</ele>
        <time>2010-02-07T11:10:12Z</time>
      </trkpt>
      <trkpt lat="43.60928" lon="7.12489">
        <ele>4</ele>
        <time>2010-02-07T11:10:20Z</time>
      </trkpt>
      <trkpt lat="43.60945" lon="7.12497">
        <ele>5</ele>
        <time>2010-02-07T11:10:33Z</time>
      </trkpt>
      <trkpt lat="43.60962" lon="7.12504">
        <ele>5</ele>
        <time>2010-02-07T11:10:47Z</time>
      </trkpt>
      <trkpt lat="43.60983" lon="7.12508">
        <ele>5</ele>
        <time>2010-02-07T11:11:04Z</time>
      </trkpt>
      <trkpt lat="43.60992" lon="7.12514">
        <ele>5</ele>
        <time>2010-02-07T11:11:13Z</time>
      </trkpt>
      <trkpt lat="43.60996" lon="7.12519">
        <ele>5</ele>
        <time>2010-02-07T11:11:15Z</time>
      </trkpt>
      <trkpt lat="43.61005" lon="7.12525">
        <ele>5</ele>
        <time>2010-02-07T11:11:21Z</time>
      </trkpt>
      <trkpt lat="43.61014" lon="7.12527">
        <ele>5</ele>
        <time>2010-02-07T11:11:28Z</time>
      </trkpt>
      <trkpt lat="43.61018" lon="7.12532">
        <ele>5</ele>
        <time>2010-02-07T11:11:33Z</time>
      </trkpt>
      <trkpt lat="43.61028" lon="7.12536">
        <ele>5</ele>
        <time>2010-02-07T11:11:40Z</time>
      </trkpt>
      <trkpt lat="43.61048" lon="7.12549">
        <ele>5</ele>
        <time>2010-02-07T11:11:54Z</time>
      </trkpt>
      <trkpt lat="43.61064" lon="7.12559">
        <ele>5</ele>
        <time>2010-02-07T11:12:10Z</time>
      </trkpt>
      <trkpt lat="43.61064" lon="7.12559">
        <ele>5</ele>
        <time>2010-02-07T11:12:14Z</time>
      </trkpt>
      <trkpt lat="43.61081" lon="7.1257">
        <ele>4</ele>
        <time>2010-02-07T11:12:18Z</time>
      </trkpt>
      <trkpt lat="43.6109" lon="7.1257">
        <ele>4</ele>
        <time>2010-02-07T11:12:26Z</time>
      </trkpt>
      <trkpt lat="43.61102" lon="7.12574">
        <ele>4</ele>
        <time>2010-02-07T11:12:34Z</time>
      </trkpt>
      <trkpt lat="43.6111" lon="7.12581">
        <ele>4</ele>
        <time>2010-02-07T11:12:41Z</time>
      </trkpt>
      <trkpt lat="43.61124" lon="7.12587">
        <ele>4</ele>
        <time>2010-02-07T11:12:50Z</time>
      </trkpt>
      <trkpt lat="43.61128" lon="7.12587">
        <ele>4</ele>
        <time>2010-02-07T11:12:58Z</time>
      </trkpt>
      <trkpt lat="43.61128" lon="7.12587">
        <ele>4</ele>
        <time>2010-02-07T11:13:02Z</time>
      </trkpt>
      <trkpt lat="43.61146" lon="7.12594">
        <ele>5</ele>
        <time>2010-02-07T11:13:07Z</time>
      </trkpt>
      <trkpt lat="43.61154" lon="7.126">
        <ele>5</ele>
        <time>2010-02-07T11:13:14Z</time>
      </trkpt>
      <trkpt lat="43.61166" lon="7.12609">
        <ele>5</ele>
        <time>2010-02-07T11:13:28Z</time>
      </trkpt>
      <trkpt lat="43.61176" lon="7.12613">
        <ele>4</ele>
        <time>2010-02-07T11:13:30Z</time>
      </trkpt>
      <trkpt lat="43.61187" lon="7.1262">
        <ele>4</ele>
        <time>2010-02-07T11:13:39Z</time>
      </trkpt>
      <trkpt lat="43.61192" lon="7.1262">
        <ele>4</ele>
        <time>2010-02-07T11:13:43Z</time>
      </trkpt>
      <trkpt lat="43.61208" lon="7.12622">
        <ele>4</ele>
        <time>2010-02-07T11:13:58Z</time>
      </trkpt>
      <trkpt lat="43.61208" lon="7.12622">
        <ele>4</ele>
        <time>2010-02-07T11:14:03Z</time>
      </trkpt>
      <trkpt lat="43.61222" lon="7.1262">
        <ele>4</ele>
        <time>2010-02-07T11:14:08Z</time>
      </trkpt>
      <trkpt lat="43.61225" lon="7.1262">
        <ele>4</ele>
        <time>2010-02-07T11:14:14Z</time>
      </trkpt>
      <trkpt lat="43.6124" lon="7.12611">
        <ele>4</ele>
        <time>2010-02-07T11:14:20Z</time>
      </trkpt>
      <trkpt lat="43.61243" lon="7.12609">
        <ele>4</ele>
        <time>2010-02-07T11:14:24Z</time>
      </trkpt>
      <trkpt lat="43.61248" lon="7.12611">
        <ele>4</ele>
        <time>2010-02-07T11:14:29Z</time>
      </trkpt>
      <trkpt lat="43.61256" lon="7.1262">
        <ele>4</ele>
        <time>2010-02-07T11:14:38Z</time>
      </trkpt>
      <trkpt lat="43.61258" lon="7.1263">
        <ele>4</ele>
        <time>2010-02-07T11:14:43Z</time>
      </trkpt>
      <trkpt lat="43.61266" lon="7.12647">
        <ele>4</ele>
        <time>2010-02-07T11:14:51Z</time>
      </trkpt>
      <trkpt lat="43.6127" lon="7.1265">
        <ele>4</ele>
        <time>2010-02-07T11:14:55Z</time>
      </trkpt>
      <trkpt lat="43.61286" lon="7.12662">
        <ele>4</ele>
        <time>2010-02-07T11:15:10Z</time>
      </trkpt>
      <trkpt lat="43.61286" lon="7.12662">
        <ele>4</ele>
        <time>2010-02-07T11:15:14Z</time>
      </trkpt>
      <trkpt lat="43.61296" lon="7.12665">
        <ele>4</ele>
        <time>2010-02-07T11:15:18Z</time>
      </trkpt>
      <trkpt lat="43.61301" lon="7.12669">
        <ele>4</ele>
        <time>2010-02-07T11:15:23Z</time>
      </trkpt>
      <trkpt lat="43.61315" lon="7.1268">
        <ele>4</ele>
        <time>2010-02-07T11:15:36Z</time>
      </trkpt>
      <trkpt lat="43.61337" lon="7.12692">
        <ele>4</ele>
        <time>2010-02-07T11:15:49Z</time>
      </trkpt>
      <trkpt lat="43.61351" lon="7.12697">
        <ele>4</ele>
        <time>2010-02-07T11:15:55Z</time>
      </trkpt>
      <trkpt lat="43.6136" lon="7.12701">
        <ele>4</ele>
        <time>2010-02-07T11:16:04Z</time>
      </trkpt>
      <trkpt lat="43.61366" lon="7.12707">
        <ele>4</ele>
        <time>2010-02-07T11:16:09Z</time>
      </trkpt>
      <trkpt lat="43.61379" lon="7.12716">
        <ele>4</ele>
        <time>2010-02-07T11:16:20Z</time>
      </trkpt>
      <trkpt lat="43.61397" lon="7.12731">
        <ele>4</ele>
        <time>2010-02-07T11:16:35Z</time>
      </trkpt>
      <trkpt lat="43.6141" lon="7.12738">
        <ele>4</ele>
        <time>2010-02-07T11:16:44Z</time>
      </trkpt>
      <trkpt lat="43.61425" lon="7.12742">
        <ele>4</ele>
        <time>2010-02-07T11:16:52Z</time>
      </trkpt>
      <trkpt lat="43.61438" lon="7.12746">
        <ele>4</ele>
        <time>2010-02-07T11:17:03Z</time>
      </trkpt>
      <trkpt lat="43.61457" lon="7.12753">
        <ele>4</ele>
        <time>2010-02-07T11:17:16Z</time>
      </trkpt>
      <trkpt lat="43.61466" lon="7.12759">
        <ele>4</ele>
        <time>2010-02-07T11:17:22Z</time>
      </trkpt>
      <trkpt lat="43.61466" lon="7.12759">
        <ele>4</ele>
        <time>2010-02-07T11:17:26Z</time>
      </trkpt>
      <trkpt lat="43.61466" lon="7.12759">
        <ele>4</ele>
        <time>2010-02-07T11:17:31Z</time>
      </trkpt>
      <trkpt lat="43.61466" lon="7.12759">
        <ele>4</ele>
        <time>2010-02-07T11:17:34Z</time>
      </trkpt>
      <trkpt lat="43.61482" lon="7.12765">
        <ele>4</ele>
        <time>2010-02-07T11:17:38Z</time>
      </trkpt>
      <trkpt lat="43.61488" lon="7.12768">
        <ele>4</ele>
        <time>2010-02-07T11:17:46Z</time>
      </trkpt>
      <trkpt lat="43.61488" lon="7.12768">
        <ele>4</ele>
        <time>2010-02-07T11:17:51Z</time>
      </trkpt>
      <trkpt lat="43.61488" lon="7.12768">
        <ele>4</ele>
        <time>2010-02-07T11:17:53Z</time>
      </trkpt>
      <trkpt lat="43.61488" lon="7.12768">
        <ele>4</ele>
        <time>2010-02-07T11:18:18Z</time>
      </trkpt>
      <trkpt lat="43.61489" lon="7.12768">
        <ele>4</ele>
        <time>2010-02-07T11:18:18Z</time>
      </trkpt>
      <trkpt lat="43.6153" lon="7.12783">
        <ele>4</ele>
        <time>2010-02-07T11:18:43Z</time>
      </trkpt>
      <trkpt lat="43.6153" lon="7.12783">
        <ele>4</ele>
        <time>2010-02-07T11:18:47Z</time>
      </trkpt>
      <trkpt lat="43.6153" lon="7.12783">
        <ele>4</ele>
        <time>2010-02-07T11:18:51Z</time>
      </trkpt>
      <trkpt lat="43.6153" lon="7.12783">
        <ele>4</ele>
        <time>2010-02-07T11:18:56Z</time>
      </trkpt>
      <trkpt lat="43.6156" lon="7.12791">
        <ele>4</ele>
        <time>2010-02-07T11:19:01Z</time>
      </trkpt>
      <trkpt lat="43.61608" lon="7.12802">
        <ele>4</ele>
        <time>2010-02-07T11:19:18Z</time>
      </trkpt>
      <trkpt lat="43.61613" lon="7.12802">
        <ele>4</ele>
        <time>2010-02-07T11:19:22Z</time>
      </trkpt>
      <trkpt lat="43.61622" lon="7.12806">
        <ele>4</ele>
        <time>2010-02-07T11:19:29Z</time>
      </trkpt>
      <trkpt lat="43.61635" lon="7.12813">
        <ele>4</ele>
        <time>2010-02-07T11:19:43Z</time>
      </trkpt>
      <trkpt lat="43.61635" lon="7.12813">
        <ele>4</ele>
        <time>2010-02-07T11:19:47Z</time>
      </trkpt>
      <trkpt lat="43.6165" lon="7.12817">
        <ele>5</ele>
        <time>2010-02-07T11:19:51Z</time>
      </trkpt>
      <trkpt lat="43.6165" lon="7.12817">
        <ele>5</ele>
        <time>2010-02-07T11:19:59Z</time>
      </trkpt>
      <trkpt lat="43.6165" lon="7.12817">
        <ele>5</ele>
        <time>2010-02-07T11:20:03Z</time>
      </trkpt>
      <trkpt lat="43.61673" lon="7.12828">
        <ele>5</ele>
        <time>2010-02-07T11:20:08Z</time>
      </trkpt>
      <trkpt lat="43.6168" lon="7.12828">
        <ele>5</ele>
        <time>2010-02-07T11:20:11Z</time>
      </trkpt>
      <trkpt lat="43.61696" lon="7.12828">
        <ele>6</ele>
        <time>2010-02-07T11:20:20Z</time>
      </trkpt>
      <trkpt lat="43.61703" lon="7.1283">
        <ele>6</ele>
        <time>2010-02-07T11:20:28Z</time>
      </trkpt>
      <trkpt lat="43.61714" lon="7.12834">
        <ele>5</ele>
        <time>2010-02-07T11:20:32Z</time>
      </trkpt>
      <trkpt lat="43.61723" lon="7.12843">
        <ele>5</ele>
        <time>2010-02-07T11:20:40Z</time>
      </trkpt>
      <trkpt lat="43.61726" lon="7.12843">
        <ele>6</ele>
        <time>2010-02-07T11:20:48Z</time>
      </trkpt>
      <trkpt lat="43.61736" lon="7.12845">
        <ele>6</ele>
        <time>2010-02-07T11:20:52Z</time>
      </trkpt>
      <trkpt lat="43.61736" lon="7.12845">
        <ele>6</ele>
        <time>2010-02-07T11:21:00Z</time>
      </trkpt>
      <trkpt lat="43.61757" lon="7.12849">
        <ele>6</ele>
        <time>2010-02-07T11:21:05Z</time>
      </trkpt>
      <trkpt lat="43.61757" lon="7.12849">
        <ele>6</ele>
        <time>2010-02-07T11:21:16Z</time>
      </trkpt>
      <trkpt lat="43.61757" lon="7.12849">
        <ele>6</ele>
        <time>2010-02-07T11:21:19Z</time>
      </trkpt>
      <trkpt lat="43.6178" lon="7.12858">
        <ele>6</ele>
        <time>2010-02-07T11:21:27Z</time>
      </trkpt>
      <trkpt lat="43.61782" lon="7.1286">
        <ele>6</ele>
        <time>2010-02-07T11:21:31Z</time>
      </trkpt>
      <trkpt lat="43.61795" lon="7.12864">
        <ele>6</ele>
        <time>2010-02-07T11:21:36Z</time>
      </trkpt>
      <trkpt lat="43.61807" lon="7.12871">
        <ele>6</ele>
        <time>2010-02-07T11:21:48Z</time>
      </trkpt>
      <trkpt lat="43.61807" lon="7.12871">
        <ele>6</ele>
        <time>2010-02-07T11:21:52Z</time>
      </trkpt>
      <trkpt lat="43.61826" lon="7.12877">
        <ele>6</ele>
        <time>2010-02-07T11:21:57Z</time>
      </trkpt>
      <trkpt lat="43.61832" lon="7.12877">
        <ele>6</ele>
        <time>2010-02-07T11:22:03Z</time>
      </trkpt>
      <trkpt lat="43.61832" lon="7.12877">
        <ele>6</ele>
        <time>2010-02-07T11:22:08Z</time>
      </trkpt>
      <trkpt lat="43.61832" lon="7.12877">
        <ele>6</ele>
        <time>2010-02-07T11:22:12Z</time>
      </trkpt>
      <trkpt lat="43.61832" lon="7.12877">
        <ele>6</ele>
        <time>2010-02-07T11:22:16Z</time>
      </trkpt>
      <trkpt lat="43.61861" lon="7.12886">
        <ele>7</ele>
        <time>2010-02-07T11:22:22Z</time>
      </trkpt>
      <trkpt lat="43.61861" lon="7.12886">
        <ele>7</ele>
        <time>2010-02-07T11:22:30Z</time>
      </trkpt>
      <trkpt lat="43.61861" lon="7.12886">
        <ele>7</ele>
        <time>2010-02-07T11:22:35Z</time>
      </trkpt>
      <trkpt lat="43.61861" lon="7.12886">
        <ele>7</ele>
        <time>2010-02-07T11:22:38Z</time>
      </trkpt>
      <trkpt lat="43.61887" lon="7.12896">
        <ele>8</ele>
        <time>2010-02-07T11:22:44Z</time>
      </trkpt>
      <trkpt lat="43.61887" lon="7.12896">
        <ele>8</ele>
        <time>2010-02-07T11:22:49Z</time>
      </trkpt>
      <trkpt lat="43.61908" lon="7.12905">
        <ele>8</ele>
        <time>2010-02-07T11:22:54Z</time>
      </trkpt>
      <trkpt lat="43.61916" lon="7.12907">
        <ele>8</ele>
        <time>2010-02-07T11:23:04Z</time>
      </trkpt>
      <trkpt lat="43.6192" lon="7.12909">
        <ele>8</ele>
        <time>2010-02-07T11:23:07Z</time>
      </trkpt>
      <trkpt lat="43.61945" lon="7.12918">
        <ele>8</ele>
        <time>2010-02-07T11:23:22Z</time>
      </trkpt>
      <trkpt lat="43.61961" lon="7.12924">
        <ele>9</ele>
        <time>2010-02-07T11:23:35Z</time>
      </trkpt>
      <trkpt lat="43.61985" lon="7.12931">
        <ele>9</ele>
        <time>2010-02-07T11:23:58Z</time>
      </trkpt>
      <trkpt lat="43.62002" lon="7.12933">
        <ele>10</ele>
        <time>2010-02-07T11:24:08Z</time>
      </trkpt>
      <trkpt lat="43.62021" lon="7.12939">
        <ele>10</ele>
        <time>2010-02-07T11:24:20Z</time>
      </trkpt>
      <trkpt lat="43.62033" lon="7.12946">
        <ele>10</ele>
        <time>2010-02-07T11:24:32Z</time>
      </trkpt>
      <trkpt lat="43.62033" lon="7.12946">
        <ele>10</ele>
        <time>2010-02-07T11:24:38Z</time>
      </trkpt>
      <trkpt lat="43.62033" lon="7.12946">
        <ele>10</ele>
        <time>2010-02-07T11:24:40Z</time>
      </trkpt>
      <trkpt lat="43.62051" lon="7.12952">
        <ele>10</ele>
        <time>2010-02-07T11:24:44Z</time>
      </trkpt>
      <trkpt lat="43.62062" lon="7.12956">
        <ele>10</ele>
        <time>2010-02-07T11:24:52Z</time>
      </trkpt>
      <trkpt lat="43.62065" lon="7.12959">
        <ele>10</ele>
        <time>2010-02-07T11:24:59Z</time>
      </trkpt>
      <trkpt lat="43.62077" lon="7.12961">
        <ele>10</ele>
        <time>2010-02-07T11:25:04Z</time>
      </trkpt>
      <trkpt lat="43.62077" lon="7.12961">
        <ele>10</ele>
        <time>2010-02-07T11:25:09Z</time>
      </trkpt>
      <trkpt lat="43.62088" lon="7.12967">
        <ele>9</ele>
        <time>2010-02-07T11:25:13Z</time>
      </trkpt>
      <trkpt lat="43.62111" lon="7.12976">
        <ele>9</ele>
        <time>2010-02-07T11:25:30Z</time>
      </trkpt>
      <trkpt lat="43.62139" lon="7.12982">
        <ele>9</ele>
        <time>2010-02-07T11:25:45Z</time>
      </trkpt>
      <trkpt lat="43.62139" lon="7.12982">
        <ele>9</ele>
        <time>2010-02-07T11:25:50Z</time>
      </trkpt>
      <trkpt lat="43.62152" lon="7.12989">
        <ele>8</ele>
        <time>2010-02-07T11:25:54Z</time>
      </trkpt>
      <trkpt lat="43.6216" lon="7.12993">
        <ele>8</ele>
        <time>2010-02-07T11:26:05Z</time>
      </trkpt>
      <trkpt lat="43.6216" lon="7.12993">
        <ele>8</ele>
        <time>2010-02-07T11:26:10Z</time>
      </trkpt>
      <trkpt lat="43.6216" lon="7.12993">
        <ele>8</ele>
        <time>2010-02-07T11:26:15Z</time>
      </trkpt>
      <trkpt lat="43.62174" lon="7.12997">
        <ele>8</ele>
        <time>2010-02-07T11:26:21Z</time>
      </trkpt>
      <trkpt lat="43.62183" lon="7.13001">
        <ele>8</ele>
        <time>2010-02-07T11:26:32Z</time>
      </trkpt>
      <trkpt lat="43.62193" lon="7.13006">
        <ele>8</ele>
        <time>2010-02-07T11:26:34Z</time>
      </trkpt>
      <trkpt lat="43.62198" lon="7.1301">
        <ele>8</ele>
        <time>2010-02-07T11:26:40Z</time>
      </trkpt>
      <trkpt lat="43.62199" lon="7.1301">
        <ele>8</ele>
        <time>2010-02-07T11:26:44Z</time>
      </trkpt>
      <trkpt lat="43.62199" lon="7.1301">
        <ele>8</ele>
        <time>2010-02-07T11:26:48Z</time>
      </trkpt>
      <trkpt lat="43.62199" lon="7.1301">
        <ele>8</ele>
        <time>2010-02-07T11:26:53Z</time>
      </trkpt>
      <trkpt lat="43.62199" lon="7.1301">
        <ele>8</ele>
        <time>2010-02-07T11:27:08Z</time>
      </trkpt>
      <trkpt lat="43.62234" lon="7.13025">
        <ele>8</ele>
        <time>2010-02-07T11:27:13Z</time>
      </trkpt>
      <trkpt lat="43.62234" lon="7.13025">
        <ele>8</ele>
        <time>2010-02-07T11:27:21Z</time>
      </trkpt>
      <trkpt lat="43.62263" lon="7.13036">
        <ele>9</ele>
        <time>2010-02-07T11:27:27Z</time>
      </trkpt>
      <trkpt lat="43.62267" lon="7.1304">
        <ele>9</ele>
        <time>2010-02-07T11:27:32Z</time>
      </trkpt>
      <trkpt lat="43.62277" lon="7.13047">
        <ele>9</ele>
        <time>2010-02-07T11:27:45Z</time>
      </trkpt>
      <trkpt lat="43.62277" lon="7.13047">
        <ele>9</ele>
        <time>2010-02-07T11:27:50Z</time>
      </trkpt>
      <trkpt lat="43.62293" lon="7.13051">
        <ele>9</ele>
        <time>2010-02-07T11:27:54Z</time>
      </trkpt>
      <trkpt lat="43.62305" lon="7.13057">
        <ele>9</ele>
        <time>2010-02-07T11:28:02Z</time>
      </trkpt>
      <trkpt lat="43.62325" lon="7.13072">
        <ele>9</ele>
        <time>2010-02-07T11:28:17Z</time>
      </trkpt>
      <trkpt lat="43.62336" lon="7.13077">
        <ele>9</ele>
        <time>2010-02-07T11:28:25Z</time>
      </trkpt>
      <trkpt lat="43.62344" lon="7.13081">
        <ele>10</ele>
        <time>2010-02-07T11:28:35Z</time>
      </trkpt>
      <trkpt lat="43.62344" lon="7.13081">
        <ele>10</ele>
        <time>2010-02-07T11:28:40Z</time>
      </trkpt>
      <trkpt lat="43.62351" lon="7.13085">
        <ele>9</ele>
        <time>2010-02-07T11:28:43Z</time>
      </trkpt>
      <trkpt lat="43.62351" lon="7.13085">
        <ele>9</ele>
        <time>2010-02-07T11:28:54Z</time>
      </trkpt>
      <trkpt lat="43.62367" lon="7.13089">
        <ele>9</ele>
        <time>2010-02-07T11:28:59Z</time>
      </trkpt>
      <trkpt lat="43.62374" lon="7.13094">
        <ele>9</ele>
        <time>2010-02-07T11:29:06Z</time>
      </trkpt>
      <trkpt lat="43.62387" lon="7.131">
        <ele>9</ele>
        <time>2010-02-07T11:29:20Z</time>
      </trkpt>
      <trkpt lat="43.62387" lon="7.131">
        <ele>9</ele>
        <time>2010-02-07T11:29:24Z</time>
      </trkpt>
      <trkpt lat="43.62395" lon="7.13104">
        <ele>10</ele>
        <time>2010-02-07T11:29:27Z</time>
      </trkpt>
      <trkpt lat="43.62399" lon="7.13104">
        <ele>10</ele>
        <time>2010-02-07T11:29:35Z</time>
      </trkpt>
      <trkpt lat="43.62427" lon="7.13111">
        <ele>10</ele>
        <time>2010-02-07T11:29:40Z</time>
      </trkpt>
      <trkpt lat="43.62437" lon="7.13115">
        <ele>10</ele>
        <time>2010-02-07T11:29:46Z</time>
      </trkpt>
      <trkpt lat="43.62439" lon="7.13117">
        <ele>10</ele>
        <time>2010-02-07T11:29:52Z</time>
      </trkpt>
      <trkpt lat="43.62448" lon="7.13122">
        <ele>10</ele>
        <time>2010-02-07T11:29:56Z</time>
      </trkpt>
      <trkpt lat="43.62458" lon="7.13122">
        <ele>10</ele>
        <time>2010-02-07T11:30:04Z</time>
      </trkpt>
      <trkpt lat="43.62468" lon="7.13126">
        <ele>10</ele>
        <time>2010-02-07T11:30:11Z</time>
      </trkpt>
      <trkpt lat="43.62494" lon="7.13143">
        <ele>9</ele>
        <time>2010-02-07T11:30:31Z</time>
      </trkpt>
      <trkpt lat="43.62512" lon="7.13152">
        <ele>8</ele>
        <time>2010-02-07T11:30:45Z</time>
      </trkpt>
      <trkpt lat="43.62516" lon="7.13154">
        <ele>8</ele>
        <time>2010-02-07T11:30:47Z</time>
      </trkpt>
      <trkpt lat="43.62533" lon="7.13162">
        <ele>7</ele>
        <time>2010-02-07T11:31:00Z</time>
      </trkpt>
      <trkpt lat="43.62546" lon="7.13169">
        <ele>6</ele>
        <time>2010-02-07T11:31:12Z</time>
      </trkpt>
      <trkpt lat="43.62552" lon="7.13169">
        <ele>6</ele>
        <time>2010-02-07T11:31:14Z</time>
      </trkpt>
      <trkpt lat="43.62561" lon="7.13175">
        <ele>5</ele>
        <time>2010-02-07T11:31:22Z</time>
      </trkpt>
      <trkpt lat="43.62574" lon="7.13182">
        <ele>5</ele>
        <time>2010-02-07T11:31:36Z</time>
      </trkpt>
      <trkpt lat="43.62587" lon="7.1319">
        <ele>5</ele>
        <time>2010-02-07T11:31:44Z</time>
      </trkpt>
      <trkpt lat="43.62587" lon="7.1319">
        <ele>5</ele>
        <time>2010-02-07T11:31:48Z</time>
      </trkpt>
      <trkpt lat="43.62594" lon="7.13192">
        <ele>5</ele>
        <time>2010-02-07T11:31:51Z</time>
      </trkpt>
      <trkpt lat="43.626" lon="7.13197">
        <ele>5</ele>
        <time>2010-02-07T11:32:03Z</time>
      </trkpt>
      <trkpt lat="43.626" lon="7.13197">
        <ele>5</ele>
        <time>2010-02-07T11:32:07Z</time>
      </trkpt>
      <trkpt lat="43.62612" lon="7.13203">
        <ele>5</ele>
        <time>2010-02-07T11:32:12Z</time>
      </trkpt>
      <trkpt lat="43.62623" lon="7.13205">
        <ele>5</ele>
        <time>2010-02-07T11:32:20Z</time>
      </trkpt>
      <trkpt lat="43.62623" lon="7.13205">
        <ele>5</ele>
        <time>2010-02-07T11:32:24Z</time>
      </trkpt>
      <trkpt lat="43.62643" lon="7.13212">
        <ele>5</ele>
        <time>2010-02-07T11:32:29Z</time>
      </trkpt>
      <trkpt lat="43.62656" lon="7.1322">
        <ele>5</ele>
        <time>2010-02-07T11:32:41Z</time>
      </trkpt>
      <trkpt lat="43.62668" lon="7.1322">
        <ele>5</ele>
        <time>2010-02-07T11:32:46Z</time>
      </trkpt>
      <trkpt lat="43.62679" lon="7.1322">
        <ele>5</ele>
        <time>2010-02-07T11:32:54Z</time>
      </trkpt>
      <trkpt lat="43.62679" lon="7.1322">
        <ele>5</ele>
        <time>2010-02-07T11:32:58Z</time>
      </trkpt>
      <trkpt lat="43.62692" lon="7.13222">
        <ele>5</ele>
        <time>2010-02-07T11:33:03Z</time>
      </trkpt>
      <trkpt lat="43.62692" lon="7.13222">
        <ele>5</ele>
        <time>2010-02-07T11:33:12Z</time>
      </trkpt>
      <trkpt lat="43.62692" lon="7.13222">
        <ele>5</ele>
        <time>2010-02-07T11:33:16Z</time>
      </trkpt>
      <trkpt lat="43.62712" lon="7.13231">
        <ele>5</ele>
        <time>2010-02-07T11:33:20Z</time>
      </trkpt>
      <trkpt lat="43.62725" lon="7.13238">
        <ele>5</ele>
        <time>2010-02-07T11:33:29Z</time>
      </trkpt>
      <trkpt lat="43.6273" lon="7.13242">
        <ele>5</ele>
        <time>2010-02-07T11:33:39Z</time>
      </trkpt>
      <trkpt lat="43.62743" lon="7.13248">
        <ele>5</ele>
        <time>2010-02-07T11:33:43Z</time>
      </trkpt>
      <trkpt lat="43.62757" lon="7.13257">
        <ele>5</ele>
        <time>2010-02-07T11:33:54Z</time>
      </trkpt>
      <trkpt lat="43.62773" lon="7.13263">
        <ele>5</ele>
        <time>2010-02-07T11:34:05Z</time>
      </trkpt>
      <trkpt lat="43.62787" lon="7.13272">
        <ele>5</ele>
        <time>2010-02-07T11:34:19Z</time>
      </trkpt>
      <trkpt lat="43.62796" lon="7.13278">
        <ele>6</ele>
        <time>2010-02-07T11:34:23Z</time>
      </trkpt>
      <trkpt lat="43.62808" lon="7.13283">
        <ele>6</ele>
        <time>2010-02-07T11:34:28Z</time>
      </trkpt>
      <trkpt lat="43.62811" lon="7.13285">
        <ele>6</ele>
        <time>2010-02-07T11:34:34Z</time>
      </trkpt>
      <trkpt lat="43.62811" lon="7.13285">
        <ele>6</ele>
        <time>2010-02-07T11:34:42Z</time>
      </trkpt>
      <trkpt lat="43.62811" lon="7.13285">
        <ele>6</ele>
        <time>2010-02-07T11:34:46Z</time>
      </trkpt>
      <trkpt lat="43.62839" lon="7.13287">
        <ele>6</ele>
        <time>2010-02-07T11:34:51Z</time>
      </trkpt>
      <trkpt lat="43.62847" lon="7.13285">
        <ele>6</ele>
        <time>2010-02-07T11:34:57Z</time>
      </trkpt>
      <trkpt lat="43.62847" lon="7.13285">
        <ele>6</ele>
        <time>2010-02-07T11:35:02Z</time>
      </trkpt>
      <trkpt lat="43.62847" lon="7.13285">
        <ele>6</ele>
        <time>2010-02-07T11:35:09Z</time>
      </trkpt>
      <trkpt lat="43.62847" lon="7.13285">
        <ele>6</ele>
        <time>2010-02-07T11:35:13Z</time>
      </trkpt>
      <trkpt lat="43.62868" lon="7.13261">
        <ele>6</ele>
        <time>2010-02-07T11:35:18Z</time>
      </trkpt>
      <trkpt lat="43.62868" lon="7.13261">
        <ele>6</ele>
        <time>2010-02-07T11:35:28Z</time>
      </trkpt>
      <trkpt lat="43.62868" lon="7.13261">
        <ele>6</ele>
        <time>2010-02-07T11:35:35Z</time>
      </trkpt>
      <trkpt lat="43.62868" lon="7.13261">
        <ele>6</ele>
        <time>2010-02-07T11:35:44Z</time>
      </trkpt>
      <trkpt lat="43.62868" lon="7.1325">
        <ele>6</ele>
        <time>2010-02-07T11:35:50Z</time>
      </trkpt>
      <trkpt lat="43.62868" lon="7.1325">
        <ele>6</ele>
        <time>2010-02-07T11:35:55Z</time>
      </trkpt>
      <trkpt lat="43.62868" lon="7.1325">
        <ele>6</ele>
        <time>2010-02-07T11:36:00Z</time>
      </trkpt>
      <trkpt lat="43.62868" lon="7.1325">
        <ele>6</ele>
        <time>2010-02-07T11:36:16Z</time>
      </trkpt>
      <trkpt lat="43.6287" lon="7.13246">
        <ele>6</ele>
        <time>2010-02-07T11:36:19Z</time>
      </trkpt>
      <trkpt lat="43.6287" lon="7.13246">
        <ele>6</ele>
        <time>2010-02-07T11:36:29Z</time>
      </trkpt>
      <trkpt lat="43.62871" lon="7.13244">
        <ele>6</ele>
        <time>2010-02-07T11:36:31Z</time>
      </trkpt>
      <trkpt lat="43.62871" lon="7.13244">
        <ele>6</ele>
        <time>2010-02-07T11:36:33Z</time>
      </trkpt>
      <trkpt lat="43.62868" lon="7.13248">
        <ele>6</ele>
        <time>2010-02-07T11:36:39Z</time>
      </trkpt>
      <trkpt lat="43.62868" lon="7.13249">
        <ele>6</ele>
        <time>2010-02-07T11:36:43Z</time>
      </trkpt>
      <trkpt lat="43.62868" lon="7.13248">
        <ele>6</ele>
        <time>2010-02-07T11:36:53Z</time>
      </trkpt>
      <trkpt lat="43.62868" lon="7.13255">
        <ele>6</ele>
        <time>2010-02-07T11:36:58Z</time>
      </trkpt>
      <trkpt lat="43.62873" lon="7.13263">
        <ele>6</ele>
        <time>2010-02-07T11:37:08Z</time>
      </trkpt>
      <trkpt lat="43.62873" lon="7.13268">
        <ele>6</ele>
        <time>2010-02-07T11:37:10Z</time>
      </trkpt>
      <trkpt lat="43.62868" lon="7.13306">
        <ele>5</ele>
        <time>2010-02-07T11:37:29Z</time>
      </trkpt>
      <trkpt lat="43.62868" lon="7.13306">
        <ele>5</ele>
        <time>2010-02-07T11:37:31Z</time>
      </trkpt>
      <trkpt lat="43.62868" lon="7.13313">
        <ele>5</ele>
        <time>2010-02-07T11:37:34Z</time>
      </trkpt>
      <trkpt lat="43.62874" lon="7.13319">
        <ele>5</ele>
        <time>2010-02-07T11:37:41Z</time>
      </trkpt>
      <trkpt lat="43.62884" lon="7.13323">
        <ele>5</ele>
        <time>2010-02-07T11:37:47Z</time>
      </trkpt>
      <trkpt lat="43.62904" lon="7.1333">
        <ele>5</ele>
        <time>2010-02-07T11:38:02Z</time>
      </trkpt>
      <trkpt lat="43.62918" lon="7.13338">
        <ele>5</ele>
        <time>2010-02-07T11:38:11Z</time>
      </trkpt>
      <trkpt lat="43.62931" lon="7.13343">
        <ele>5</ele>
        <time>2010-02-07T11:38:19Z</time>
      </trkpt>
      <trkpt lat="43.62949" lon="7.13349">
        <ele>5</ele>
        <time>2010-02-07T11:38:33Z</time>
      </trkpt>
      <trkpt lat="43.62963" lon="7.13358">
        <ele>6</ele>
        <time>2010-02-07T11:38:44Z</time>
      </trkpt>
      <trkpt lat="43.62971" lon="7.13366">
        <ele>6</ele>
        <time>2010-02-07T11:38:50Z</time>
      </trkpt>
      <trkpt lat="43.62979" lon="7.13371">
        <ele>6</ele>
        <time>2010-02-07T11:38:58Z</time>
      </trkpt>
      <trkpt lat="43.62998" lon="7.13381">
        <ele>6</ele>
        <time>2010-02-07T11:39:14Z</time>
      </trkpt>
      <trkpt lat="43.63006" lon="7.13379">
        <ele>6</ele>
        <time>2010-02-07T11:39:18Z</time>
      </trkpt>
      <trkpt lat="43.63017" lon="7.13381">
        <ele>6</ele>
        <time>2010-02-07T11:39:24Z</time>
      </trkpt>
      <trkpt lat="43.63029" lon="7.13388">
        <ele>6</ele>
        <time>2010-02-07T11:39:33Z</time>
      </trkpt>
      <trkpt lat="43.63106" lon="7.13426">
        <ele>5</ele>
        <time>2010-02-07T11:40:33Z</time>
      </trkpt>
      <trkpt lat="43.63116" lon="7.13431">
        <ele>6</ele>
        <time>2010-02-07T11:40:44Z</time>
      </trkpt>
      <trkpt lat="43.63123" lon="7.13435">
        <ele>6</ele>
        <time>2010-02-07T11:40:48Z</time>
      </trkpt>
      <trkpt lat="43.63138" lon="7.13439">
        <ele>6</ele>
        <time>2010-02-07T11:40:56Z</time>
      </trkpt>
      <trkpt lat="43.6315" lon="7.13443">
        <ele>6</ele>
        <time>2010-02-07T11:41:06Z</time>
      </trkpt>
      <trkpt lat="43.63159" lon="7.1345">
        <ele>6</ele>
        <time>2010-02-07T11:41:15Z</time>
      </trkpt>
      <trkpt lat="43.63167" lon="7.13452">
        <ele>6</ele>
        <time>2010-02-07T11:41:21Z</time>
      </trkpt>
      <trkpt lat="43.63184" lon="7.13456">
        <ele>6</ele>
        <time>2010-02-07T11:41:36Z</time>
      </trkpt>
      <trkpt lat="43.63188" lon="7.13456">
        <ele>6</ele>
        <time>2010-02-07T11:41:42Z</time>
      </trkpt>
      <trkpt lat="43.63194" lon="7.13456">
        <ele>6</ele>
        <time>2010-02-07T11:41:46Z</time>
      </trkpt>
      <trkpt lat="43.63216" lon="7.13452">
        <ele>7</ele>
        <time>2010-02-07T11:42:01Z</time>
      </trkpt>
      <trkpt lat="43.63229" lon="7.13448">
        <ele>7</ele>
        <time>2010-02-07T11:42:14Z</time>
      </trkpt>
      <trkpt lat="43.63229" lon="7.13448">
        <ele>7</ele>
        <time>2010-02-07T11:42:16Z</time>
      </trkpt>
      <trkpt lat="43.6324" lon="7.13443">
        <ele>7</ele>
        <time>2010-02-07T11:42:18Z</time>
      </trkpt>
      <trkpt lat="43.63251" lon="7.13443">
        <ele>8</ele>
        <time>2010-02-07T11:42:25Z</time>
      </trkpt>
      <trkpt lat="43.63252" lon="7.13441">
        <ele>8</ele>
        <time>2010-02-07T11:42:28Z</time>
      </trkpt>
      <trkpt lat="43.63257" lon="7.13439">
        <ele>8</ele>
        <time>2010-02-07T11:42:33Z</time>
      </trkpt>
      <trkpt lat="43.63257" lon="7.13439">
        <ele>8</ele>
        <time>2010-02-07T11:42:39Z</time>
      </trkpt>
      <trkpt lat="43.63271" lon="7.13433">
        <ele>8</ele>
        <time>2010-02-07T11:42:43Z</time>
      </trkpt>
      <trkpt lat="43.63274" lon="7.13431">
        <ele>8</ele>
        <time>2010-02-07T11:42:45Z</time>
      </trkpt>
      <trkpt lat="43.63278" lon="7.13427">
        <ele>8</ele>
        <time>2010-02-07T11:42:47Z</time>
      </trkpt>
      <trkpt lat="43.63278" lon="7.13427">
        <ele>8</ele>
        <time>2010-02-07T11:42:49Z</time>
      </trkpt>
    </trkseg>
      <trkpt lat="43.63317" lon="7.13461">
        <ele>8</ele>
        <time>2010-02-07T11:42:49Z</time>
      </trkpt>
      <trkpt lat="43.63317" lon="7.13461">
        <ele>8</ele>
        <time>2010-02-07T11:43:08Z</time>
      </trkpt>
      <trkpt lat="43.63317" lon="7.13461">
        <ele>8</ele>
        <time>2010-02-07T11:43:10Z</time>
      </trkpt>
      <trkpt lat="43.63317" lon="7.13461">
        <ele>8</ele>
        <time>2010-02-07T11:43:26Z</time>
      </trkpt>
      <trkpt lat="43.63345" lon="7.13456">
        <ele>8</ele>
        <time>2010-02-07T11:43:32Z</time>
      </trkpt>
      <trkpt lat="43.63345" lon="7.13456">
        <ele>8</ele>
        <time>2010-02-07T11:43:40Z</time>
      </trkpt>
      <trkpt lat="43.63345" lon="7.13456">
        <ele>8</ele>
        <time>2010-02-07T11:43:44Z</time>
      </trkpt>
      <trkpt lat="43.63345" lon="7.13456">
        <ele>8</ele>
        <time>2010-02-07T11:43:48Z</time>
      </trkpt>
      <trkpt lat="43.63368" lon="7.13437">
        <ele>8</ele>
        <time>2010-02-07T11:43:54Z</time>
      </trkpt>
      <trkpt lat="43.6338" lon="7.13433">
        <ele>8</ele>
        <time>2010-02-07T11:44:00Z</time>
      </trkpt>
      <trkpt lat="43.63387" lon="7.13428">
        <ele>8</ele>
        <time>2010-02-07T11:44:08Z</time>
      </trkpt>
      <trkpt lat="43.63395" lon="7.13426">
        <ele>8</ele>
        <time>2010-02-07T11:44:12Z</time>
      </trkpt>
      <trkpt lat="43.63411" lon="7.1342">
        <ele>7</ele>
        <time>2010-02-07T11:44:24Z</time>
      </trkpt>
      <trkpt lat="43.63428" lon="7.13413">
        <ele>8</ele>
        <time>2010-02-07T11:44:40Z</time>
      </trkpt>
      <trkpt lat="43.63428" lon="7.13413">
        <ele>8</ele>
        <time>2010-02-07T11:44:44Z</time>
      </trkpt>
      <trkpt lat="43.63428" lon="7.13413">
        <ele>8</ele>
        <time>2010-02-07T11:44:48Z</time>
      </trkpt>
      <trkpt lat="43.63428" lon="7.13413">
        <ele>8</ele>
        <time>2010-02-07T11:45:04Z</time>
      </trkpt>
      <trkpt lat="43.63428" lon="7.13414">
        <ele>8</ele>
        <time>2010-02-07T11:45:04Z</time>
      </trkpt>
      <trkpt lat="43.63522" lon="7.13435">
        <ele>11</ele>
        <time>2010-02-07T11:46:12Z</time>
      </trkpt>
      <trkpt lat="43.63522" lon="7.13435">
        <ele>11</ele>
        <time>2010-02-07T11:46:16Z</time>
      </trkpt>
      <trkpt lat="43.63522" lon="7.13435">
        <ele>11</ele>
        <time>2010-02-07T11:46:20Z</time>
      </trkpt>
      <trkpt lat="43.63522" lon="7.13435">
        <ele>11</ele>
        <time>2010-02-07T11:46:24Z</time>
      </trkpt>
      <trkpt lat="43.63537" lon="7.1342">
        <ele>11</ele>
        <time>2010-02-07T11:46:30Z</time>
      </trkpt>
      <trkpt lat="43.63544" lon="7.1342">
        <ele>11</ele>
        <time>2010-02-07T11:46:38Z</time>
      </trkpt>
      <trkpt lat="43.6355" lon="7.13422">
        <ele>11</ele>
        <time>2010-02-07T11:46:52Z</time>
      </trkpt>
      <trkpt lat="43.6355" lon="7.13422">
        <ele>11</ele>
        <time>2010-02-07T11:46:56Z</time>
      </trkpt>
      <trkpt lat="43.6355" lon="7.13422">
        <ele>11</ele>
        <time>2010-02-07T11:47:00Z</time>
      </trkpt>
      <trkpt lat="43.6355" lon="7.13422">
        <ele>11</ele>
        <time>2010-02-07T11:47:04Z</time>
      </trkpt>
      <trkpt lat="43.63551" lon="7.13423">
        <ele>11</ele>
        <time>2010-02-07T11:47:06Z</time>
      </trkpt>
      <trkpt lat="43.63578" lon="7.13435">
        <ele>11</ele>
        <time>2010-02-07T11:47:22Z</time>
      </trkpt>
      <trkpt lat="43.63578" lon="7.13435">
        <ele>11</ele>
        <time>2010-02-07T11:47:26Z</time>
      </trkpt>
      <trkpt lat="43.63605" lon="7.13428">
        <ele>11</ele>
        <time>2010-02-07T11:47:32Z</time>
      </trkpt>
      <trkpt lat="43.63605" lon="7.13428">
        <ele>11</ele>
        <time>2010-02-07T11:47:40Z</time>
      </trkpt>
      <trkpt lat="43.63605" lon="7.13428">
        <ele>11</ele>
        <time>2010-02-07T11:47:44Z</time>
      </trkpt>
      <trkpt lat="43.63633" lon="7.13439">
        <ele>11</ele>
        <time>2010-02-07T11:47:50Z</time>
      </trkpt>
      <trkpt lat="43.63633" lon="7.13439">
        <ele>11</ele>
        <time>2010-02-07T11:47:54Z</time>
      </trkpt>
      <trkpt lat="43.63633" lon="7.13439">
        <ele>11</ele>
        <time>2010-02-07T11:48:00Z</time>
      </trkpt>
      <trkpt lat="43.63633" lon="7.13439">
        <ele>11</ele>
        <time>2010-02-07T11:48:32Z</time>
      </trkpt>
      <trkpt lat="43.63633" lon="7.1344">
        <ele>11</ele>
        <time>2010-02-07T11:48:34Z</time>
      </trkpt>
      <trkpt lat="43.63633" lon="7.13439">
        <ele>11</ele>
        <time>2010-02-07T11:48:52Z</time>
      </trkpt>
      <trkpt lat="43.63633" lon="7.13439">
        <ele>11</ele>
        <time>2010-02-07T11:48:56Z</time>
      </trkpt>
      <trkpt lat="43.63633" lon="7.13439">
        <ele>11</ele>
        <time>2010-02-07T11:49:00Z</time>
      </trkpt>
      <trkpt lat="43.63633" lon="7.13439">
        <ele>11</ele>
        <time>2010-02-07T11:49:28Z</time>
      </trkpt>
      <trkpt lat="43.63605" lon="7.13448">
        <ele>11</ele>
        <time>2010-02-07T11:49:34Z</time>
      </trkpt>
      <trkpt lat="43.63605" lon="7.13448">
        <ele>11</ele>
        <time>2010-02-07T11:49:42Z</time>
      </trkpt>
      <trkpt lat="43.63605" lon="7.13448">
        <ele>11</ele>
        <time>2010-02-07T11:49:46Z</time>
      </trkpt>
      <trkpt lat="43.63605" lon="7.13448">
        <ele>11</ele>
        <time>2010-02-07T11:49:50Z</time>
      </trkpt>
      <trkpt lat="43.636" lon="7.13489">
        <ele>12</ele>
        <time>2010-02-07T11:49:58Z</time>
      </trkpt>
      <trkpt lat="43.636" lon="7.13489">
        <ele>12</ele>
        <time>2010-02-07T11:50:02Z</time>
      </trkpt>
      <trkpt lat="43.636" lon="7.13489">
        <ele>12</ele>
        <time>2010-02-07T11:50:04Z</time>
      </trkpt>
      <trkpt lat="43.636" lon="7.13489">
        <ele>12</ele>
        <time>2010-02-07T11:50:10Z</time>
      </trkpt>
      <trkpt lat="43.63601" lon="7.13527">
        <ele>12</ele>
        <time>2010-02-07T11:50:16Z</time>
      </trkpt>
      <trkpt lat="43.6361" lon="7.13549">
        <ele>11</ele>
        <time>2010-02-07T11:50:20Z</time>
      </trkpt>
      <trkpt lat="43.63613" lon="7.13551">
        <ele>11</ele>
        <time>2010-02-07T11:50:28Z</time>
      </trkpt>
      <trkpt lat="43.63613" lon="7.13551">
        <ele>11</ele>
        <time>2010-02-07T11:50:32Z</time>
      </trkpt>
      <trkpt lat="43.63613" lon="7.13551">
        <ele>11</ele>
        <time>2010-02-07T11:50:36Z</time>
      </trkpt>
      <trkpt lat="43.63631" lon="7.13559">
        <ele>11</ele>
        <time>2010-02-07T11:50:40Z</time>
      </trkpt>
      <trkpt lat="43.63631" lon="7.13559">
        <ele>11</ele>
        <time>2010-02-07T11:50:48Z</time>
      </trkpt>
      <trkpt lat="43.63631" lon="7.13559">
        <ele>11</ele>
        <time>2010-02-07T11:50:52Z</time>
      </trkpt>
      <trkpt lat="43.63631" lon="7.13559">
        <ele>11</ele>
        <time>2010-02-07T11:50:56Z</time>
      </trkpt>
      <trkpt lat="43.63661" lon="7.13562">
        <ele>10</ele>
        <time>2010-02-07T11:51:02Z</time>
      </trkpt>
      <trkpt lat="43.63661" lon="7.13562">
        <ele>10</ele>
        <time>2010-02-07T11:51:10Z</time>
      </trkpt>
      <trkpt lat="43.63661" lon="7.13562">
        <ele>10</ele>
        <time>2010-02-07T11:51:12Z</time>
      </trkpt>
      <trkpt lat="43.63661" lon="7.13562">
        <ele>10</ele>
        <time>2010-02-07T11:58:11Z</time>
      </trkpt>
    </trkseg>
      <trkpt lat="43.63693" lon="7.14027">
        <ele>3</ele>
        <time>2010-02-07T11:58:11Z</time>
      </trkpt>
      <trkpt lat="43.63682" lon="7.13986">
        <ele>4</ele>
        <time>2010-02-07T11:58:19Z</time>
      </trkpt>
      <trkpt lat="43.63685" lon="7.13978">
        <ele>4</ele>
        <time>2010-02-07T11:58:24Z</time>
      </trkpt>
      <trkpt lat="43.63686" lon="7.13973">
        <ele>4</ele>
        <time>2010-02-07T11:58:30Z</time>
      </trkpt>
      <trkpt lat="43.63686" lon="7.13973">
        <ele>4</ele>
        <time>2010-02-07T11:58:39Z</time>
      </trkpt>
      <trkpt lat="43.63686" lon="7.13973">
        <ele>4</ele>
        <time>2010-02-07T11:58:42Z</time>
      </trkpt>
      <trkpt lat="43.63686" lon="7.13973">
        <ele>4</ele>
        <time>2010-02-07T11:58:50Z</time>
      </trkpt>
      <trkpt lat="43.63704" lon="7.13948">
        <ele>5</ele>
        <time>2010-02-07T11:58:54Z</time>
      </trkpt>
      <trkpt lat="43.63715" lon="7.13946">
        <ele>5</ele>
        <time>2010-02-07T11:59:02Z</time>
      </trkpt>
      <trkpt lat="43.63715" lon="7.13946">
        <ele>5</ele>
        <time>2010-02-07T11:59:06Z</time>
      </trkpt>
      <trkpt lat="43.63726" lon="7.13946">
        <ele>5</ele>
        <time>2010-02-07T11:59:10Z</time>
      </trkpt>
      <trkpt lat="43.63726" lon="7.13946">
        <ele>5</ele>
        <time>2010-02-07T11:59:16Z</time>
      </trkpt>
      <trkpt lat="43.63738" lon="7.1395">
        <ele>4</ele>
        <time>2010-02-07T11:59:20Z</time>
      </trkpt>
      <trkpt lat="43.63744" lon="7.13952">
        <ele>4</ele>
        <time>2010-02-07T11:59:22Z</time>
      </trkpt>
      <trkpt lat="43.6375" lon="7.13954">
        <ele>4</ele>
        <time>2010-02-07T11:59:30Z</time>
      </trkpt>
      <trkpt lat="43.63759" lon="7.13958">
        <ele>4</ele>
        <time>2010-02-07T11:59:34Z</time>
      </trkpt>
      <trkpt lat="43.63759" lon="7.13958">
        <ele>4</ele>
        <time>2010-02-07T11:59:42Z</time>
      </trkpt>
      <trkpt lat="43.63772" lon="7.13963">
        <ele>4</ele>
        <time>2010-02-07T11:59:46Z</time>
      </trkpt>
      <trkpt lat="43.63772" lon="7.13963">
        <ele>4</ele>
        <time>2010-02-07T11:59:54Z</time>
      </trkpt>
      <trkpt lat="43.6379" lon="7.13969">
        <ele>4</ele>
        <time>2010-02-07T11:59:58Z</time>
      </trkpt>
      <trkpt lat="43.63793" lon="7.13973">
        <ele>4</ele>
        <time>2010-02-07T12:00:03Z</time>
      </trkpt>
      <trkpt lat="43.63795" lon="7.13976">
        <ele>4</ele>
        <time>2010-02-07T12:00:07Z</time>
      </trkpt>
      <trkpt lat="43.63799" lon="7.1398">
        <ele>4</ele>
        <time>2010-02-07T12:00:20Z</time>
      </trkpt>
      <trkpt lat="43.63799" lon="7.1398">
        <ele>4</ele>
        <time>2010-02-07T12:00:24Z</time>
      </trkpt>
      <trkpt lat="43.63799" lon="7.1398">
        <ele>4</ele>
        <time>2010-02-07T12:00:27Z</time>
      </trkpt>
      <trkpt lat="43.63822" lon="7.13995">
        <ele>4</ele>
        <time>2010-02-07T12:00:33Z</time>
      </trkpt>
      <trkpt lat="43.63822" lon="7.13995">
        <ele>4</ele>
        <time>2010-02-07T12:00:38Z</time>
      </trkpt>
      <trkpt lat="43.63831" lon="7.14001">
        <ele>4</ele>
        <time>2010-02-07T12:00:42Z</time>
      </trkpt>
      <trkpt lat="43.63836" lon="7.14004">
        <ele>4</ele>
        <time>2010-02-07T12:00:44Z</time>
      </trkpt>
      <trkpt lat="43.63836" lon="7.14004">
        <ele>4</ele>
        <time>2010-02-07T12:00:51Z</time>
      </trkpt>
      <trkpt lat="43.63836" lon="7.14004">
        <ele>4</ele>
        <time>2010-02-07T12:00:53Z</time>
      </trkpt>
      <trkpt lat="43.63852" lon="7.1401">
        <ele>4</ele>
        <time>2010-02-07T12:00:56Z</time>
      </trkpt>
      <trkpt lat="43.6387" lon="7.14019">
        <ele>4</ele>
        <time>2010-02-07T12:01:07Z</time>
      </trkpt>
      <trkpt lat="43.6388" lon="7.14023">
        <ele>5</ele>
        <time>2010-02-07T12:01:09Z</time>
      </trkpt>
      <trkpt lat="43.6388" lon="7.14023">
        <ele>5</ele>
        <time>2010-02-07T12:01:15Z</time>
      </trkpt>
      <trkpt lat="43.63889" lon="7.14029">
        <ele>5</ele>
        <time>2010-02-07T12:01:19Z</time>
      </trkpt>
      <trkpt lat="43.63898" lon="7.1404">
        <ele>5</ele>
        <time>2010-02-07T12:01:28Z</time>
      </trkpt>
      <trkpt lat="43.63904" lon="7.14042">
        <ele>4</ele>
        <time>2010-02-07T12:01:32Z</time>
      </trkpt>
      <trkpt lat="43.63911" lon="7.14046">
        <ele>4</ele>
        <time>2010-02-07T12:01:41Z</time>
      </trkpt>
      <trkpt lat="43.63918" lon="7.14049">
        <ele>5</ele>
        <time>2010-02-07T12:01:43Z</time>
      </trkpt>
      <trkpt lat="43.6392" lon="7.14051">
        <ele>5</ele>
        <time>2010-02-07T12:01:49Z</time>
      </trkpt>
      <trkpt lat="43.6392" lon="7.14051">
        <ele>5</ele>
        <time>2010-02-07T12:01:56Z</time>
      </trkpt>
      <trkpt lat="43.63944" lon="7.14046">
        <ele>5</ele>
        <time>2010-02-07T12:02:03Z</time>
      </trkpt>
      <trkpt lat="43.63946" lon="7.14044">
        <ele>5</ele>
        <time>2010-02-07T12:02:07Z</time>
      </trkpt>
      <trkpt lat="43.63955" lon="7.14044">
        <ele>5</ele>
        <time>2010-02-07T12:02:11Z</time>
      </trkpt>
      <trkpt lat="43.63966" lon="7.14042">
        <ele>6</ele>
        <time>2010-02-07T12:02:24Z</time>
      </trkpt>
      <trkpt lat="43.63966" lon="7.14042">
        <ele>6</ele>
        <time>2010-02-07T12:02:28Z</time>
      </trkpt>
      <trkpt lat="43.63991" lon="7.14038">
        <ele>6</ele>
        <time>2010-02-07T12:02:32Z</time>
      </trkpt>
      <trkpt lat="43.63998" lon="7.14042">
        <ele>6</ele>
        <time>2010-02-07T12:02:36Z</time>
      </trkpt>
      <trkpt lat="43.64015" lon="7.14049">
        <ele>7</ele>
        <time>2010-02-07T12:02:42Z</time>
      </trkpt>
      <trkpt lat="43.64025" lon="7.14057">
        <ele>7</ele>
        <time>2010-02-07T12:02:46Z</time>
      </trkpt>
      <trkpt lat="43.64037" lon="7.14068">
        <ele>7</ele>
        <time>2010-02-07T12:02:57Z</time>
      </trkpt>
      <trkpt lat="43.64046" lon="7.14076">
        <ele>7</ele>
        <time>2010-02-07T12:03:08Z</time>
      </trkpt>
      <trkpt lat="43.64046" lon="7.14076">
        <ele>7</ele>
        <time>2010-02-07T12:03:12Z</time>
      </trkpt>
      <trkpt lat="43.64052" lon="7.14089">
        <ele>7</ele>
        <time>2010-02-07T12:03:15Z</time>
      </trkpt>
      <trkpt lat="43.64057" lon="7.14102">
        <ele>7</ele>
        <time>2010-02-07T12:03:25Z</time>
      </trkpt>
      <trkpt lat="43.64061" lon="7.14107">
        <ele>7</ele>
        <time>2010-02-07T12:03:28Z</time>
      </trkpt>
      <trkpt lat="43.64063" lon="7.14113">
        <ele>7</ele>
        <time>2010-02-07T12:03:35Z</time>
      </trkpt>
      <trkpt lat="43.64063" lon="7.14113">
        <ele>7</ele>
        <time>2010-02-07T12:03:40Z</time>
      </trkpt>
      <trkpt lat="43.64069" lon="7.14122">
        <ele>7</ele>
        <time>2010-02-07T12:03:44Z</time>
      </trkpt>
      <trkpt lat="43.64069" lon="7.14122">
        <ele>7</ele>
        <time>2010-02-07T12:03:53Z</time>
      </trkpt>
      <trkpt lat="43.64082" lon="7.14139">
        <ele>7</ele>
        <time>2010-02-07T12:03:58Z</time>
      </trkpt>
      <trkpt lat="43.64082" lon="7.14139">
        <ele>7</ele>
        <time>2010-02-07T12:04:06Z</time>
      </trkpt>
      <trkpt lat="43.64095" lon="7.14162">
        <ele>6</ele>
        <time>2010-02-07T12:04:11Z</time>
      </trkpt>
      <trkpt lat="43.64099" lon="7.14167">
        <ele>6</ele>
        <time>2010-02-07T12:04:17Z</time>
      </trkpt>
      <trkpt lat="43.64107" lon="7.14177">
        <ele>6</ele>
        <time>2010-02-07T12:04:24Z</time>
      </trkpt>
      <trkpt lat="43.64123" lon="7.14205">
        <ele>5</ele>
        <time>2010-02-07T12:04:42Z</time>
      </trkpt>
      <trkpt lat="43.64123" lon="7.14205">
        <ele>5</ele>
        <time>2010-02-07T12:04:44Z</time>
      </trkpt>
      <trkpt lat="43.64123" lon="7.14205">
        <ele>5</ele>
        <time>2010-02-07T12:04:46Z</time>
      </trkpt>
      <trkpt lat="43.64123" lon="7.14205">
        <ele>5</ele>
        <time>2010-02-07T12:04:53Z</time>
      </trkpt>
      <trkpt lat="43.64124" lon="7.14206">
        <ele>5</ele>
        <time>2010-02-07T12:04:53Z</time>
      </trkpt>
      <trkpt lat="43.64168" lon="7.1431">
        <ele>5</ele>
        <time>2010-02-07T12:05:39Z</time>
      </trkpt>
      <trkpt lat="43.64168" lon="7.1431">
        <ele>5</ele>
        <time>2010-02-07T12:05:43Z</time>
      </trkpt>
      <trkpt lat="43.64168" lon="7.1431">
        <ele>5</ele>
        <time>2010-02-07T12:05:45Z</time>
      </trkpt>
      <trkpt lat="43.64168" lon="7.1431">
        <ele>5</ele>
        <time>2010-02-07T12:05:51Z</time>
      </trkpt>
      <trkpt lat="43.64199" lon="7.14325">
        <ele>5</ele>
        <time>2010-02-07T12:05:59Z</time>
      </trkpt>
      <trkpt lat="43.6421" lon="7.14334">
        <ele>4</ele>
        <time>2010-02-07T12:06:07Z</time>
      </trkpt>
      <trkpt lat="43.6421" lon="7.14334">
        <ele>4</ele>
        <time>2010-02-07T12:06:11Z</time>
      </trkpt>
      <trkpt lat="43.6421" lon="7.14334">
        <ele>4</ele>
        <time>2010-02-07T12:06:15Z</time>
      </trkpt>
      <trkpt lat="43.64235" lon="7.14362">
        <ele>4</ele>
        <time>2010-02-07T12:06:21Z</time>
      </trkpt>
      <trkpt lat="43.64237" lon="7.14366">
        <ele>4</ele>
        <time>2010-02-07T12:06:25Z</time>
      </trkpt>
      <trkpt lat="43.64237" lon="7.14366">
        <ele>4</ele>
        <time>2010-02-07T12:06:33Z</time>
      </trkpt>
      <trkpt lat="43.64254" lon="7.14381">
        <ele>4</ele>
        <time>2010-02-07T12:06:37Z</time>
      </trkpt>
      <trkpt lat="43.6426" lon="7.14388">
        <ele>4</ele>
        <time>2010-02-07T12:06:43Z</time>
      </trkpt>
      <trkpt lat="43.64275" lon="7.14409">
        <ele>4</ele>
        <time>2010-02-07T12:06:59Z</time>
      </trkpt>
      <trkpt lat="43.64282" lon="7.14422">
        <ele>4</ele>
        <time>2010-02-07T12:07:11Z</time>
      </trkpt>
      <trkpt lat="43.64282" lon="7.14422">
        <ele>4</ele>
        <time>2010-02-07T12:07:13Z</time>
      </trkpt>
      <trkpt lat="43.64282" lon="7.14422">
        <ele>4</ele>
        <time>2010-02-07T12:07:16Z</time>
      </trkpt>
      <trkpt lat="43.64282" lon="7.14422">
        <ele>4</ele>
        <time>2010-02-07T12:07:16Z</time>
      </trkpt>
      <trkpt lat="43.64282" lon="7.14422">
        <ele>4</ele>
        <time>2010-02-07T12:07:16Z</time>
      </trkpt>
      <trkpt lat="43.64282" lon="7.14422">
        <ele>4</ele>
        <time>2010-02-07T12:07:29Z</time>
      </trkpt>
      <trkpt lat="43.64282" lon="7.14422">
        <ele>4</ele>
        <time>2010-02-07T12:07:33Z</time>
      </trkpt>
      <trkpt lat="43.64282" lon="7.14422">
        <ele>4</ele>
        <time>2010-02-07T12:07:33Z</time>
      </trkpt>
      <trkpt lat="43.64282" lon="7.14422">
        <ele>4</ele>
        <time>2010-02-07T12:08:12Z</time>
      </trkpt>
      <trkpt lat="43.6431" lon="7.14418">
        <ele>4</ele>
        <time>2010-02-07T12:08:20Z</time>
      </trkpt>
      <trkpt lat="43.6431" lon="7.14418">
        <ele>4</ele>
        <time>2010-02-07T12:08:25Z</time>
      </trkpt>
      <trkpt lat="43.6431" lon="7.14418">
        <ele>4</ele>
        <time>2010-02-07T12:08:27Z</time>
      </trkpt>
      <trkpt lat="43.6431" lon="7.14418">
        <ele>4</ele>
        <time>2010-02-07T12:08:30Z</time>
      </trkpt>
      <trkpt lat="43.6431" lon="7.14418">
        <ele>4</ele>
        <time>2010-02-07T12:08:40Z</time>
      </trkpt>
      <trkpt lat="43.64381" lon="7.14497">
        <ele>4</ele>
        <time>2010-02-07T12:09:38Z</time>
      </trkpt>
      <trkpt lat="43.64381" lon="7.14497">
        <ele>4</ele>
        <time>2010-02-07T12:09:42Z</time>
      </trkpt>
      <trkpt lat="43.64395" lon="7.14531">
        <ele>5</ele>
        <time>2010-02-07T12:09:46Z</time>
      </trkpt>
      <trkpt lat="43.64395" lon="7.14531">
        <ele>5</ele>
        <time>2010-02-07T12:09:52Z</time>
      </trkpt>
      <trkpt lat="43.64395" lon="7.14531">
        <ele>5</ele>
        <time>2010-02-07T12:09:54Z</time>
      </trkpt>
      <trkpt lat="43.64395" lon="7.14531">
        <ele>5</ele>
        <time>2010-02-07T12:09:58Z</time>
      </trkpt>
      <trkpt lat="43.64414" lon="7.14559">
        <ele>5</ele>
        <time>2010-02-07T12:10:04Z</time>
      </trkpt>
      <trkpt lat="43.64436" lon="7.14585">
        <ele>7</ele>
        <time>2010-02-07T12:10:15Z</time>
      </trkpt>
      <trkpt lat="43.64457" lon="7.14604">
        <ele>7</ele>
        <time>2010-02-07T12:10:28Z</time>
      </trkpt>
      <trkpt lat="43.64475" lon="7.14617">
        <ele>8</ele>
        <time>2010-02-07T12:10:40Z</time>
      </trkpt>
      <trkpt lat="43.64503" lon="7.14641">
        <ele>7</ele>
        <time>2010-02-07T12:11:00Z</time>
      </trkpt>
      <trkpt lat="43.6452" lon="7.1466">
        <ele>7</ele>
        <time>2010-02-07T12:11:14Z</time>
      </trkpt>
      <trkpt lat="43.64543" lon="7.14682">
        <ele>5</ele>
        <time>2010-02-07T12:11:33Z</time>
      </trkpt>
      <trkpt lat="43.64622" lon="7.1475">
        <ele>3</ele>
        <time>2010-02-07T12:12:35Z</time>
      </trkpt>
      <trkpt lat="43.64629" lon="7.14752">
        <ele>3</ele>
        <time>2010-02-07T12:12:42Z</time>
      </trkpt>
      <trkpt lat="43.64635" lon="7.14759">
        <ele>3</ele>
        <time>2010-02-07T12:12:50Z</time>
      </trkpt>
      <trkpt lat="43.64635" lon="7.14759">
        <ele>3</ele>
        <time>2010-02-07T12:12:52Z</time>
      </trkpt>
      <trkpt lat="43.64635" lon="7.14759">
        <ele>3</ele>
        <time>2010-02-07T12:12:57Z</time>
      </trkpt>
      <trkpt lat="43.64635" lon="7.14759">
        <ele>3</ele>
        <time>2010-02-07T12:13:16Z</time>
      </trkpt>
      <trkpt lat="43.64635" lon="7.14759">
        <ele>3</ele>
        <time>2010-02-07T12:13:16Z</time>
      </trkpt>
      <trkpt lat="43.64673" lon="7.14795">
        <ele>3</ele>
        <time>2010-02-07T12:13:53Z</time>
      </trkpt>
      <trkpt lat="43.6469" lon="7.14825">
        <ele>3</ele>
        <time>2010-02-07T12:13:58Z</time>
      </trkpt>
      <trkpt lat="43.647" lon="7.14832">
        <ele>3</ele>
        <time>2010-02-07T12:14:07Z</time>
      </trkpt>
      <trkpt lat="43.64724" lon="7.14849">
        <ele>2</ele>
        <time>2010-02-07T12:14:23Z</time>
      </trkpt>
      <trkpt lat="43.64734" lon="7.14855">
        <ele>2</ele>
        <time>2010-02-07T12:14:34Z</time>
      </trkpt>
      <trkpt lat="43.64738" lon="7.1486">
        <ele>2</ele>
        <time>2010-02-07T12:14:37Z</time>
      </trkpt>
      <trkpt lat="43.64753" lon="7.14868">
        <ele>2</ele>
        <time>2010-02-07T12:14:48Z</time>
      </trkpt>
      <trkpt lat="43.64768" lon="7.14881">
        <ele>2</ele>
        <time>2010-02-07T12:14:58Z</time>
      </trkpt>
      <trkpt lat="43.64796" lon="7.14903">
        <ele>3</ele>
        <time>2010-02-07T12:15:19Z</time>
      </trkpt>
      <trkpt lat="43.64796" lon="7.14903">
        <ele>3</ele>
        <time>2010-02-07T12:15:22Z</time>
      </trkpt>
      <trkpt lat="43.64804" lon="7.14913">
        <ele>3</ele>
        <time>2010-02-07T12:15:26Z</time>
      </trkpt>
      <trkpt lat="43.64831" lon="7.14948">
        <ele>3</ele>
        <time>2010-02-07T12:15:50Z</time>
      </trkpt>
      <trkpt lat="43.64847" lon="7.14963">
        <ele>3</ele>
        <time>2010-02-07T12:16:06Z</time>
      </trkpt>
      <trkpt lat="43.64863" lon="7.14978">
        <ele>3</ele>
        <time>2010-02-07T12:16:20Z</time>
      </trkpt>
      <trkpt lat="43.64878" lon="7.14997">
        <ele>3</ele>
        <time>2010-02-07T12:16:32Z</time>
      </trkpt>
      <trkpt lat="43.64898" lon="7.15016">
        <ele>4</ele>
        <time>2010-02-07T12:16:45Z</time>
      </trkpt>
      <trkpt lat="43.64926" lon="7.15051">
        <ele>3</ele>
        <time>2010-02-07T12:17:08Z</time>
      </trkpt>
      <trkpt lat="43.64935" lon="7.15064">
        <ele>4</ele>
        <time>2010-02-07T12:17:21Z</time>
      </trkpt>
      <trkpt lat="43.6494" lon="7.15068">
        <ele>4</ele>
        <time>2010-02-07T12:17:23Z</time>
      </trkpt>
      <trkpt lat="43.64946" lon="7.15076">
        <ele>3</ele>
        <time>2010-02-07T12:17:31Z</time>
      </trkpt>
      <trkpt lat="43.64951" lon="7.15081">
        <ele>3</ele>
        <time>2010-02-07T12:17:42Z</time>
      </trkpt>
      <trkpt lat="43.6496" lon="7.15094">
        <ele>3</ele>
        <time>2010-02-07T12:17:46Z</time>
      </trkpt>
      <trkpt lat="43.64962" lon="7.15096">
        <ele>3</ele>
        <time>2010-02-07T12:17:53Z</time>
      </trkpt>
      <trkpt lat="43.64962" lon="7.15096">
        <ele>3</ele>
        <time>2010-02-07T12:17:59Z</time>
      </trkpt>
      <trkpt lat="43.64982" lon="7.15119">
        <ele>3</ele>
        <time>2010-02-07T12:18:06Z</time>
      </trkpt>
      <trkpt lat="43.64985" lon="7.15121">
        <ele>3</ele>
        <time>2010-02-07T12:18:11Z</time>
      </trkpt>
      <trkpt lat="43.64985" lon="7.15121">
        <ele>3</ele>
        <time>2010-02-07T12:18:18Z</time>
      </trkpt>
      <trkpt lat="43.64999" lon="7.15141">
        <ele>3</ele>
        <time>2010-02-07T12:18:22Z</time>
      </trkpt>
      <trkpt lat="43.65005" lon="7.15152">
        <ele>3</ele>
        <time>2010-02-07T12:18:28Z</time>
      </trkpt>
      <trkpt lat="43.65016" lon="7.15169">
        <ele>4</ele>
        <time>2010-02-07T12:18:42Z</time>
      </trkpt>
      <trkpt lat="43.65025" lon="7.15179">
        <ele>4</ele>
        <time>2010-02-07T12:18:49Z</time>
      </trkpt>
      <trkpt lat="43.65043" lon="7.15205">
        <ele>5</ele>
        <time>2010-02-07T12:19:03Z</time>
      </trkpt>
      <trkpt lat="43.65052" lon="7.15222">
        <ele>5</ele>
        <time>2010-02-07T12:19:16Z</time>
      </trkpt>
      <trkpt lat="43.65074" lon="7.15252">
        <ele>6</ele>
        <time>2010-02-07T12:19:38Z</time>
      </trkpt>
      <trkpt lat="43.65085" lon="7.15267">
        <ele>7</ele>
        <time>2010-02-07T12:19:53Z</time>
      </trkpt>
      <trkpt lat="43.65092" lon="7.15276">
        <ele>8</ele>
        <time>2010-02-07T12:19:56Z</time>
      </trkpt>
      <trkpt lat="43.65103" lon="7.15287">
        <ele>9</ele>
        <time>2010-02-07T12:20:05Z</time>
      </trkpt>
      <trkpt lat="43.6512" lon="7.15306">
        <ele>10</ele>
        <time>2010-02-07T12:20:24Z</time>
      </trkpt>
      <trkpt lat="43.65128" lon="7.15315">
        <ele>10</ele>
        <time>2010-02-07T12:20:28Z</time>
      </trkpt>
      <trkpt lat="43.65144" lon="7.15336">
        <ele>11</ele>
        <time>2010-02-07T12:20:40Z</time>
      </trkpt>
      <trkpt lat="43.65154" lon="7.15351">
        <ele>11</ele>
        <time>2010-02-07T12:20:54Z</time>
      </trkpt>
      <trkpt lat="43.65154" lon="7.15351">
        <ele>11</ele>
        <time>2010-02-07T12:20:58Z</time>
      </trkpt>
      <trkpt lat="43.65154" lon="7.15351">
        <ele>11</ele>
        <time>2010-02-07T12:21:02Z</time>
      </trkpt>
      <trkpt lat="43.65172" lon="7.15368">
        <ele>11</ele>
        <time>2010-02-07T12:21:07Z</time>
      </trkpt>
      <trkpt lat="43.65178" lon="7.15379">
        <ele>11</ele>
        <time>2010-02-07T12:21:13Z</time>
      </trkpt>
      <trkpt lat="43.65183" lon="7.15388">
        <ele>11</ele>
        <time>2010-02-07T12:21:23Z</time>
      </trkpt>
      <trkpt lat="43.65183" lon="7.15388">
        <ele>11</ele>
        <time>2010-02-07T12:21:25Z</time>
      </trkpt>
      <trkpt lat="43.65192" lon="7.15403">
        <ele>11</ele>
        <time>2010-02-07T12:21:29Z</time>
      </trkpt>
      <trkpt lat="43.65197" lon="7.15407">
        <ele>11</ele>
        <time>2010-02-07T12:21:35Z</time>
      </trkpt>
      <trkpt lat="43.65205" lon="7.15415">
        <ele>11</ele>
        <time>2010-02-07T12:21:39Z</time>
      </trkpt>
      <trkpt lat="43.65207" lon="7.1542">
        <ele>10</ele>
        <time>2010-02-07T12:21:45Z</time>
      </trkpt>
      <trkpt lat="43.65213" lon="7.1543">
        <ele>10</ele>
        <time>2010-02-07T12:21:50Z</time>
      </trkpt>
      <trkpt lat="43.65213" lon="7.1543">
        <ele>10</ele>
        <time>2010-02-07T12:21:56Z</time>
      </trkpt>
      <trkpt lat="43.65213" lon="7.1543">
        <ele>10</ele>
        <time>2010-02-07T12:21:58Z</time>
      </trkpt>
      <trkpt lat="43.65213" lon="7.1543">
        <ele>10</ele>
        <time>2010-02-07T12:22:15Z</time>
      </trkpt>
      <trkpt lat="43.65214" lon="7.15431">
        <ele>10</ele>
        <time>2010-02-07T12:22:15Z</time>
      </trkpt>
      <trkpt lat="43.65203" lon="7.15495">
        <ele>9</ele>
        <time>2010-02-07T12:22:46Z</time>
      </trkpt>
      <trkpt lat="43.65204" lon="7.15495">
        <ele>9</ele>
        <time>2010-02-07T12:22:46Z</time>
      </trkpt>
      <trkpt lat="43.65203" lon="7.15495">
        <ele>9</ele>
        <time>2010-02-07T12:23:26Z</time>
      </trkpt>
      <trkpt lat="43.65203" lon="7.15495">
        <ele>9</ele>
        <time>2010-02-07T12:23:28Z</time>
      </trkpt>
      <trkpt lat="43.65203" lon="7.15495">
        <ele>9</ele>
        <time>2010-02-07T12:23:31Z</time>
      </trkpt>
      <trkpt lat="43.65203" lon="7.15495">
        <ele>9</ele>
        <time>2010-02-07T12:23:38Z</time>
      </trkpt>
      <trkpt lat="43.65216" lon="7.15454">
        <ele>10</ele>
        <time>2010-02-07T12:23:44Z</time>
      </trkpt>
      <trkpt lat="43.6522" lon="7.15435">
        <ele>10</ele>
        <time>2010-02-07T12:23:53Z</time>
      </trkpt>
      <trkpt lat="43.65217" lon="7.15424">
        <ele>10</ele>
        <time>2010-02-07T12:23:57Z</time>
      </trkpt>
      <trkpt lat="43.65217" lon="7.1542">
        <ele>10</ele>
        <time>2010-02-07T12:24:03Z</time>
      </trkpt>
      <trkpt lat="43.65218" lon="7.15411">
        <ele>12</ele>
        <time>2010-02-07T12:24:08Z</time>
      </trkpt>
      <trkpt lat="43.65218" lon="7.15411">
        <ele>12</ele>
        <time>2010-02-07T12:24:17Z</time>
      </trkpt>
      <trkpt lat="43.65219" lon="7.15412">
        <ele>12</ele>
        <time>2010-02-07T12:24:21Z</time>
      </trkpt>
      <trkpt lat="43.65218" lon="7.15411">
        <ele>12</ele>
        <time>2010-02-07T12:24:37Z</time>
      </trkpt>
      <trkpt lat="43.65218" lon="7.15405">
        <ele>12</ele>
        <time>2010-02-07T12:24:39Z</time>
      </trkpt>
      <trkpt lat="43.65218" lon="7.15405">
        <ele>12</ele>
        <time>2010-02-07T12:24:46Z</time>
      </trkpt>
      <trkpt lat="43.65218" lon="7.15405">
        <ele>12</ele>
        <time>2010-02-07T12:24:48Z</time>
      </trkpt>
      <trkpt lat="43.65218" lon="7.15405">
        <ele>12</ele>
        <time>2010-02-07T12:25:13Z</time>
      </trkpt>
      <trkpt lat="43.65216" lon="7.1539">
        <ele>12</ele>
        <time>2010-02-07T12:25:17Z</time>
      </trkpt>
      <trkpt lat="43.65209" lon="7.15358">
        <ele>12</ele>
        <time>2010-02-07T12:25:37Z</time>
      </trkpt>
      <trkpt lat="43.65209" lon="7.15358">
        <ele>12</ele>
        <time>2010-02-07T12:25:42Z</time>
      </trkpt>
      <trkpt lat="43.65209" lon="7.15358">
        <ele>12</ele>
        <time>2010-02-07T12:25:46Z</time>
      </trkpt>
      <trkpt lat="43.65195" lon="7.15342">
        <ele>12</ele>
        <time>2010-02-07T12:25:50Z</time>
      </trkpt>
      <trkpt lat="43.65195" lon="7.15342">
        <ele>12</ele>
        <time>2010-02-07T12:26:00Z</time>
      </trkpt>
      <trkpt lat="43.65176" lon="7.15336">
        <ele>12</ele>
        <time>2010-02-07T12:26:05Z</time>
      </trkpt>
      <trkpt lat="43.6517" lon="7.15332">
        <ele>12</ele>
        <time>2010-02-07T12:26:11Z</time>
      </trkpt>
      <trkpt lat="43.6517" lon="7.15332">
        <ele>12</ele>
        <time>2010-02-07T12:26:15Z</time>
      </trkpt>
      <trkpt lat="43.6517" lon="7.15332">
        <ele>12</ele>
        <time>2010-02-07T12:26:22Z</time>
      </trkpt>
      <trkpt lat="43.6517" lon="7.15332">
        <ele>12</ele>
        <time>2010-02-07T12:26:39Z</time>
      </trkpt>
      <trkpt lat="43.65156" lon="7.15312">
        <ele>11</ele>
        <time>2010-02-07T12:26:43Z</time>
      </trkpt>
      <trkpt lat="43.65156" lon="7.15312">
        <ele>11</ele>
        <time>2010-02-07T12:26:52Z</time>
      </trkpt>
      <trkpt lat="43.65156" lon="7.15312">
        <ele>11</ele>
        <time>2010-02-07T12:26:56Z</time>
      </trkpt>
      <trkpt lat="43.65156" lon="7.15312">
        <ele>11</ele>
        <time>2010-02-07T12:27:05Z</time>
      </trkpt>
      <trkpt lat="43.65135" lon="7.15289">
        <ele>10</ele>
        <time>2010-02-07T12:27:10Z</time>
      </trkpt>
      <trkpt lat="43.65134" lon="7.15287">
        <ele>9</ele>
        <time>2010-02-07T12:27:15Z</time>
      </trkpt>
      <trkpt lat="43.65134" lon="7.15287">
        <ele>9</ele>
        <time>2010-02-07T12:27:23Z</time>
      </trkpt>
      <trkpt lat="43.65134" lon="7.15287">
        <ele>9</ele>
        <time>2010-02-07T12:27:28Z</time>
      </trkpt>
      <trkpt lat="43.65134" lon="7.15287">
        <ele>9</ele>
        <time>2010-02-07T12:27:49Z</time>
      </trkpt>
      <trkpt lat="43.65123" lon="7.1525">
        <ele>7</ele>
        <time>2010-02-07T12:27:54Z</time>
      </trkpt>
      <trkpt lat="43.65123" lon="7.1525">
        <ele>7</ele>
        <time>2010-02-07T12:28:00Z</time>
      </trkpt>
      <trkpt lat="43.65106" lon="7.15229">
        <ele>7</ele>
        <time>2010-02-07T12:28:06Z</time>
      </trkpt>
      <trkpt lat="43.65104" lon="7.1522">
        <ele>7</ele>
        <time>2010-02-07T12:28:13Z</time>
      </trkpt>
      <trkpt lat="43.65104" lon="7.1522">
        <ele>7</ele>
        <time>2010-02-07T12:28:17Z</time>
      </trkpt>
      <trkpt lat="43.65104" lon="7.1522">
        <ele>7</ele>
        <time>2010-02-07T12:28:21Z</time>
      </trkpt>
      <trkpt lat="43.65114" lon="7.15218">
        <ele>7</ele>
        <time>2010-02-07T12:28:26Z</time>
      </trkpt>
      <trkpt lat="43.65119" lon="7.15212">
        <ele>7</ele>
        <time>2010-02-07T12:28:30Z</time>
      </trkpt>
      <trkpt lat="43.6512" lon="7.15212">
        <ele>7</ele>
        <time>2010-02-07T12:28:35Z</time>
      </trkpt>
      <trkpt lat="43.65119" lon="7.15212">
        <ele>7</ele>
        <time>2010-02-07T12:28:46Z</time>
      </trkpt>
      <trkpt lat="43.65119" lon="7.15212">
        <ele>7</ele>
        <time>2010-02-07T12:28:51Z</time>
      </trkpt>
      <trkpt lat="43.65147" lon="7.15212">
        <ele>7</ele>
        <time>2010-02-07T12:28:56Z</time>
      </trkpt>
      <trkpt lat="43.65147" lon="7.15212">
        <ele>7</ele>
        <time>2010-02-07T12:29:05Z</time>
      </trkpt>
      <trkpt lat="43.65147" lon="7.15212">
        <ele>7</ele>
        <time>2010-02-07T12:29:09Z</time>
      </trkpt>
      <trkpt lat="43.65147" lon="7.15212">
        <ele>7</ele>
        <time>2010-02-07T12:29:15Z</time>
      </trkpt>
      <trkpt lat="43.65173" lon="7.15214">
        <ele>8</ele>
        <time>2010-02-07T12:29:21Z</time>
      </trkpt>
      <trkpt lat="43.65173" lon="7.15214">
        <ele>8</ele>
        <time>2010-02-07T12:29:25Z</time>
      </trkpt>
      <trkpt lat="43.65173" lon="7.15214">
        <ele>8</ele>
        <time>2010-02-07T12:29:29Z</time>
      </trkpt>
      <trkpt lat="43.65173" lon="7.15214">
        <ele>8</ele>
        <time>2010-02-07T12:29:33Z</time>
      </trkpt>
      <trkpt lat="43.65201" lon="7.15209">
        <ele>7</ele>
        <time>2010-02-07T12:29:37Z</time>
      </trkpt>
      <trkpt lat="43.65201" lon="7.15209">
        <ele>7</ele>
        <time>2010-02-07T12:29:46Z</time>
      </trkpt>
      <trkpt lat="43.65201" lon="7.15209">
        <ele>7</ele>
        <time>2010-02-07T12:29:50Z</time>
      </trkpt>
      <trkpt lat="43.65201" lon="7.15209">
        <ele>7</ele>
        <time>2010-02-07T12:29:58Z</time>
      </trkpt>
      <trkpt lat="43.65229" lon="7.15199">
        <ele>7</ele>
        <time>2010-02-07T12:30:04Z</time>
      </trkpt>
      <trkpt lat="43.65229" lon="7.15199">
        <ele>7</ele>
        <time>2010-02-07T12:30:09Z</time>
      </trkpt>
      <trkpt lat="43.65229" lon="7.15199">
        <ele>7</ele>
        <time>2010-02-07T12:30:13Z</time>
      </trkpt>
      <trkpt lat="43.65259" lon="7.15197">
        <ele>7</ele>
        <time>2010-02-07T12:30:19Z</time>
      </trkpt>
      <trkpt lat="43.65259" lon="7.15197">
        <ele>7</ele>
        <time>2010-02-07T12:30:26Z</time>
      </trkpt>
      <trkpt lat="43.65296" lon="7.15197">
        <ele>8</ele>
        <time>2010-02-07T12:30:32Z</time>
      </trkpt>
      <trkpt lat="43.65301" lon="7.15197">
        <ele>8</ele>
        <time>2010-02-07T12:30:38Z</time>
      </trkpt>
      <trkpt lat="43.65301" lon="7.15197">
        <ele>8</ele>
        <time>2010-02-07T12:30:47Z</time>
      </trkpt>
      <trkpt lat="43.65301" lon="7.15197">
        <ele>8</ele>
        <time>2010-02-07T12:30:51Z</time>
      </trkpt>
      <trkpt lat="43.65301" lon="7.15197">
        <ele>8</ele>
        <time>2010-02-07T12:30:58Z</time>
      </trkpt>
      <trkpt lat="43.65327" lon="7.1519">
        <ele>8</ele>
        <time>2010-02-07T12:31:03Z</time>
      </trkpt>
      <trkpt lat="43.65341" lon="7.15186">
        <ele>9</ele>
        <time>2010-02-07T12:31:10Z</time>
      </trkpt>
      <trkpt lat="43.65341" lon="7.15186">
        <ele>9</ele>
        <time>2010-02-07T12:31:14Z</time>
      </trkpt>
      <trkpt lat="43.65341" lon="7.15186">
        <ele>9</ele>
        <time>2010-02-07T12:31:21Z</time>
      </trkpt>
      <trkpt lat="43.65341" lon="7.15186">
        <ele>9</ele>
        <time>2010-02-07T12:31:26Z</time>
      </trkpt>
      <trkpt lat="43.6537" lon="7.15182">
        <ele>9</ele>
        <time>2010-02-07T12:31:30Z</time>
      </trkpt>
      <trkpt lat="43.6537" lon="7.15182">
        <ele>9</ele>
        <time>2010-02-07T12:31:38Z</time>
      </trkpt>
      <trkpt lat="43.6537" lon="7.15182">
        <ele>9</ele>
        <time>2010-02-07T12:31:44Z</time>
      </trkpt>
      <trkpt lat="43.6537" lon="7.15182">
        <ele>9</ele>
        <time>2010-02-07T12:31:50Z</time>
      </trkpt>
      <trkpt lat="43.65397" lon="7.15175">
        <ele>9</ele>
        <time>2010-02-07T12:31:55Z</time>
      </trkpt>
      <trkpt lat="43.65397" lon="7.15175">
        <ele>9</ele>
        <time>2010-02-07T12:32:04Z</time>
      </trkpt>
      <trkpt lat="43.65397" lon="7.15175">
        <ele>9</ele>
        <time>2010-02-07T12:32:06Z</time>
      </trkpt>
      <trkpt lat="43.65431" lon="7.15162">
        <ele>9</ele>
        <time>2010-02-07T12:32:12Z</time>
      </trkpt>
      <trkpt lat="43.65433" lon="7.15162">
        <ele>9</ele>
        <time>2010-02-07T12:32:17Z</time>
      </trkpt>
      <trkpt lat="43.65433" lon="7.15162">
        <ele>9</ele>
        <time>2010-02-07T12:32:25Z</time>
      </trkpt>
      <trkpt lat="43.65433" lon="7.15162">
        <ele>9</ele>
        <time>2010-02-07T12:32:29Z</time>
      </trkpt>
      <trkpt lat="43.6545" lon="7.15145">
        <ele>8</ele>
        <time>2010-02-07T12:32:34Z</time>
      </trkpt>
      <trkpt lat="43.65451" lon="7.15146">
        <ele>8</ele>
        <time>2010-02-07T12:32:34Z</time>
      </trkpt>
      <trkpt lat="43.65482" lon="7.15117">
        <ele>9</ele>
        <time>2010-02-07T12:33:00Z</time>
      </trkpt>
      <trkpt lat="43.65485" lon="7.15096">
        <ele>9</ele>
        <time>2010-02-07T12:33:06Z</time>
      </trkpt>
      <trkpt lat="43.65482" lon="7.15076">
        <ele>9</ele>
        <time>2010-02-07T12:33:11Z</time>
      </trkpt>
      <trkpt lat="43.65479" lon="7.15061">
        <ele>8</ele>
        <time>2010-02-07T12:33:19Z</time>
      </trkpt>
      <trkpt lat="43.65474" lon="7.15042">
        <ele>8</ele>
        <time>2010-02-07T12:33:32Z</time>
      </trkpt>
      <trkpt lat="43.65474" lon="7.15042">
        <ele>8</ele>
        <time>2010-02-07T12:33:36Z</time>
      </trkpt>
      <trkpt lat="43.65474" lon="7.15042">
        <ele>8</ele>
        <time>2010-02-07T12:33:39Z</time>
      </trkpt>
      <trkpt lat="43.65474" lon="7.15042">
        <ele>8</ele>
        <time>2010-02-07T12:33:50Z</time>
      </trkpt>
      <trkpt lat="43.65466" lon="7.15006">
        <ele>8</ele>
        <time>2010-02-07T12:33:55Z</time>
      </trkpt>
      <trkpt lat="43.6546" lon="7.1498">
        <ele>7</ele>
        <time>2010-02-07T12:34:07Z</time>
      </trkpt>
      <trkpt lat="43.65457" lon="7.14973">
        <ele>7</ele>
        <time>2010-02-07T12:34:16Z</time>
      </trkpt>
      <trkpt lat="43.65457" lon="7.14973">
        <ele>7</ele>
        <time>2010-02-07T12:34:22Z</time>
      </trkpt>
      <trkpt lat="43.65447" lon="7.14948">
        <ele>7</ele>
        <time>2010-02-07T12:34:26Z</time>
      </trkpt>
      <trkpt lat="43.65444" lon="7.14937">
        <ele>7</ele>
        <time>2010-02-07T12:34:28Z</time>
      </trkpt>
      <trkpt lat="43.65441" lon="7.1492">
        <ele>6</ele>
        <time>2010-02-07T12:34:36Z</time>
      </trkpt>
      <trkpt lat="43.65441" lon="7.1492">
        <ele>6</ele>
        <time>2010-02-07T12:34:40Z</time>
      </trkpt>
      <trkpt lat="43.65433" lon="7.14896">
        <ele>7</ele>
        <time>2010-02-07T12:34:44Z</time>
      </trkpt>
      <trkpt lat="43.6542" lon="7.14845">
        <ele>7</ele>
        <time>2010-02-07T12:35:03Z</time>
      </trkpt>
      <trkpt lat="43.6542" lon="7.14845">
        <ele>7</ele>
        <time>2010-02-07T12:35:07Z</time>
      </trkpt>
      <trkpt lat="43.6542" lon="7.14845">
        <ele>7</ele>
        <time>2010-02-07T12:35:11Z</time>
      </trkpt>
      <trkpt lat="43.6542" lon="7.14845">
        <ele>7</ele>
        <time>2010-02-07T12:35:15Z</time>
      </trkpt>
      <trkpt lat="43.65417" lon="7.1483">
        <ele>7</ele>
        <time>2010-02-07T12:35:21Z</time>
      </trkpt>
      <trkpt lat="43.65415" lon="7.14823">
        <ele>8</ele>
        <time>2010-02-07T12:35:28Z</time>
      </trkpt>
      <trkpt lat="43.65415" lon="7.14823">
        <ele>8</ele>
        <time>2010-02-07T12:35:33Z</time>
      </trkpt>
      <trkpt lat="43.65405" lon="7.14797">
        <ele>9</ele>
        <time>2010-02-07T12:35:40Z</time>
      </trkpt>
      <trkpt lat="43.65406" lon="7.14798">
        <ele>9</ele>
        <time>2010-02-07T12:35:42Z</time>
      </trkpt>
      <trkpt lat="43.65399" lon="7.1478">
        <ele>10</ele>
        <time>2010-02-07T12:35:53Z</time>
      </trkpt>
      <trkpt lat="43.65392" lon="7.14765">
        <ele>10</ele>
        <time>2010-02-07T12:35:58Z</time>
      </trkpt>
      <trkpt lat="43.65384" lon="7.14744">
        <ele>12</ele>
        <time>2010-02-07T12:36:08Z</time>
      </trkpt>
      <trkpt lat="43.65374" lon="7.14725">
        <ele>12</ele>
        <time>2010-02-07T12:36:23Z</time>
      </trkpt>
      <trkpt lat="43.65374" lon="7.14725">
        <ele>12</ele>
        <time>2010-02-07T12:36:27Z</time>
      </trkpt>
      <trkpt lat="43.65364" lon="7.14712">
        <ele>12</ele>
        <time>2010-02-07T12:36:31Z</time>
      </trkpt>
      <trkpt lat="43.65354" lon="7.14692">
        <ele>12</ele>
        <time>2010-02-07T12:36:37Z</time>
      </trkpt>
      <trkpt lat="43.65348" lon="7.14682">
        <ele>12</ele>
        <time>2010-02-07T12:36:46Z</time>
      </trkpt>
      <trkpt lat="43.65345" lon="7.14675">
        <ele>12</ele>
        <time>2010-02-07T12:36:49Z</time>
      </trkpt>
      <trkpt lat="43.65345" lon="7.14675">
        <ele>12</ele>
        <time>2010-02-07T12:36:57Z</time>
      </trkpt>
      <trkpt lat="43.65335" lon="7.14654">
        <ele>13</ele>
        <time>2010-02-07T12:37:01Z</time>
      </trkpt>
      <trkpt lat="43.65335" lon="7.14654">
        <ele>13</ele>
        <time>2010-02-07T12:37:09Z</time>
      </trkpt>
      <trkpt lat="43.65335" lon="7.14654">
        <ele>13</ele>
        <time>2010-02-07T12:37:13Z</time>
      </trkpt>
      <trkpt lat="43.65335" lon="7.14654">
        <ele>13</ele>
        <time>2010-02-07T12:37:39Z</time>
      </trkpt>
      <trkpt lat="43.65323" lon="7.14611">
        <ele>13</ele>
        <time>2010-02-07T12:37:45Z</time>
      </trkpt>
      <trkpt lat="43.65315" lon="7.14587">
        <ele>13</ele>
        <time>2010-02-07T12:37:53Z</time>
      </trkpt>
      <trkpt lat="43.65306" lon="7.14553">
        <ele>14</ele>
        <time>2010-02-07T12:38:07Z</time>
      </trkpt>
      <trkpt lat="43.65301" lon="7.14523">
        <ele>14</ele>
        <time>2010-02-07T12:38:21Z</time>
      </trkpt>
      <trkpt lat="43.65282" lon="7.14439">
        <ele>14</ele>
        <time>2010-02-07T12:39:05Z</time>
      </trkpt>
      <trkpt lat="43.6526" lon="7.14368">
        <ele>15</ele>
        <time>2010-02-07T12:39:45Z</time>
      </trkpt>
      <trkpt lat="43.65252" lon="7.1436">
        <ele>15</ele>
        <time>2010-02-07T12:39:54Z</time>
      </trkpt>
      <trkpt lat="43.65242" lon="7.14345">
        <ele>13</ele>
        <time>2010-02-07T12:40:06Z</time>
      </trkpt>
      <trkpt lat="43.65229" lon="7.14325">
        <ele>15</ele>
        <time>2010-02-07T12:40:17Z</time>
      </trkpt>
      <trkpt lat="43.65229" lon="7.14325">
        <ele>15</ele>
        <time>2010-02-07T12:40:21Z</time>
      </trkpt>
      <trkpt lat="43.65222" lon="7.14313">
        <ele>15</ele>
        <time>2010-02-07T12:40:25Z</time>
      </trkpt>
      <trkpt lat="43.65212" lon="7.14298">
        <ele>15</ele>
        <time>2010-02-07T12:40:31Z</time>
      </trkpt>
      <trkpt lat="43.65205" lon="7.14285">
        <ele>16</ele>
        <time>2010-02-07T12:40:42Z</time>
      </trkpt>
      <trkpt lat="43.65205" lon="7.14285">
        <ele>16</ele>
        <time>2010-02-07T12:40:44Z</time>
      </trkpt>
      <trkpt lat="43.65194" lon="7.14274">
        <ele>16</ele>
        <time>2010-02-07T12:40:49Z</time>
      </trkpt>
      <trkpt lat="43.65182" lon="7.14257">
        <ele>16</ele>
        <time>2010-02-07T12:40:58Z</time>
      </trkpt>
      <trkpt lat="43.65164" lon="7.14237">
        <ele>17</ele>
        <time>2010-02-07T12:41:13Z</time>
      </trkpt>
      <trkpt lat="43.65141" lon="7.14214">
        <ele>18</ele>
        <time>2010-02-07T12:41:27Z</time>
      </trkpt>
      <trkpt lat="43.65122" lon="7.14197">
        <ele>18</ele>
        <time>2010-02-07T12:41:41Z</time>
      </trkpt>
      <trkpt lat="43.65094" lon="7.14173">
        <ele>17</ele>
        <time>2010-02-07T12:42:05Z</time>
      </trkpt>
      <trkpt lat="43.65085" lon="7.14167">
        <ele>16</ele>
        <time>2010-02-07T12:42:09Z</time>
      </trkpt>
      <trkpt lat="43.65085" lon="7.14167">
        <ele>16</ele>
        <time>2010-02-07T12:42:16Z</time>
      </trkpt>
      <trkpt lat="43.65085" lon="7.14167">
        <ele>16</ele>
        <time>2010-02-07T12:42:21Z</time>
      </trkpt>
      <trkpt lat="43.65085" lon="7.14167">
        <ele>16</ele>
        <time>2010-02-07T12:42:31Z</time>
      </trkpt>
      <trkpt lat="43.65049" lon="7.14134">
        <ele>14</ele>
        <time>2010-02-07T12:42:39Z</time>
      </trkpt>
      <trkpt lat="43.65041" lon="7.14128">
        <ele>14</ele>
        <time>2010-02-07T12:42:45Z</time>
      </trkpt>
      <trkpt lat="43.65033" lon="7.14122">
        <ele>13</ele>
        <time>2010-02-07T12:42:49Z</time>
      </trkpt>
      <trkpt lat="43.65021" lon="7.14117">
        <ele>13</ele>
        <time>2010-02-07T12:42:56Z</time>
      </trkpt>
      <trkpt lat="43.65007" lon="7.14109">
        <ele>13</ele>
        <time>2010-02-07T12:43:05Z</time>
      </trkpt>
      <trkpt lat="43.64986" lon="7.14096">
        <ele>10</ele>
        <time>2010-02-07T12:43:22Z</time>
      </trkpt>
      <trkpt lat="43.64984" lon="7.14096">
        <ele>10</ele>
        <time>2010-02-07T12:43:28Z</time>
      </trkpt>
      <trkpt lat="43.64984" lon="7.14096">
        <ele>10</ele>
        <time>2010-02-07T12:43:36Z</time>
      </trkpt>
      <trkpt lat="43.64964" lon="7.14087">
        <ele>9</ele>
        <time>2010-02-07T12:43:40Z</time>
      </trkpt>
      <trkpt lat="43.64958" lon="7.14079">
        <ele>10</ele>
        <time>2010-02-07T12:43:44Z</time>
      </trkpt>
      <trkpt lat="43.64949" lon="7.1407">
        <ele>10</ele>
        <time>2010-02-07T12:43:51Z</time>
      </trkpt>
      <trkpt lat="43.64949" lon="7.1407">
        <ele>10</ele>
        <time>2010-02-07T12:43:55Z</time>
      </trkpt>
      <trkpt lat="43.64941" lon="7.14064">
        <ele>10</ele>
        <time>2010-02-07T12:43:59Z</time>
      </trkpt>
      <trkpt lat="43.64933" lon="7.14053">
        <ele>10</ele>
        <time>2010-02-07T12:44:06Z</time>
      </trkpt>
      <trkpt lat="43.64933" lon="7.14053">
        <ele>10</ele>
        <time>2010-02-07T12:44:10Z</time>
      </trkpt>
      <trkpt lat="43.64933" lon="7.14053">
        <ele>10</ele>
        <time>2010-02-07T12:44:14Z</time>
      </trkpt>
      <trkpt lat="43.64933" lon="7.14053">
        <ele>10</ele>
        <time>2010-02-07T12:44:23Z</time>
      </trkpt>
      <trkpt lat="43.64917" lon="7.14031">
        <ele>10</ele>
        <time>2010-02-07T12:44:27Z</time>
      </trkpt>
      <trkpt lat="43.64917" lon="7.14031">
        <ele>10</ele>
        <time>2010-02-07T12:44:35Z</time>
      </trkpt>
      <trkpt lat="43.64917" lon="7.14031">
        <ele>10</ele>
        <time>2010-02-07T12:44:38Z</time>
      </trkpt>
      <trkpt lat="43.64898" lon="7.14001">
        <ele>9</ele>
        <time>2010-02-07T12:44:45Z</time>
      </trkpt>
      <trkpt lat="43.64898" lon="7.14001">
        <ele>9</ele>
        <time>2010-02-07T12:44:53Z</time>
      </trkpt>
      <trkpt lat="43.64898" lon="7.14001">
        <ele>9</ele>
        <time>2010-02-07T12:44:57Z</time>
      </trkpt>
      <trkpt lat="43.64878" lon="7.1398">
        <ele>9</ele>
        <time>2010-02-07T12:45:01Z</time>
      </trkpt>
      <trkpt lat="43.6487" lon="7.13954">
        <ele>8</ele>
        <time>2010-02-07T12:45:05Z</time>
      </trkpt>
      <trkpt lat="43.64866" lon="7.13939">
        <ele>8</ele>
        <time>2010-02-07T12:45:12Z</time>
      </trkpt>
      <trkpt lat="43.64857" lon="7.13909">
        <ele>9</ele>
        <time>2010-02-07T12:45:20Z</time>
      </trkpt>
      <trkpt lat="43.64855" lon="7.13903">
        <ele>9</ele>
        <time>2010-02-07T12:45:26Z</time>
      </trkpt>
      <trkpt lat="43.64849" lon="7.1389">
        <ele>10</ele>
        <time>2010-02-07T12:45:30Z</time>
      </trkpt>
      <trkpt lat="43.64846" lon="7.13881">
        <ele>10</ele>
        <time>2010-02-07T12:45:38Z</time>
      </trkpt>
      <trkpt lat="43.64846" lon="7.13881">
        <ele>10</ele>
        <time>2010-02-07T12:45:42Z</time>
      </trkpt>
      <trkpt lat="43.64846" lon="7.13881">
        <ele>10</ele>
        <time>2010-02-07T12:45:46Z</time>
      </trkpt>
      <trkpt lat="43.6484" lon="7.13866">
        <ele>10</ele>
        <time>2010-02-07T12:45:50Z</time>
      </trkpt>
      <trkpt lat="43.64822" lon="7.13836">
        <ele>8</ele>
        <time>2010-02-07T12:46:06Z</time>
      </trkpt>
      <trkpt lat="43.64807" lon="7.13817">
        <ele>9</ele>
        <time>2010-02-07T12:46:20Z</time>
      </trkpt>
      <trkpt lat="43.64807" lon="7.13817">
        <ele>9</ele>
        <time>2010-02-07T12:46:24Z</time>
      </trkpt>
      <trkpt lat="43.64807" lon="7.13817">
        <ele>9</ele>
        <time>2010-02-07T12:46:28Z</time>
      </trkpt>
      <trkpt lat="43.64807" lon="7.13817">
        <ele>9</ele>
        <time>2010-02-07T12:46:33Z</time>
      </trkpt>
      <trkpt lat="43.64795" lon="7.13804">
        <ele>9</ele>
        <time>2010-02-07T12:46:38Z</time>
      </trkpt>
      <trkpt lat="43.64771" lon="7.13785">
        <ele>9</ele>
        <time>2010-02-07T12:46:52Z</time>
      </trkpt>
      <trkpt lat="43.64771" lon="7.13785">
        <ele>9</ele>
        <time>2010-02-07T12:46:56Z</time>
      </trkpt>
      <trkpt lat="43.64771" lon="7.13785">
        <ele>9</ele>
        <time>2010-02-07T12:47:00Z</time>
      </trkpt>
      <trkpt lat="43.64758" lon="7.13772">
        <ele>9</ele>
        <time>2010-02-07T12:47:05Z</time>
      </trkpt>
      <trkpt lat="43.64754" lon="7.1377">
        <ele>9</ele>
        <time>2010-02-07T12:47:14Z</time>
      </trkpt>
      <trkpt lat="43.64744" lon="7.13763">
        <ele>9</ele>
        <time>2010-02-07T12:47:18Z</time>
      </trkpt>
      <trkpt lat="43.64735" lon="7.13757">
        <ele>9</ele>
        <time>2010-02-07T12:47:27Z</time>
      </trkpt>
      <trkpt lat="43.64735" lon="7.13757">
        <ele>9</ele>
        <time>2010-02-07T12:47:31Z</time>
      </trkpt>
      <trkpt lat="43.64735" lon="7.13757">
        <ele>9</ele>
        <time>2010-02-07T12:47:35Z</time>
      </trkpt>
      <trkpt lat="43.64713" lon="7.13742">
        <ele>10</ele>
        <time>2010-02-07T12:47:39Z</time>
      </trkpt>
      <trkpt lat="43.64704" lon="7.13733">
        <ele>11</ele>
        <time>2010-02-07T12:47:47Z</time>
      </trkpt>
      <trkpt lat="43.64704" lon="7.13733">
        <ele>11</ele>
        <time>2010-02-07T12:47:51Z</time>
      </trkpt>
      <trkpt lat="43.64692" lon="7.13727">
        <ele>11</ele>
        <time>2010-02-07T12:47:57Z</time>
      </trkpt>
      <trkpt lat="43.64682" lon="7.13725">
        <ele>11</ele>
        <time>2010-02-07T12:48:08Z</time>
      </trkpt>
      <trkpt lat="43.64682" lon="7.13725">
        <ele>11</ele>
        <time>2010-02-07T12:48:12Z</time>
      </trkpt>
      <trkpt lat="43.64665" lon="7.13725">
        <ele>11</ele>
        <time>2010-02-07T12:48:16Z</time>
      </trkpt>
      <trkpt lat="43.64665" lon="7.13725">
        <ele>11</ele>
        <time>2010-02-07T12:48:24Z</time>
      </trkpt>
      <trkpt lat="43.64642" lon="7.1372">
        <ele>11</ele>
        <time>2010-02-07T12:48:28Z</time>
      </trkpt>
      <trkpt lat="43.64636" lon="7.1371">
        <ele>11</ele>
        <time>2010-02-07T12:48:35Z</time>
      </trkpt>
      <trkpt lat="43.64636" lon="7.1371">
        <ele>11</ele>
        <time>2010-02-07T12:48:40Z</time>
      </trkpt>
      <trkpt lat="43.64635" lon="7.13699">
        <ele>12</ele>
        <time>2010-02-07T12:48:46Z</time>
      </trkpt>
      <trkpt lat="43.64634" lon="7.13697">
        <ele>12</ele>
        <time>2010-02-07T12:48:53Z</time>
      </trkpt>
      <trkpt lat="43.64634" lon="7.13697">
        <ele>12</ele>
        <time>2010-02-07T12:48:57Z</time>
      </trkpt>
      <trkpt lat="43.64626" lon="7.13686">
        <ele>12</ele>
        <time>2010-02-07T12:49:01Z</time>
      </trkpt>
      <trkpt lat="43.6462" lon="7.13677">
        <ele>12</ele>
        <time>2010-02-07T12:49:03Z</time>
      </trkpt>
      <trkpt lat="43.64607" lon="7.1366">
        <ele>14</ele>
        <time>2010-02-07T12:49:13Z</time>
      </trkpt>
      <trkpt lat="43.64597" lon="7.13641">
        <ele>14</ele>
        <time>2010-02-07T12:49:21Z</time>
      </trkpt>
      <trkpt lat="43.64588" lon="7.13628">
        <ele>14</ele>
        <time>2010-02-07T12:49:31Z</time>
      </trkpt>
      <trkpt lat="43.64588" lon="7.13628">
        <ele>14</ele>
        <time>2010-02-07T12:49:35Z</time>
      </trkpt>
      <trkpt lat="43.64579" lon="7.13626">
        <ele>14</ele>
        <time>2010-02-07T12:49:40Z</time>
      </trkpt>
      <trkpt lat="43.6457" lon="7.13617">
        <ele>14</ele>
        <time>2010-02-07T12:49:47Z</time>
      </trkpt>
      <trkpt lat="43.64557" lon="7.13594">
        <ele>14</ele>
        <time>2010-02-07T12:49:59Z</time>
      </trkpt>
      <trkpt lat="43.64544" lon="7.13579">
        <ele>16</ele>
        <time>2010-02-07T12:50:12Z</time>
      </trkpt>
      <trkpt lat="43.64539" lon="7.13579">
        <ele>16</ele>
        <time>2010-02-07T12:50:16Z</time>
      </trkpt>
      <trkpt lat="43.64539" lon="7.13579">
        <ele>16</ele>
        <time>2010-02-07T12:50:25Z</time>
      </trkpt>
      <trkpt lat="43.64532" lon="7.13572">
        <ele>16</ele>
        <time>2010-02-07T12:50:29Z</time>
      </trkpt>
      <trkpt lat="43.64525" lon="7.13564">
        <ele>16</ele>
        <time>2010-02-07T12:50:38Z</time>
      </trkpt>
      <trkpt lat="43.64525" lon="7.13564">
        <ele>16</ele>
        <time>2010-02-07T12:50:42Z</time>
      </trkpt>
      <trkpt lat="43.64516" lon="7.13555">
        <ele>16</ele>
        <time>2010-02-07T12:50:47Z</time>
      </trkpt>
      <trkpt lat="43.64499" lon="7.13536">
        <ele>15</ele>
        <time>2010-02-07T12:50:59Z</time>
      </trkpt>
      <trkpt lat="43.64496" lon="7.13534">
        <ele>16</ele>
        <time>2010-02-07T12:51:05Z</time>
      </trkpt>
      <trkpt lat="43.64496" lon="7.13534">
        <ele>16</ele>
        <time>2010-02-07T12:51:09Z</time>
      </trkpt>
      <trkpt lat="43.64488" lon="7.13521">
        <ele>16</ele>
        <time>2010-02-07T12:51:13Z</time>
      </trkpt>
      <trkpt lat="43.64482" lon="7.1351">
        <ele>16</ele>
        <time>2010-02-07T12:51:24Z</time>
      </trkpt>
      <trkpt lat="43.64477" lon="7.13501">
        <ele>16</ele>
        <time>2010-02-07T12:51:28Z</time>
      </trkpt>
      <trkpt lat="43.64475" lon="7.13499">
        <ele>19</ele>
        <time>2010-02-07T12:51:36Z</time>
      </trkpt>
      <trkpt lat="43.6447" lon="7.13486">
        <ele>19</ele>
        <time>2010-02-07T12:51:40Z</time>
      </trkpt>
      <trkpt lat="43.64465" lon="7.13471">
        <ele>20</ele>
        <time>2010-02-07T12:51:49Z</time>
      </trkpt>
      <trkpt lat="43.64465" lon="7.13471">
        <ele>20</ele>
        <time>2010-02-07T12:51:53Z</time>
      </trkpt>
      <trkpt lat="43.64465" lon="7.13471">
        <ele>20</ele>
        <time>2010-02-07T12:51:57Z</time>
      </trkpt>
      <trkpt lat="43.64465" lon="7.13471">
        <ele>20</ele>
        <time>2010-02-07T12:52:01Z</time>
      </trkpt>
      <trkpt lat="43.64451" lon="7.13437">
        <ele>21</ele>
        <time>2010-02-07T12:52:08Z</time>
      </trkpt>
      <trkpt lat="43.64451" lon="7.13437">
        <ele>21</ele>
        <time>2010-02-07T12:52:12Z</time>
      </trkpt>
      <trkpt lat="43.64451" lon="7.13437">
        <ele>21</ele>
        <time>2010-02-07T12:52:16Z</time>
      </trkpt>
      <trkpt lat="43.6444" lon="7.13411">
        <ele>25</ele>
        <time>2010-02-07T12:52:21Z</time>
      </trkpt>
      <trkpt lat="43.64429" lon="7.1339">
        <ele>25</ele>
        <time>2010-02-07T12:52:34Z</time>
      </trkpt>
      <trkpt lat="43.64429" lon="7.1339">
        <ele>25</ele>
        <time>2010-02-07T12:52:38Z</time>
      </trkpt>
      <trkpt lat="43.64416" lon="7.13377">
        <ele>23</ele>
        <time>2010-02-07T12:52:42Z</time>
      </trkpt>
      <trkpt lat="43.64404" lon="7.1336">
        <ele>24</ele>
        <time>2010-02-07T12:52:54Z</time>
      </trkpt>
      <trkpt lat="43.64389" lon="7.13345">
        <ele>24</ele>
        <time>2010-02-07T12:53:06Z</time>
      </trkpt>
      <trkpt lat="43.64367" lon="7.13325">
        <ele>27</ele>
        <time>2010-02-07T12:53:21Z</time>
      </trkpt>
      <trkpt lat="43.64347" lon="7.13315">
        <ele>27</ele>
        <time>2010-02-07T12:53:33Z</time>
      </trkpt>
      <trkpt lat="43.64334" lon="7.13302">
        <ele>27</ele>
        <time>2010-02-07T12:53:40Z</time>
      </trkpt>
      <trkpt lat="43.64335" lon="7.13302">
        <ele>27</ele>
        <time>2010-02-07T12:53:43Z</time>
      </trkpt>
      <trkpt lat="43.64296" lon="7.13302">
        <ele>24</ele>
        <time>2010-02-07T12:54:09Z</time>
      </trkpt>
      <trkpt lat="43.64296" lon="7.13302">
        <ele>24</ele>
        <time>2010-02-07T12:54:12Z</time>
      </trkpt>
      <trkpt lat="43.64296" lon="7.13302">
        <ele>24</ele>
        <time>2010-02-07T12:54:16Z</time>
      </trkpt>
      <trkpt lat="43.64296" lon="7.13302">
        <ele>24</ele>
        <time>2010-02-07T12:54:21Z</time>
      </trkpt>
      <trkpt lat="43.64272" lon="7.13317">
        <ele>22</ele>
        <time>2010-02-07T12:54:26Z</time>
      </trkpt>
      <trkpt lat="43.64264" lon="7.13317">
        <ele>22</ele>
        <time>2010-02-07T12:54:30Z</time>
      </trkpt>
      <trkpt lat="43.64254" lon="7.13313">
        <ele>22</ele>
        <time>2010-02-07T12:54:36Z</time>
      </trkpt>
      <trkpt lat="43.64249" lon="7.13315">
        <ele>21</ele>
        <time>2010-02-07T12:54:40Z</time>
      </trkpt>
      <trkpt lat="43.64231" lon="7.13325">
        <ele>21</ele>
        <time>2010-02-07T12:54:50Z</time>
      </trkpt>
      <trkpt lat="43.64226" lon="7.13332">
        <ele>21</ele>
        <time>2010-02-07T12:54:58Z</time>
      </trkpt>
      <trkpt lat="43.64219" lon="7.13343">
        <ele>20</ele>
        <time>2010-02-07T12:55:02Z</time>
      </trkpt>
      <trkpt lat="43.64215" lon="7.13349">
        <ele>20</ele>
        <time>2010-02-07T12:55:09Z</time>
      </trkpt>
      <trkpt lat="43.64215" lon="7.13349">
        <ele>20</ele>
        <time>2010-02-07T12:55:15Z</time>
      </trkpt>
      <trkpt lat="43.64215" lon="7.13349">
        <ele>20</ele>
        <time>2010-02-07T12:55:18Z</time>
      </trkpt>
      <trkpt lat="43.64215" lon="7.13349">
        <ele>20</ele>
        <time>2010-02-07T12:55:22Z</time>
      </trkpt>
      <trkpt lat="43.64197" lon="7.1334">
        <ele>20</ele>
        <time>2010-02-07T12:55:29Z</time>
      </trkpt>
      <trkpt lat="43.64186" lon="7.13332">
        <ele>21</ele>
        <time>2010-02-07T12:55:33Z</time>
      </trkpt>
      <trkpt lat="43.64177" lon="7.13328">
        <ele>20</ele>
        <time>2010-02-07T12:55:41Z</time>
      </trkpt>
      <trkpt lat="43.64167" lon="7.13325">
        <ele>20</ele>
        <time>2010-02-07T12:55:45Z</time>
      </trkpt>
      <trkpt lat="43.6416" lon="7.13328">
        <ele>20</ele>
        <time>2010-02-07T12:55:51Z</time>
      </trkpt>
      <trkpt lat="43.64154" lon="7.13325">
        <ele>19</ele>
        <time>2010-02-07T12:55:55Z</time>
      </trkpt>
      <trkpt lat="43.64137" lon="7.13323">
        <ele>19</ele>
        <time>2010-02-07T12:56:05Z</time>
      </trkpt>
      <trkpt lat="43.64131" lon="7.13323">
        <ele>19</ele>
        <time>2010-02-07T12:56:13Z</time>
      </trkpt>
      <trkpt lat="43.64122" lon="7.13328">
        <ele>18</ele>
        <time>2010-02-07T12:56:20Z</time>
      </trkpt>
      <trkpt lat="43.6411" lon="7.1333">
        <ele>18</ele>
        <time>2010-02-07T12:56:28Z</time>
      </trkpt>
      <trkpt lat="43.6411" lon="7.1333">
        <ele>18</ele>
        <time>2010-02-07T12:56:32Z</time>
      </trkpt>
      <trkpt lat="43.64098" lon="7.13334">
        <ele>17</ele>
        <time>2010-02-07T12:56:36Z</time>
      </trkpt>
      <trkpt lat="43.64081" lon="7.13336">
        <ele>16</ele>
        <time>2010-02-07T12:56:49Z</time>
      </trkpt>
      <trkpt lat="43.64074" lon="7.13334">
        <ele>15</ele>
        <time>2010-02-07T12:56:53Z</time>
      </trkpt>
      <trkpt lat="43.64061" lon="7.13334">
        <ele>14</ele>
        <time>2010-02-07T12:56:59Z</time>
      </trkpt>
      <trkpt lat="43.64046" lon="7.13336">
        <ele>14</ele>
        <time>2010-02-07T12:57:10Z</time>
      </trkpt>
      <trkpt lat="43.64023" lon="7.1334">
        <ele>13</ele>
        <time>2010-02-07T12:57:26Z</time>
      </trkpt>
      <trkpt lat="43.63984" lon="7.13345">
        <ele>12</ele>
        <time>2010-02-07T12:57:55Z</time>
      </trkpt>
      <trkpt lat="43.63945" lon="7.13347">
        <ele>12</ele>
        <time>2010-02-07T12:58:20Z</time>
      </trkpt>
      <trkpt lat="43.63927" lon="7.13351">
        <ele>12</ele>
        <time>2010-02-07T12:58:31Z</time>
      </trkpt>
      <trkpt lat="43.63875" lon="7.13362">
        <ele>13</ele>
        <time>2010-02-07T12:59:08Z</time>
      </trkpt>
      <trkpt lat="43.6386" lon="7.13362">
        <ele>13</ele>
        <time>2010-02-07T12:59:17Z</time>
      </trkpt>
      <trkpt lat="43.63852" lon="7.13364">
        <ele>13</ele>
        <time>2010-02-07T12:59:28Z</time>
      </trkpt>
      <trkpt lat="43.63842" lon="7.13362">
        <ele>13</ele>
        <time>2010-02-07T12:59:32Z</time>
      </trkpt>
      <trkpt lat="43.63829" lon="7.13356">
        <ele>15</ele>
        <time>2010-02-07T12:59:40Z</time>
      </trkpt>
      <trkpt lat="43.63828" lon="7.13356">
        <ele>15</ele>
        <time>2010-02-07T12:59:43Z</time>
      </trkpt>
      <trkpt lat="43.63828" lon="7.13356">
        <ele>15</ele>
        <time>2010-02-07T12:59:45Z</time>
      </trkpt>
      <trkpt lat="43.63819" lon="7.13356">
        <ele>15</ele>
        <time>2010-02-07T12:59:48Z</time>
      </trkpt>
      <trkpt lat="43.63809" lon="7.13353">
        <ele>15</ele>
        <time>2010-02-07T12:59:55Z</time>
      </trkpt>
      <trkpt lat="43.6379" lon="7.13349">
        <ele>15</ele>
        <time>2010-02-07T13:00:09Z</time>
      </trkpt>
      <trkpt lat="43.63784" lon="7.13349">
        <ele>15</ele>
        <time>2010-02-07T13:00:11Z</time>
      </trkpt>
      <trkpt lat="43.63777" lon="7.13353">
        <ele>15</ele>
        <time>2010-02-07T13:00:17Z</time>
      </trkpt>
      <trkpt lat="43.63768" lon="7.1336">
        <ele>15</ele>
        <time>2010-02-07T13:00:28Z</time>
      </trkpt>
      <trkpt lat="43.63768" lon="7.1336">
        <ele>15</ele>
        <time>2010-02-07T13:00:33Z</time>
      </trkpt>
      <trkpt lat="43.63768" lon="7.1336">
        <ele>15</ele>
        <time>2010-02-07T13:00:38Z</time>
      </trkpt>
      <trkpt lat="43.63757" lon="7.13349">
        <ele>16</ele>
        <time>2010-02-07T13:00:42Z</time>
      </trkpt>
      <trkpt lat="43.63751" lon="7.13347">
        <ele>16</ele>
        <time>2010-02-07T13:00:49Z</time>
      </trkpt>
      <trkpt lat="43.63744" lon="7.13345">
        <ele>16</ele>
        <time>2010-02-07T13:01:01Z</time>
      </trkpt>
      <trkpt lat="43.63744" lon="7.13345">
        <ele>16</ele>
        <time>2010-02-07T13:01:07Z</time>
      </trkpt>
      <trkpt lat="43.63744" lon="7.13345">
        <ele>16</ele>
        <time>2010-02-07T13:01:12Z</time>
      </trkpt>
      <trkpt lat="43.63744" lon="7.13345">
        <ele>16</ele>
        <time>2010-02-07T13:01:25Z</time>
      </trkpt>
      <trkpt lat="43.63706" lon="7.13345">
        <ele>14</ele>
        <time>2010-02-07T13:01:32Z</time>
      </trkpt>
      <trkpt lat="43.63699" lon="7.13345">
        <ele>14</ele>
        <time>2010-02-07T13:01:36Z</time>
      </trkpt>
      <trkpt lat="43.63659" lon="7.13347">
        <ele>12</ele>
        <time>2010-02-07T13:02:02Z</time>
      </trkpt>
      <trkpt lat="43.63638" lon="7.1335">
        <ele>12</ele>
        <time>2010-02-07T13:02:18Z</time>
      </trkpt>
      <trkpt lat="43.63638" lon="7.1335">
        <ele>12</ele>
        <time>2010-02-07T13:02:19Z</time>
      </trkpt>
    </trkseg>
      <trkpt lat="43.63515" lon="7.13394">
        <ele>10</ele>
        <time>2010-02-07T13:02:19Z</time>
      </trkpt>
      <trkpt lat="43.63517" lon="7.13394">
        <ele>10</ele>
        <time>2010-02-07T13:02:22Z</time>
      </trkpt>
      <trkpt lat="43.63521" lon="7.13388">
        <ele>10</ele>
        <time>2010-02-07T13:02:26Z</time>
      </trkpt>
      <trkpt lat="43.63527" lon="7.13373">
        <ele>10</ele>
        <time>2010-02-07T13:02:38Z</time>
      </trkpt>
      <trkpt lat="43.63523" lon="7.13373">
        <ele>10</ele>
        <time>2010-02-07T13:02:42Z</time>
      </trkpt>
      <trkpt lat="43.63509" lon="7.13373">
        <ele>10</ele>
        <time>2010-02-07T13:02:54Z</time>
      </trkpt>
      <trkpt lat="43.63501" lon="7.13375">
        <ele>10</ele>
        <time>2010-02-07T13:02:59Z</time>
      </trkpt>
      <trkpt lat="43.63481" lon="7.13379">
        <ele>9</ele>
        <time>2010-02-07T13:03:12Z</time>
      </trkpt>
      <trkpt lat="43.63458" lon="7.13381">
        <ele>8</ele>
        <time>2010-02-07T13:03:29Z</time>
      </trkpt>
      <trkpt lat="43.63432" lon="7.13388">
        <ele>8</ele>
        <time>2010-02-07T13:03:47Z</time>
      </trkpt>
      <trkpt lat="43.6343" lon="7.1339">
        <ele>8</ele>
        <time>2010-02-07T13:03:53Z</time>
      </trkpt>
      <trkpt lat="43.63425" lon="7.13392">
        <ele>8</ele>
        <time>2010-02-07T13:03:56Z</time>
      </trkpt>
      <trkpt lat="43.63421" lon="7.13392">
        <ele>8</ele>
        <time>2010-02-07T13:03:58Z</time>
      </trkpt>
      <trkpt lat="43.63411" lon="7.13396">
        <ele>7</ele>
        <time>2010-02-07T13:04:04Z</time>
      </trkpt>
      <trkpt lat="43.63392" lon="7.13407">
        <ele>7</ele>
        <time>2010-02-07T13:04:16Z</time>
      </trkpt>
      <trkpt lat="43.6337" lon="7.13416">
        <ele>8</ele>
        <time>2010-02-07T13:04:32Z</time>
      </trkpt>
      <trkpt lat="43.63322" lon="7.13428">
        <ele>8</ele>
        <time>2010-02-07T13:05:11Z</time>
      </trkpt>
      <trkpt lat="43.63317" lon="7.13422">
        <ele>8</ele>
        <time>2010-02-07T13:05:15Z</time>
      </trkpt>
      <trkpt lat="43.6331" lon="7.13418">
        <ele>8</ele>
        <time>2010-02-07T13:05:20Z</time>
      </trkpt>
      <trkpt lat="43.63303" lon="7.13418">
        <ele>8</ele>
        <time>2010-02-07T13:05:25Z</time>
      </trkpt>
      <trkpt lat="43.63294" lon="7.13422">
        <ele>8</ele>
        <time>2010-02-07T13:05:32Z</time>
      </trkpt>
      <trkpt lat="43.63285" lon="7.13422">
        <ele>8</ele>
        <time>2010-02-07T13:05:38Z</time>
      </trkpt>
      <trkpt lat="43.63285" lon="7.13422">
        <ele>8</ele>
        <time>2010-02-07T13:05:42Z</time>
      </trkpt>
      <trkpt lat="43.63285" lon="7.13422">
        <ele>8</ele>
        <time>2010-02-07T13:05:44Z</time>
      </trkpt>
      <trkpt lat="43.6328" lon="7.13424">
        <ele>8</ele>
        <time>2010-02-07T13:05:47Z</time>
      </trkpt>
      <trkpt lat="43.63277" lon="7.13424">
        <ele>8</ele>
        <time>2010-02-07T13:05:49Z</time>
      </trkpt>
      <trkpt lat="43.63277" lon="7.13424">
        <ele>8</ele>
        <time>2010-02-07T13:05:58Z</time>
      </trkpt>
      <trkpt lat="43.63277" lon="7.13424">
        <ele>8</ele>
        <time>2010-02-07T13:06:00Z</time>
      </trkpt>
      <trkpt lat="43.63277" lon="7.13424">
        <ele>8</ele>
        <time>2010-02-07T13:06:21Z</time>
      </trkpt>
      <trkpt lat="43.6325" lon="7.13426">
        <ele>7</ele>
        <time>2010-02-07T13:06:26Z</time>
      </trkpt>
      <trkpt lat="43.6325" lon="7.13426">
        <ele>7</ele>
        <time>2010-02-07T13:06:33Z</time>
      </trkpt>
      <trkpt lat="43.63223" lon="7.13437">
        <ele>7</ele>
        <time>2010-02-07T13:06:37Z</time>
      </trkpt>
      <trkpt lat="43.63223" lon="7.13437">
        <ele>7</ele>
        <time>2010-02-07T13:06:46Z</time>
      </trkpt>
      <trkpt lat="43.63194" lon="7.13448">
        <ele>6</ele>
        <time>2010-02-07T13:06:52Z</time>
      </trkpt>
      <trkpt lat="43.63182" lon="7.13448">
        <ele>6</ele>
        <time>2010-02-07T13:07:00Z</time>
      </trkpt>
      <trkpt lat="43.63178" lon="7.13446">
        <ele>6</ele>
        <time>2010-02-07T13:07:11Z</time>
      </trkpt>
      <trkpt lat="43.63178" lon="7.13446">
        <ele>6</ele>
        <time>2010-02-07T13:07:13Z</time>
      </trkpt>
      <trkpt lat="43.63178" lon="7.13446">
        <ele>6</ele>
        <time>2010-02-07T13:07:17Z</time>
      </trkpt>
      <trkpt lat="43.6315" lon="7.13435">
        <ele>6</ele>
        <time>2010-02-07T13:07:21Z</time>
      </trkpt>
      <trkpt lat="43.63141" lon="7.13435">
        <ele>6</ele>
        <time>2010-02-07T13:07:26Z</time>
      </trkpt>
      <trkpt lat="43.63141" lon="7.13435">
        <ele>6</ele>
        <time>2010-02-07T13:07:31Z</time>
      </trkpt>
      <trkpt lat="43.63141" lon="7.13435">
        <ele>6</ele>
        <time>2010-02-07T13:07:33Z</time>
      </trkpt>
      <trkpt lat="43.63141" lon="7.13435">
        <ele>6</ele>
        <time>2010-02-07T13:07:38Z</time>
      </trkpt>
      <trkpt lat="43.6313" lon="7.13437">
        <ele>6</ele>
        <time>2010-02-07T13:07:42Z</time>
      </trkpt>
      <trkpt lat="43.6313" lon="7.13437">
        <ele>6</ele>
        <time>2010-02-07T13:07:50Z</time>
      </trkpt>
      <trkpt lat="43.6313" lon="7.13437">
        <ele>6</ele>
        <time>2010-02-07T13:07:54Z</time>
      </trkpt>
      <trkpt lat="43.6313" lon="7.13437">
        <ele>6</ele>
        <time>2010-02-07T13:07:59Z</time>
      </trkpt>
      <trkpt lat="43.63133" lon="7.13426">
        <ele>6</ele>
        <time>2010-02-07T13:08:03Z</time>
      </trkpt>
      <trkpt lat="43.63137" lon="7.13422">
        <ele>6</ele>
        <time>2010-02-07T13:08:14Z</time>
      </trkpt>
      <trkpt lat="43.63137" lon="7.13422">
        <ele>6</ele>
        <time>2010-02-07T13:08:20Z</time>
      </trkpt>
      <trkpt lat="43.63137" lon="7.13422">
        <ele>6</ele>
        <time>2010-02-07T13:08:24Z</time>
      </trkpt>
      <trkpt lat="43.63148" lon="7.13411">
        <ele>6</ele>
        <time>2010-02-07T13:08:28Z</time>
      </trkpt>
      <trkpt lat="43.63148" lon="7.13411">
        <ele>6</ele>
        <time>2010-02-07T13:08:37Z</time>
      </trkpt>
      <trkpt lat="43.63148" lon="7.13411">
        <ele>6</ele>
        <time>2010-02-07T13:08:42Z</time>
      </trkpt>
      <trkpt lat="43.63145" lon="7.13405">
        <ele>6</ele>
        <time>2010-02-07T13:08:47Z</time>
      </trkpt>
      <trkpt lat="43.63141" lon="7.13405">
        <ele>6</ele>
        <time>2010-02-07T13:08:51Z</time>
      </trkpt>
      <trkpt lat="43.63135" lon="7.13405">
        <ele>6</ele>
        <time>2010-02-07T13:08:53Z</time>
      </trkpt>
      <trkpt lat="43.63131" lon="7.13405">
        <ele>6</ele>
        <time>2010-02-07T13:09:02Z</time>
      </trkpt>
      <trkpt lat="43.63123" lon="7.13405">
        <ele>6</ele>
        <time>2010-02-07T13:09:04Z</time>
      </trkpt>
      <trkpt lat="43.63115" lon="7.13409">
        <ele>6</ele>
        <time>2010-02-07T13:09:11Z</time>
      </trkpt>
      <trkpt lat="43.63091" lon="7.1342">
        <ele>5</ele>
        <time>2010-02-07T13:09:28Z</time>
      </trkpt>
      <trkpt lat="43.63091" lon="7.1342">
        <ele>5</ele>
        <time>2010-02-07T13:09:30Z</time>
      </trkpt>
      <trkpt lat="43.63091" lon="7.1342">
        <ele>5</ele>
        <time>2010-02-07T13:09:35Z</time>
      </trkpt>
      <trkpt lat="43.63065" lon="7.13416">
        <ele>5</ele>
        <time>2010-02-07T13:09:41Z</time>
      </trkpt>
      <trkpt lat="43.63062" lon="7.13416">
        <ele>5</ele>
        <time>2010-02-07T13:09:45Z</time>
      </trkpt>
      <trkpt lat="43.63056" lon="7.13416">
        <ele>5</ele>
        <time>2010-02-07T13:09:47Z</time>
      </trkpt>
      <trkpt lat="43.63046" lon="7.13411">
        <ele>5</ele>
        <time>2010-02-07T13:09:55Z</time>
      </trkpt>
      <trkpt lat="43.63042" lon="7.13409">
        <ele>5</ele>
        <time>2010-02-07T13:10:01Z</time>
      </trkpt>
      <trkpt lat="43.63035" lon="7.13407">
        <ele>6</ele>
        <time>2010-02-07T13:10:06Z</time>
      </trkpt>
      <trkpt lat="43.63028" lon="7.13401">
        <ele>6</ele>
        <time>2010-02-07T13:10:12Z</time>
      </trkpt>
      <trkpt lat="43.63017" lon="7.13396">
        <ele>6</ele>
        <time>2010-02-07T13:10:20Z</time>
      </trkpt>
      <trkpt lat="43.62972" lon="7.13375">
        <ele>6</ele>
        <time>2010-02-07T13:10:54Z</time>
      </trkpt>
      <trkpt lat="43.62968" lon="7.13368">
        <ele>6</ele>
        <time>2010-02-07T13:10:58Z</time>
      </trkpt>
      <trkpt lat="43.62965" lon="7.13353">
        <ele>6</ele>
        <time>2010-02-07T13:11:05Z</time>
      </trkpt>
      <trkpt lat="43.62968" lon="7.13336">
        <ele>6</ele>
        <time>2010-02-07T13:11:12Z</time>
      </trkpt>
      <trkpt lat="43.62976" lon="7.13298">
        <ele>6</ele>
        <time>2010-02-07T13:11:32Z</time>
      </trkpt>
      <trkpt lat="43.62982" lon="7.13255">
        <ele>6</ele>
        <time>2010-02-07T13:11:55Z</time>
      </trkpt>
      <trkpt lat="43.62984" lon="7.13242">
        <ele>6</ele>
        <time>2010-02-07T13:12:05Z</time>
      </trkpt>
      <trkpt lat="43.62984" lon="7.13242">
        <ele>6</ele>
        <time>2010-02-07T13:12:10Z</time>
      </trkpt>
      <trkpt lat="43.62986" lon="7.13225">
        <ele>6</ele>
        <time>2010-02-07T13:12:15Z</time>
      </trkpt>
      <trkpt lat="43.62987" lon="7.1322">
        <ele>6</ele>
        <time>2010-02-07T13:12:17Z</time>
      </trkpt>
      <trkpt lat="43.62993" lon="7.13197">
        <ele>6</ele>
        <time>2010-02-07T13:12:29Z</time>
      </trkpt>
      <trkpt lat="43.63003" lon="7.13171">
        <ele>6</ele>
        <time>2010-02-07T13:12:45Z</time>
      </trkpt>
      <trkpt lat="43.63014" lon="7.13145">
        <ele>7</ele>
        <time>2010-02-07T13:12:57Z</time>
      </trkpt>
      <trkpt lat="43.63028" lon="7.13115">
        <ele>8</ele>
        <time>2010-02-07T13:13:14Z</time>
      </trkpt>
      <trkpt lat="43.63034" lon="7.13098">
        <ele>8</ele>
        <time>2010-02-07T13:13:27Z</time>
      </trkpt>
      <trkpt lat="43.63034" lon="7.13098">
        <ele>8</ele>
        <time>2010-02-07T13:13:29Z</time>
      </trkpt>
      <trkpt lat="43.63038" lon="7.13087">
        <ele>9</ele>
        <time>2010-02-07T13:13:33Z</time>
      </trkpt>
      <trkpt lat="43.63047" lon="7.13055">
        <ele>11</ele>
        <time>2010-02-07T13:13:51Z</time>
      </trkpt>
      <trkpt lat="43.63058" lon="7.13029">
        <ele>12</ele>
        <time>2010-02-07T13:14:07Z</time>
      </trkpt>
      <trkpt lat="43.63075" lon="7.12974">
        <ele>14</ele>
        <time>2010-02-07T13:14:41Z</time>
      </trkpt>
      <trkpt lat="43.63074" lon="7.12969">
        <ele>15</ele>
        <time>2010-02-07T13:14:47Z</time>
      </trkpt>
      <trkpt lat="43.63074" lon="7.12969">
        <ele>15</ele>
        <time>2010-02-07T13:14:52Z</time>
      </trkpt>
      <trkpt lat="43.63074" lon="7.12969">
        <ele>15</ele>
        <time>2010-02-07T13:14:57Z</time>
      </trkpt>
      <trkpt lat="43.63061" lon="7.1295">
        <ele>15</ele>
        <time>2010-02-07T13:15:02Z</time>
      </trkpt>
      <trkpt lat="43.63057" lon="7.1295">
        <ele>15</ele>
        <time>2010-02-07T13:15:06Z</time>
      </trkpt>
      <trkpt lat="43.63046" lon="7.12948">
        <ele>15</ele>
        <time>2010-02-07T13:15:14Z</time>
      </trkpt>
      <trkpt lat="43.63023" lon="7.12941">
        <ele>15</ele>
        <time>2010-02-07T13:15:30Z</time>
      </trkpt>
      <trkpt lat="43.63016" lon="7.12937">
        <ele>15</ele>
        <time>2010-02-07T13:15:41Z</time>
      </trkpt>
      <trkpt lat="43.63005" lon="7.12933">
        <ele>15</ele>
        <time>2010-02-07T13:15:43Z</time>
      </trkpt>
      <trkpt lat="43.63005" lon="7.12933">
        <ele>15</ele>
        <time>2010-02-07T13:15:50Z</time>
      </trkpt>
      <trkpt lat="43.62992" lon="7.12924">
        <ele>14</ele>
        <time>2010-02-07T13:15:54Z</time>
      </trkpt>
      <trkpt lat="43.62983" lon="7.12911">
        <ele>15</ele>
        <time>2010-02-07T13:16:02Z</time>
      </trkpt>
      <trkpt lat="43.62954" lon="7.12877">
        <ele>15</ele>
        <time>2010-02-07T13:16:30Z</time>
      </trkpt>
      <trkpt lat="43.62948" lon="7.12871">
        <ele>15</ele>
        <time>2010-02-07T13:16:32Z</time>
      </trkpt>
      <trkpt lat="43.62947" lon="7.12868">
        <ele>15</ele>
        <time>2010-02-07T13:16:37Z</time>
      </trkpt>
      <trkpt lat="43.62947" lon="7.12868">
        <ele>15</ele>
        <time>2010-02-07T13:16:41Z</time>
      </trkpt>
      <trkpt lat="43.62935" lon="7.12853">
        <ele>15</ele>
        <time>2010-02-07T13:16:46Z</time>
      </trkpt>
      <trkpt lat="43.62929" lon="7.12847">
        <ele>15</ele>
        <time>2010-02-07T13:16:48Z</time>
      </trkpt>
      <trkpt lat="43.6292" lon="7.12843">
        <ele>15</ele>
        <time>2010-02-07T13:16:52Z</time>
      </trkpt>
      <trkpt lat="43.62913" lon="7.12836">
        <ele>14</ele>
        <time>2010-02-07T13:17:03Z</time>
      </trkpt>
      <trkpt lat="43.62913" lon="7.12836">
        <ele>14</ele>
        <time>2010-02-07T13:17:07Z</time>
      </trkpt>
      <trkpt lat="43.62901" lon="7.12826">
        <ele>14</ele>
        <time>2010-02-07T13:17:11Z</time>
      </trkpt>
      <trkpt lat="43.62901" lon="7.12826">
        <ele>14</ele>
        <time>2010-02-07T13:17:17Z</time>
      </trkpt>
      <trkpt lat="43.62891" lon="7.12821">
        <ele>14</ele>
        <time>2010-02-07T13:17:21Z</time>
      </trkpt>
      <trkpt lat="43.62891" lon="7.12821">
        <ele>14</ele>
        <time>2010-02-07T13:17:29Z</time>
      </trkpt>
      <trkpt lat="43.62879" lon="7.12802">
        <ele>14</ele>
        <time>2010-02-07T13:17:33Z</time>
      </trkpt>
      <trkpt lat="43.62879" lon="7.12802">
        <ele>14</ele>
        <time>2010-02-07T13:17:43Z</time>
      </trkpt>
      <trkpt lat="43.62879" lon="7.12802">
        <ele>14</ele>
        <time>2010-02-07T13:17:47Z</time>
      </trkpt>
      <trkpt lat="43.62879" lon="7.12802">
        <ele>14</ele>
        <time>2010-02-07T13:17:51Z</time>
      </trkpt>
      <trkpt lat="43.6287" lon="7.12755">
        <ele>14</ele>
        <time>2010-02-07T13:17:57Z</time>
      </trkpt>
      <trkpt lat="43.6287" lon="7.12755">
        <ele>14</ele>
        <time>2010-02-07T13:18:01Z</time>
      </trkpt>
      <trkpt lat="43.62866" lon="7.1274">
        <ele>17</ele>
        <time>2010-02-07T13:18:04Z</time>
      </trkpt>
      <trkpt lat="43.62861" lon="7.12725">
        <ele>17</ele>
        <time>2010-02-07T13:18:15Z</time>
      </trkpt>
      <trkpt lat="43.62858" lon="7.1271">
        <ele>17</ele>
        <time>2010-02-07T13:18:19Z</time>
      </trkpt>
      <trkpt lat="43.62855" lon="7.12692">
        <ele>17</ele>
        <time>2010-02-07T13:18:28Z</time>
      </trkpt>
      <trkpt lat="43.62848" lon="7.12669">
        <ele>16</ele>
        <time>2010-02-07T13:18:45Z</time>
      </trkpt>
      <trkpt lat="43.62851" lon="7.12643">
        <ele>17</ele>
        <time>2010-02-07T13:18:50Z</time>
      </trkpt>
      <trkpt lat="43.62848" lon="7.12628">
        <ele>17</ele>
        <time>2010-02-07T13:18:57Z</time>
      </trkpt>
      <trkpt lat="43.6285" lon="7.12592">
        <ele>15</ele>
        <time>2010-02-07T13:19:15Z</time>
      </trkpt>
      <trkpt lat="43.62855" lon="7.12581">
        <ele>14</ele>
        <time>2010-02-07T13:19:23Z</time>
      </trkpt>
      <trkpt lat="43.62866" lon="7.12564">
        <ele>14</ele>
        <time>2010-02-07T13:19:39Z</time>
      </trkpt>
      <trkpt lat="43.6288" lon="7.12551">
        <ele>15</ele>
        <time>2010-02-07T13:19:48Z</time>
      </trkpt>
      <trkpt lat="43.62891" lon="7.12536">
        <ele>15</ele>
        <time>2010-02-07T13:20:00Z</time>
      </trkpt>
      <trkpt lat="43.62895" lon="7.12525">
        <ele>15</ele>
        <time>2010-02-07T13:20:07Z</time>
      </trkpt>
      <trkpt lat="43.62904" lon="7.12478">
        <ele>13</ele>
        <time>2010-02-07T13:20:39Z</time>
      </trkpt>
      <trkpt lat="43.62904" lon="7.12478">
        <ele>13</ele>
        <time>2010-02-07T13:20:43Z</time>
      </trkpt>
      <trkpt lat="43.62904" lon="7.12478">
        <ele>13</ele>
        <time>2010-02-07T13:20:47Z</time>
      </trkpt>
      <trkpt lat="43.62904" lon="7.12478">
        <ele>13</ele>
        <time>2010-02-07T13:20:51Z</time>
      </trkpt>
      <trkpt lat="43.62909" lon="7.12433">
        <ele>12</ele>
        <time>2010-02-07T13:20:57Z</time>
      </trkpt>
      <trkpt lat="43.62909" lon="7.12433">
        <ele>12</ele>
        <time>2010-02-07T13:21:02Z</time>
      </trkpt>
      <trkpt lat="43.62909" lon="7.12433">
        <ele>12</ele>
        <time>2010-02-07T13:21:06Z</time>
      </trkpt>
      <trkpt lat="43.62909" lon="7.12433">
        <ele>12</ele>
        <time>2010-02-07T13:21:10Z</time>
      </trkpt>
      <trkpt lat="43.62913" lon="7.12409">
        <ele>12</ele>
        <time>2010-02-07T13:21:17Z</time>
      </trkpt>
      <trkpt lat="43.62923" lon="7.12371">
        <ele>17</ele>
        <time>2010-02-07T13:21:32Z</time>
      </trkpt>
      <trkpt lat="43.62923" lon="7.12371">
        <ele>17</ele>
        <time>2010-02-07T13:21:36Z</time>
      </trkpt>
      <trkpt lat="43.62928" lon="7.12358">
        <ele>17</ele>
        <time>2010-02-07T13:21:40Z</time>
      </trkpt>
      <trkpt lat="43.62933" lon="7.12343">
        <ele>16</ele>
        <time>2010-02-07T13:21:46Z</time>
      </trkpt>
      <trkpt lat="43.62933" lon="7.12343">
        <ele>16</ele>
        <time>2010-02-07T13:21:52Z</time>
      </trkpt>
      <trkpt lat="43.62933" lon="7.12343">
        <ele>16</ele>
        <time>2010-02-07T13:21:54Z</time>
      </trkpt>
      <trkpt lat="43.62933" lon="7.12343">
        <ele>16</ele>
        <time>2010-02-07T13:22:00Z</time>
      </trkpt>
      <trkpt lat="43.62946" lon="7.12308">
        <ele>17</ele>
        <time>2010-02-07T13:22:07Z</time>
      </trkpt>
      <trkpt lat="43.62946" lon="7.12308">
        <ele>17</ele>
        <time>2010-02-07T13:22:11Z</time>
      </trkpt>
      <trkpt lat="43.62954" lon="7.12298">
        <ele>18</ele>
        <time>2010-02-07T13:22:16Z</time>
      </trkpt>
      <trkpt lat="43.62955" lon="7.12285">
        <ele>18</ele>
        <time>2010-02-07T13:22:22Z</time>
      </trkpt>
      <trkpt lat="43.62953" lon="7.12248">
        <ele>17</ele>
        <time>2010-02-07T13:22:39Z</time>
      </trkpt>
      <trkpt lat="43.62953" lon="7.12214">
        <ele>17</ele>
        <time>2010-02-07T13:22:52Z</time>
      </trkpt>
      <trkpt lat="43.62957" lon="7.12188">
        <ele>17</ele>
        <time>2010-02-07T13:23:05Z</time>
      </trkpt>
      <trkpt lat="43.62965" lon="7.12154">
        <ele>18</ele>
        <time>2010-02-07T13:23:20Z</time>
      </trkpt>
      <trkpt lat="43.62967" lon="7.12137">
        <ele>18</ele>
        <time>2010-02-07T13:23:32Z</time>
      </trkpt>
      <trkpt lat="43.62965" lon="7.12132">
        <ele>17</ele>
        <time>2010-02-07T13:23:39Z</time>
      </trkpt>
      <trkpt lat="43.62962" lon="7.12117">
        <ele>17</ele>
        <time>2010-02-07T13:23:43Z</time>
      </trkpt>
      <trkpt lat="43.62953" lon="7.12102">
        <ele>17</ele>
        <time>2010-02-07T13:23:53Z</time>
      </trkpt>
      <trkpt lat="43.62936" lon="7.12079">
        <ele>17</ele>
        <time>2010-02-07T13:24:09Z</time>
      </trkpt>
      <trkpt lat="43.62936" lon="7.12079">
        <ele>17</ele>
        <time>2010-02-07T13:24:13Z</time>
      </trkpt>
      <trkpt lat="43.6293" lon="7.12066">
        <ele>17</ele>
        <time>2010-02-07T13:24:16Z</time>
      </trkpt>
      <trkpt lat="43.62917" lon="7.12049">
        <ele>17</ele>
        <time>2010-02-07T13:24:29Z</time>
      </trkpt>
      <trkpt lat="43.62906" lon="7.12036">
        <ele>19</ele>
        <time>2010-02-07T13:24:43Z</time>
      </trkpt>
      <trkpt lat="43.62898" lon="7.12019">
        <ele>19</ele>
        <time>2010-02-07T13:24:47Z</time>
      </trkpt>
      <trkpt lat="43.62888" lon="7.1201">
        <ele>20</ele>
        <time>2010-02-07T13:24:53Z</time>
      </trkpt>
      <trkpt lat="43.62873" lon="7.11997">
        <ele>23</ele>
        <time>2010-02-07T13:25:06Z</time>
      </trkpt>
      <trkpt lat="43.6286" lon="7.11978">
        <ele>24</ele>
        <time>2010-02-07T13:25:20Z</time>
      </trkpt>
      <trkpt lat="43.62848" lon="7.11959">
        <ele>24</ele>
        <time>2010-02-07T13:25:37Z</time>
      </trkpt>
      <trkpt lat="43.62848" lon="7.11959">
        <ele>24</ele>
        <time>2010-02-07T13:25:41Z</time>
      </trkpt>
      <trkpt lat="43.62844" lon="7.11946">
        <ele>24</ele>
        <time>2010-02-07T13:25:46Z</time>
      </trkpt>
      <trkpt lat="43.62844" lon="7.11946">
        <ele>24</ele>
        <time>2010-02-07T13:25:54Z</time>
      </trkpt>
      <trkpt lat="43.6283" lon="7.11924">
        <ele>28</ele>
        <time>2010-02-07T13:25:59Z</time>
      </trkpt>
      <trkpt lat="43.62827" lon="7.11911">
        <ele>28</ele>
        <time>2010-02-07T13:26:06Z</time>
      </trkpt>
      <trkpt lat="43.62816" lon="7.11884">
        <ele>30</ele>
        <time>2010-02-07T13:26:18Z</time>
      </trkpt>
      <trkpt lat="43.62808" lon="7.11856">
        <ele>30</ele>
        <time>2010-02-07T13:26:33Z</time>
      </trkpt>
      <trkpt lat="43.62805" lon="7.11843">
        <ele>30</ele>
        <time>2010-02-07T13:26:44Z</time>
      </trkpt>
      <trkpt lat="43.62805" lon="7.11843">
        <ele>30</ele>
        <time>2010-02-07T13:26:49Z</time>
      </trkpt>
      <trkpt lat="43.62801" lon="7.11823">
        <ele>31</ele>
        <time>2010-02-07T13:26:53Z</time>
      </trkpt>
      <trkpt lat="43.62798" lon="7.11806">
        <ele>32</ele>
        <time>2010-02-07T13:27:06Z</time>
      </trkpt>
      <trkpt lat="43.62798" lon="7.11806">
        <ele>32</ele>
        <time>2010-02-07T13:27:11Z</time>
      </trkpt>
      <trkpt lat="43.62794" lon="7.11798">
        <ele>32</ele>
        <time>2010-02-07T13:27:15Z</time>
      </trkpt>
      <trkpt lat="43.62794" lon="7.11793">
        <ele>32</ele>
        <time>2010-02-07T13:27:17Z</time>
      </trkpt>
      <trkpt lat="43.62791" lon="7.11783">
        <ele>32</ele>
        <time>2010-02-07T13:27:27Z</time>
      </trkpt>
      <trkpt lat="43.62783" lon="7.1177">
        <ele>33</ele>
        <time>2010-02-07T13:27:32Z</time>
      </trkpt>
      <trkpt lat="43.62781" lon="7.11757">
        <ele>33</ele>
        <time>2010-02-07T13:27:41Z</time>
      </trkpt>
      <trkpt lat="43.62779" lon="7.11744">
        <ele>35</ele>
        <time>2010-02-07T13:27:45Z</time>
      </trkpt>
      <trkpt lat="43.62777" lon="7.11725">
        <ele>35</ele>
        <time>2010-02-07T13:27:58Z</time>
      </trkpt>
      <trkpt lat="43.62777" lon="7.11725">
        <ele>35</ele>
        <time>2010-02-07T13:28:03Z</time>
      </trkpt>
      <trkpt lat="43.62762" lon="7.11712">
        <ele>35</ele>
        <time>2010-02-07T13:28:09Z</time>
      </trkpt>
      <trkpt lat="43.62746" lon="7.11697">
        <ele>35</ele>
        <time>2010-02-07T13:28:22Z</time>
      </trkpt>
      <trkpt lat="43.6274" lon="7.11686">
        <ele>35</ele>
        <time>2010-02-07T13:28:30Z</time>
      </trkpt>
      <trkpt lat="43.62737" lon="7.11675">
        <ele>35</ele>
        <time>2010-02-07T13:28:41Z</time>
      </trkpt>
      <trkpt lat="43.62737" lon="7.11675">
        <ele>35</ele>
        <time>2010-02-07T13:28:45Z</time>
      </trkpt>
      <trkpt lat="43.62737" lon="7.11675">
        <ele>35</ele>
        <time>2010-02-07T13:28:49Z</time>
      </trkpt>
      <trkpt lat="43.62737" lon="7.11675">
        <ele>35</ele>
        <time>2010-02-07T13:29:22Z</time>
      </trkpt>
      <trkpt lat="43.62746" lon="7.11639">
        <ele>35</ele>
        <time>2010-02-07T13:29:24Z</time>
      </trkpt>
      <trkpt lat="43.62746" lon="7.11639">
        <ele>35</ele>
        <time>2010-02-07T13:29:35Z</time>
      </trkpt>
      <trkpt lat="43.62746" lon="7.11639">
        <ele>35</ele>
        <time>2010-02-07T13:29:40Z</time>
      </trkpt>
      <trkpt lat="43.62746" lon="7.11639">
        <ele>35</ele>
        <time>2010-02-07T13:29:44Z</time>
      </trkpt>
      <trkpt lat="43.62746" lon="7.11639">
        <ele>35</ele>
        <time>2010-02-07T13:29:52Z</time>
      </trkpt>
      <trkpt lat="43.62749" lon="7.11602">
        <ele>36</ele>
        <time>2010-02-07T13:29:57Z</time>
      </trkpt>
      <trkpt lat="43.62749" lon="7.11602">
        <ele>36</ele>
        <time>2010-02-07T13:30:05Z</time>
      </trkpt>
      <trkpt lat="43.62742" lon="7.11564">
        <ele>36</ele>
        <time>2010-02-07T13:30:10Z</time>
      </trkpt>
      <trkpt lat="43.62733" lon="7.11542">
        <ele>36</ele>
        <time>2010-02-07T13:30:16Z</time>
      </trkpt>
      <trkpt lat="43.62723" lon="7.11521">
        <ele>36</ele>
        <time>2010-02-07T13:30:27Z</time>
      </trkpt>
      <trkpt lat="43.62711" lon="7.11489">
        <ele>37</ele>
        <time>2010-02-07T13:30:44Z</time>
      </trkpt>
      <trkpt lat="43.62698" lon="7.11469">
        <ele>37</ele>
        <time>2010-02-07T13:30:56Z</time>
      </trkpt>
      <trkpt lat="43.62691" lon="7.11465">
        <ele>37</ele>
        <time>2010-02-07T13:31:03Z</time>
      </trkpt>
      <trkpt lat="43.62673" lon="7.11454">
        <ele>37</ele>
        <time>2010-02-07T13:31:18Z</time>
      </trkpt>
      <trkpt lat="43.62658" lon="7.1145">
        <ele>34</ele>
        <time>2010-02-07T13:31:33Z</time>
      </trkpt>
      <trkpt lat="43.62654" lon="7.11448">
        <ele>34</ele>
        <time>2010-02-07T13:31:41Z</time>
      </trkpt>
      <trkpt lat="43.62639" lon="7.11439">
        <ele>34</ele>
        <time>2010-02-07T13:31:45Z</time>
      </trkpt>
      <trkpt lat="43.62635" lon="7.11433">
        <ele>34</ele>
        <time>2010-02-07T13:31:47Z</time>
      </trkpt>
      <trkpt lat="43.62624" lon="7.1142">
        <ele>34</ele>
        <time>2010-02-07T13:31:55Z</time>
      </trkpt>
      <trkpt lat="43.62621" lon="7.11418">
        <ele>34</ele>
        <time>2010-02-07T13:32:02Z</time>
      </trkpt>
      <trkpt lat="43.62621" lon="7.11418">
        <ele>34</ele>
        <time>2010-02-07T13:32:06Z</time>
      </trkpt>
      <trkpt lat="43.62607" lon="7.11409">
        <ele>37</ele>
        <time>2010-02-07T13:32:11Z</time>
      </trkpt>
      <trkpt lat="43.62603" lon="7.11405">
        <ele>36</ele>
        <time>2010-02-07T13:32:13Z</time>
      </trkpt>
      <trkpt lat="43.62592" lon="7.11388">
        <ele>37</ele>
        <time>2010-02-07T13:32:21Z</time>
      </trkpt>
      <trkpt lat="43.62586" lon="7.11369">
        <ele>38</ele>
        <time>2010-02-07T13:32:32Z</time>
      </trkpt>
      <trkpt lat="43.62577" lon="7.11356">
        <ele>36</ele>
        <time>2010-02-07T13:32:42Z</time>
      </trkpt>
      <trkpt lat="43.62573" lon="7.11347">
        <ele>36</ele>
        <time>2010-02-07T13:32:53Z</time>
      </trkpt>
      <trkpt lat="43.62562" lon="7.11334">
        <ele>36</ele>
        <time>2010-02-07T13:32:57Z</time>
      </trkpt>
      <trkpt lat="43.62555" lon="7.1133">
        <ele>38</ele>
        <time>2010-02-07T13:33:01Z</time>
      </trkpt>
      <trkpt lat="43.62551" lon="7.11326">
        <ele>38</ele>
        <time>2010-02-07T13:33:08Z</time>
      </trkpt>
      <trkpt lat="43.62551" lon="7.11326">
        <ele>38</ele>
        <time>2010-02-07T13:33:13Z</time>
      </trkpt>
      <trkpt lat="43.62537" lon="7.11319">
        <ele>38</ele>
        <time>2010-02-07T13:33:18Z</time>
      </trkpt>
      <trkpt lat="43.62518" lon="7.11306">
        <ele>38</ele>
        <time>2010-02-07T13:33:33Z</time>
      </trkpt>
      <trkpt lat="43.62507" lon="7.11296">
        <ele>38</ele>
        <time>2010-02-07T13:33:46Z</time>
      </trkpt>
      <trkpt lat="43.62499" lon="7.11283">
        <ele>36</ele>
        <time>2010-02-07T13:33:50Z</time>
      </trkpt>
      <trkpt lat="43.62488" lon="7.11272">
        <ele>37</ele>
        <time>2010-02-07T13:33:58Z</time>
      </trkpt>
      <trkpt lat="43.62477" lon="7.11266">
        <ele>37</ele>
        <time>2010-02-07T13:34:08Z</time>
      </trkpt>
      <trkpt lat="43.62467" lon="7.11255">
        <ele>37</ele>
        <time>2010-02-07T13:34:16Z</time>
      </trkpt>
      <trkpt lat="43.62463" lon="7.11251">
        <ele>36</ele>
        <time>2010-02-07T13:34:26Z</time>
      </trkpt>
      <trkpt lat="43.62463" lon="7.11251">
        <ele>36</ele>
        <time>2010-02-07T13:34:30Z</time>
      </trkpt>
      <trkpt lat="43.62463" lon="7.11251">
        <ele>36</ele>
        <time>2010-02-07T13:34:32Z</time>
      </trkpt>
      <trkpt lat="43.62448" lon="7.1124">
        <ele>39</ele>
        <time>2010-02-07T13:34:36Z</time>
      </trkpt>
      <trkpt lat="43.62448" lon="7.1124">
        <ele>39</ele>
        <time>2010-02-07T13:34:45Z</time>
      </trkpt>
      <trkpt lat="43.62448" lon="7.1124">
        <ele>39</ele>
        <time>2010-02-07T13:34:50Z</time>
      </trkpt>
      <trkpt lat="43.62433" lon="7.11251">
        <ele>36</ele>
        <time>2010-02-07T13:34:56Z</time>
      </trkpt>
      <trkpt lat="43.62428" lon="7.11259">
        <ele>36</ele>
        <time>2010-02-07T13:35:01Z</time>
      </trkpt>
      <trkpt lat="43.62416" lon="7.11281">
        <ele>33</ele>
        <time>2010-02-07T13:35:15Z</time>
      </trkpt>
      <trkpt lat="43.62405" lon="7.113">
        <ele>33</ele>
        <time>2010-02-07T13:35:31Z</time>
      </trkpt>
      <trkpt lat="43.62399" lon="7.11298">
        <ele>33</ele>
        <time>2010-02-07T13:35:35Z</time>
      </trkpt>
      <trkpt lat="43.62397" lon="7.11296">
        <ele>33</ele>
        <time>2010-02-07T13:35:42Z</time>
      </trkpt>
      <trkpt lat="43.62393" lon="7.11291">
        <ele>33</ele>
        <time>2010-02-07T13:35:44Z</time>
      </trkpt>
      <trkpt lat="43.62389" lon="7.11291">
        <ele>33</ele>
        <time>2010-02-07T13:35:52Z</time>
      </trkpt>
      <trkpt lat="43.62378" lon="7.11287">
        <ele>33</ele>
        <time>2010-02-07T13:35:57Z</time>
      </trkpt>
      <trkpt lat="43.62378" lon="7.11287">
        <ele>33</ele>
        <time>2010-02-07T13:36:03Z</time>
      </trkpt>
      <trkpt lat="43.62378" lon="7.11287">
        <ele>33</ele>
        <time>2010-02-07T13:36:08Z</time>
      </trkpt>
      <trkpt lat="43.62378" lon="7.11287">
        <ele>33</ele>
        <time>2010-02-07T13:36:15Z</time>
      </trkpt>
      <trkpt lat="43.6236" lon="7.11289">
        <ele>32</ele>
        <time>2010-02-07T13:36:19Z</time>
      </trkpt>
      <trkpt lat="43.62336" lon="7.11289">
        <ele>32</ele>
        <time>2010-02-07T13:36:32Z</time>
      </trkpt>
      <trkpt lat="43.62321" lon="7.11291">
        <ele>31</ele>
        <time>2010-02-07T13:36:43Z</time>
      </trkpt>
      <trkpt lat="43.623" lon="7.11296">
        <ele>30</ele>
        <time>2010-02-07T13:36:55Z</time>
      </trkpt>
      <trkpt lat="43.62284" lon="7.113">
        <ele>30</ele>
        <time>2010-02-07T13:37:09Z</time>
      </trkpt>
      <trkpt lat="43.62278" lon="7.113">
        <ele>30</ele>
        <time>2010-02-07T13:37:12Z</time>
      </trkpt>
      <trkpt lat="43.62266" lon="7.113">
        <ele>30</ele>
        <time>2010-02-07T13:37:25Z</time>
      </trkpt>
      <trkpt lat="43.62266" lon="7.113">
        <ele>30</ele>
        <time>2010-02-07T13:37:29Z</time>
      </trkpt>
      <trkpt lat="43.62266" lon="7.113">
        <ele>30</ele>
        <time>2010-02-07T13:37:31Z</time>
      </trkpt>
      <trkpt lat="43.62266" lon="7.113">
        <ele>30</ele>
        <time>2010-02-07T13:37:45Z</time>
      </trkpt>
      <trkpt lat="43.62237" lon="7.11298">
        <ele>29</ele>
        <time>2010-02-07T13:37:50Z</time>
      </trkpt>
      <trkpt lat="43.62219" lon="7.11296">
        <ele>28</ele>
        <time>2010-02-07T13:38:01Z</time>
      </trkpt>
      <trkpt lat="43.62219" lon="7.11296">
        <ele>28</ele>
        <time>2010-02-07T13:38:03Z</time>
      </trkpt>
      <trkpt lat="43.62213" lon="7.11287">
        <ele>28</ele>
        <time>2010-02-07T13:38:11Z</time>
      </trkpt>
      <trkpt lat="43.62212" lon="7.11281">
        <ele>28</ele>
        <time>2010-02-07T13:38:23Z</time>
      </trkpt>
      <trkpt lat="43.62212" lon="7.11281">
        <ele>28</ele>
        <time>2010-02-07T13:38:30Z</time>
      </trkpt>
      <trkpt lat="43.62212" lon="7.11281">
        <ele>28</ele>
        <time>2010-02-07T13:38:32Z</time>
      </trkpt>
      <trkpt lat="43.62212" lon="7.11281">
        <ele>28</ele>
        <time>2010-02-07T13:38:45Z</time>
      </trkpt>
      <trkpt lat="43.62185" lon="7.11268">
        <ele>27</ele>
        <time>2010-02-07T13:38:52Z</time>
      </trkpt>
      <trkpt lat="43.62173" lon="7.11274">
        <ele>27</ele>
        <time>2010-02-07T13:38:57Z</time>
      </trkpt>
      <trkpt lat="43.62173" lon="7.11274">
        <ele>27</ele>
        <time>2010-02-07T13:39:05Z</time>
      </trkpt>
      <trkpt lat="43.6215" lon="7.11276">
        <ele>23</ele>
        <time>2010-02-07T13:39:10Z</time>
      </trkpt>
      <trkpt lat="43.62139" lon="7.11274">
        <ele>23</ele>
        <time>2010-02-07T13:39:16Z</time>
      </trkpt>
      <trkpt lat="43.62129" lon="7.11268">
        <ele>22</ele>
        <time>2010-02-07T13:39:23Z</time>
      </trkpt>
      <trkpt lat="43.62118" lon="7.11261">
        <ele>21</ele>
        <time>2010-02-07T13:39:35Z</time>
      </trkpt>
      <trkpt lat="43.62109" lon="7.11255">
        <ele>21</ele>
        <time>2010-02-07T13:39:40Z</time>
      </trkpt>
      <trkpt lat="43.62104" lon="7.11251">
        <ele>20</ele>
        <time>2010-02-07T13:39:48Z</time>
      </trkpt>
      <trkpt lat="43.62094" lon="7.11242">
        <ele>18</ele>
        <time>2010-02-07T13:39:52Z</time>
      </trkpt>
      <trkpt lat="43.62081" lon="7.11233">
        <ele>16</ele>
        <time>2010-02-07T13:40:03Z</time>
      </trkpt>
      <trkpt lat="43.62081" lon="7.11233">
        <ele>16</ele>
        <time>2010-02-07T13:40:07Z</time>
      </trkpt>
      <trkpt lat="43.62081" lon="7.11233">
        <ele>16</ele>
        <time>2010-02-07T13:40:10Z</time>
      </trkpt>
      <trkpt lat="43.62071" lon="7.11227">
        <ele>15</ele>
        <time>2010-02-07T13:40:14Z</time>
      </trkpt>
      <trkpt lat="43.62064" lon="7.11223">
        <ele>15</ele>
        <time>2010-02-07T13:40:23Z</time>
      </trkpt>
      <trkpt lat="43.62053" lon="7.11216">
        <ele>14</ele>
        <time>2010-02-07T13:40:27Z</time>
      </trkpt>
      <trkpt lat="43.62053" lon="7.11216">
        <ele>14</ele>
        <time>2010-02-07T13:40:37Z</time>
      </trkpt>
      <trkpt lat="43.62053" lon="7.11216">
        <ele>14</ele>
        <time>2010-02-07T13:40:39Z</time>
      </trkpt>
      <trkpt lat="43.62029" lon="7.11201">
        <ele>14</ele>
        <time>2010-02-07T13:40:44Z</time>
      </trkpt>
      <trkpt lat="43.6202" lon="7.11193">
        <ele>13</ele>
        <time>2010-02-07T13:40:50Z</time>
      </trkpt>
      <trkpt lat="43.6202" lon="7.11193">
        <ele>13</ele>
        <time>2010-02-07T13:40:58Z</time>
      </trkpt>
      <trkpt lat="43.62007" lon="7.11173">
        <ele>11</ele>
        <time>2010-02-07T13:41:02Z</time>
      </trkpt>
      <trkpt lat="43.61998" lon="7.11152">
        <ele>10</ele>
        <time>2010-02-07T13:41:13Z</time>
      </trkpt>
      <trkpt lat="43.61985" lon="7.11122">
        <ele>10</ele>
        <time>2010-02-07T13:41:30Z</time>
      </trkpt>
      <trkpt lat="43.61978" lon="7.11094">
        <ele>10</ele>
        <time>2010-02-07T13:41:43Z</time>
      </trkpt>
      <trkpt lat="43.61969" lon="7.1107">
        <ele>10</ele>
        <time>2010-02-07T13:41:58Z</time>
      </trkpt>
      <trkpt lat="43.61966" lon="7.11064">
        <ele>10</ele>
        <time>2010-02-07T13:42:06Z</time>
      </trkpt>
      <trkpt lat="43.61957" lon="7.11055">
        <ele>10</ele>
        <time>2010-02-07T13:42:10Z</time>
      </trkpt>
      <trkpt lat="43.61948" lon="7.11045">
        <ele>10</ele>
        <time>2010-02-07T13:42:19Z</time>
      </trkpt>
      <trkpt lat="43.61939" lon="7.11036">
        <ele>10</ele>
        <time>2010-02-07T13:42:23Z</time>
      </trkpt>
      <trkpt lat="43.61929" lon="7.11032">
        <ele>10</ele>
        <time>2010-02-07T13:42:32Z</time>
      </trkpt>
      <trkpt lat="43.61922" lon="7.11034">
        <ele>10</ele>
        <time>2010-02-07T13:42:39Z</time>
      </trkpt>
      <trkpt lat="43.61901" lon="7.1104">
        <ele>10</ele>
        <time>2010-02-07T13:42:55Z</time>
      </trkpt>
      <trkpt lat="43.61886" lon="7.11049">
        <ele>10</ele>
        <time>2010-02-07T13:43:11Z</time>
      </trkpt>
      <trkpt lat="43.61886" lon="7.11049">
        <ele>10</ele>
        <time>2010-02-07T13:43:15Z</time>
      </trkpt>
      <trkpt lat="43.61886" lon="7.11049">
        <ele>10</ele>
        <time>2010-02-07T13:43:17Z</time>
      </trkpt>
      <trkpt lat="43.61886" lon="7.11049">
        <ele>10</ele>
        <time>2010-02-07T13:43:40Z</time>
      </trkpt>
      <trkpt lat="43.61857" lon="7.11055">
        <ele>10</ele>
        <time>2010-02-07T13:43:45Z</time>
      </trkpt>
      <trkpt lat="43.61857" lon="7.11055">
        <ele>10</ele>
        <time>2010-02-07T13:43:52Z</time>
      </trkpt>
      <trkpt lat="43.61859" lon="7.11072">
        <ele>10</ele>
        <time>2010-02-07T13:43:57Z</time>
      </trkpt>
      <trkpt lat="43.61861" lon="7.11081">
        <ele>10</ele>
        <time>2010-02-07T13:44:04Z</time>
      </trkpt>
      <trkpt lat="43.61859" lon="7.1109">
        <ele>10</ele>
        <time>2010-02-07T13:44:12Z</time>
      </trkpt>
      <trkpt lat="43.61858" lon="7.11092">
        <ele>10</ele>
        <time>2010-02-07T13:44:18Z</time>
      </trkpt>
      <trkpt lat="43.61855" lon="7.111">
        <ele>10</ele>
        <time>2010-02-07T13:44:22Z</time>
      </trkpt>
      <trkpt lat="43.6184" lon="7.1113">
        <ele>9</ele>
        <time>2010-02-07T13:44:34Z</time>
      </trkpt>
      <trkpt lat="43.61827" lon="7.11148">
        <ele>9</ele>
        <time>2010-02-07T13:44:46Z</time>
      </trkpt>
      <trkpt lat="43.61815" lon="7.1116">
        <ele>9</ele>
        <time>2010-02-07T13:45:00Z</time>
      </trkpt>
      <trkpt lat="43.61802" lon="7.11169">
        <ele>9</ele>
        <time>2010-02-07T13:45:09Z</time>
      </trkpt>
      <trkpt lat="43.61788" lon="7.11171">
        <ele>9</ele>
        <time>2010-02-07T13:45:18Z</time>
      </trkpt>
      <trkpt lat="43.61772" lon="7.11169">
        <ele>9</ele>
        <time>2010-02-07T13:45:29Z</time>
      </trkpt>
      <trkpt lat="43.61766" lon="7.11171">
        <ele>9</ele>
        <time>2010-02-07T13:45:33Z</time>
      </trkpt>
      <trkpt lat="43.61756" lon="7.11171">
        <ele>9</ele>
        <time>2010-02-07T13:45:40Z</time>
      </trkpt>
      <trkpt lat="43.61738" lon="7.11171">
        <ele>9</ele>
        <time>2010-02-07T13:45:56Z</time>
      </trkpt>
      <trkpt lat="43.61723" lon="7.11158">
        <ele>9</ele>
        <time>2010-02-07T13:46:02Z</time>
      </trkpt>
      <trkpt lat="43.61712" lon="7.11148">
        <ele>9</ele>
        <time>2010-02-07T13:46:12Z</time>
      </trkpt>
      <trkpt lat="43.61703" lon="7.11133">
        <ele>9</ele>
        <time>2010-02-07T13:46:24Z</time>
      </trkpt>
      <trkpt lat="43.61694" lon="7.11122">
        <ele>9</ele>
        <time>2010-02-07T13:46:39Z</time>
      </trkpt>
      <trkpt lat="43.61685" lon="7.11111">
        <ele>9</ele>
        <time>2010-02-07T13:46:45Z</time>
      </trkpt>
      <trkpt lat="43.61682" lon="7.11111">
        <ele>9</ele>
        <time>2010-02-07T13:46:49Z</time>
      </trkpt>
      <trkpt lat="43.61682" lon="7.11111">
        <ele>9</ele>
        <time>2010-02-07T13:46:54Z</time>
      </trkpt>
      <trkpt lat="43.6167" lon="7.11109">
        <ele>9</ele>
        <time>2010-02-07T13:46:57Z</time>
      </trkpt>
      <trkpt lat="43.61667" lon="7.11107">
        <ele>9</ele>
        <time>2010-02-07T13:46:59Z</time>
      </trkpt>
      <trkpt lat="43.61657" lon="7.11098">
        <ele>9</ele>
        <time>2010-02-07T13:47:08Z</time>
      </trkpt>
      <trkpt lat="43.61636" lon="7.11083">
        <ele>9</ele>
        <time>2010-02-07T13:47:21Z</time>
      </trkpt>
      <trkpt lat="43.61624" lon="7.11068">
        <ele>10</ele>
        <time>2010-02-07T13:47:29Z</time>
      </trkpt>
      <trkpt lat="43.61613" lon="7.11047">
        <ele>10</ele>
        <time>2010-02-07T13:47:43Z</time>
      </trkpt>
      <trkpt lat="43.61613" lon="7.11047">
        <ele>10</ele>
        <time>2010-02-07T13:47:45Z</time>
      </trkpt>
      <trkpt lat="43.61613" lon="7.11047">
        <ele>10</ele>
        <time>2010-02-07T13:47:49Z</time>
      </trkpt>
      <trkpt lat="43.61607" lon="7.11025">
        <ele>10</ele>
        <time>2010-02-07T13:47:53Z</time>
      </trkpt>
      <trkpt lat="43.616" lon="7.11002">
        <ele>10</ele>
        <time>2010-02-07T13:48:06Z</time>
      </trkpt>
      <trkpt lat="43.61599" lon="7.10997">
        <ele>11</ele>
        <time>2010-02-07T13:48:12Z</time>
      </trkpt>
      <trkpt lat="43.61593" lon="7.10987">
        <ele>11</ele>
        <time>2010-02-07T13:48:15Z</time>
      </trkpt>
      <trkpt lat="43.6158" lon="7.10969">
        <ele>11</ele>
        <time>2010-02-07T13:48:27Z</time>
      </trkpt>
      <trkpt lat="43.6156" lon="7.10942">
        <ele>11</ele>
        <time>2010-02-07T13:48:50Z</time>
      </trkpt>
      <trkpt lat="43.6156" lon="7.10942">
        <ele>11</ele>
        <time>2010-02-07T13:48:54Z</time>
      </trkpt>
      <trkpt lat="43.61548" lon="7.10927">
        <ele>11</ele>
        <time>2010-02-07T13:48:59Z</time>
      </trkpt>
      <trkpt lat="43.6154" lon="7.10914">
        <ele>12</ele>
        <time>2010-02-07T13:49:10Z</time>
      </trkpt>
      <trkpt lat="43.61536" lon="7.10907">
        <ele>12</ele>
        <time>2010-02-07T13:49:12Z</time>
      </trkpt>
      <trkpt lat="43.61525" lon="7.10888">
        <ele>12</ele>
        <time>2010-02-07T13:49:24Z</time>
      </trkpt>
      <trkpt lat="43.61525" lon="7.10888">
        <ele>12</ele>
        <time>2010-02-07T13:49:28Z</time>
      </trkpt>
      <trkpt lat="43.61516" lon="7.10879">
        <ele>12</ele>
        <time>2010-02-07T13:49:31Z</time>
      </trkpt>
      <trkpt lat="43.61516" lon="7.10879">
        <ele>12</ele>
        <time>2010-02-07T13:49:39Z</time>
      </trkpt>
      <trkpt lat="43.61504" lon="7.10869">
        <ele>12</ele>
        <time>2010-02-07T13:49:42Z</time>
      </trkpt>
      <trkpt lat="43.61493" lon="7.10864">
        <ele>13</ele>
        <time>2010-02-07T13:49:50Z</time>
      </trkpt>
      <trkpt lat="43.61485" lon="7.10866">
        <ele>13</ele>
        <time>2010-02-07T13:49:56Z</time>
      </trkpt>
      <trkpt lat="43.61467" lon="7.10871">
        <ele>13</ele>
        <time>2010-02-07T13:50:12Z</time>
      </trkpt>
      <trkpt lat="43.61451" lon="7.10873">
        <ele>14</ele>
        <time>2010-02-07T13:50:21Z</time>
      </trkpt>
      <trkpt lat="43.61426" lon="7.10877">
        <ele>14</ele>
        <time>2010-02-07T13:50:38Z</time>
      </trkpt>
      <trkpt lat="43.61409" lon="7.10884">
        <ele>14</ele>
        <time>2010-02-07T13:50:49Z</time>
      </trkpt>
      <trkpt lat="43.61399" lon="7.10884">
        <ele>14</ele>
        <time>2010-02-07T13:50:55Z</time>
      </trkpt>
      <trkpt lat="43.61375" lon="7.10884">
        <ele>14</ele>
        <time>2010-02-07T13:51:11Z</time>
      </trkpt>
      <trkpt lat="43.61345" lon="7.10888">
        <ele>14</ele>
        <time>2010-02-07T13:51:33Z</time>
      </trkpt>
      <trkpt lat="43.61325" lon="7.10888">
        <ele>13</ele>
        <time>2010-02-07T13:51:45Z</time>
      </trkpt>
      <trkpt lat="43.61302" lon="7.10884">
        <ele>13</ele>
        <time>2010-02-07T13:51:57Z</time>
      </trkpt>
      <trkpt lat="43.61281" lon="7.10879">
        <ele>12</ele>
        <time>2010-02-07T13:52:12Z</time>
      </trkpt>
      <trkpt lat="43.61271" lon="7.10873">
        <ele>12</ele>
        <time>2010-02-07T13:52:19Z</time>
      </trkpt>
      <trkpt lat="43.6126" lon="7.10873">
        <ele>12</ele>
        <time>2010-02-07T13:52:28Z</time>
      </trkpt>
      <trkpt lat="43.61251" lon="7.10869">
        <ele>12</ele>
        <time>2010-02-07T13:52:35Z</time>
      </trkpt>
      <trkpt lat="43.61235" lon="7.10864">
        <ele>12</ele>
        <time>2010-02-07T13:52:46Z</time>
      </trkpt>
      <trkpt lat="43.61214" lon="7.10862">
        <ele>12</ele>
        <time>2010-02-07T13:52:59Z</time>
      </trkpt>
      <trkpt lat="43.61204" lon="7.10862">
        <ele>12</ele>
        <time>2010-02-07T13:53:11Z</time>
      </trkpt>
      <trkpt lat="43.61204" lon="7.10862">
        <ele>12</ele>
        <time>2010-02-07T13:53:13Z</time>
      </trkpt>
      <trkpt lat="43.61204" lon="7.10863">
        <ele>12</ele>
        <time>2010-02-07T13:53:17Z</time>
      </trkpt>
      <trkpt lat="43.61169" lon="7.10877">
        <ele>12</ele>
        <time>2010-02-07T13:53:39Z</time>
      </trkpt>
      <trkpt lat="43.61145" lon="7.1089">
        <ele>16</ele>
        <time>2010-02-07T13:53:46Z</time>
      </trkpt>
      <trkpt lat="43.61139" lon="7.10901">
        <ele>16</ele>
        <time>2010-02-07T13:53:54Z</time>
      </trkpt>
      <trkpt lat="43.61138" lon="7.10903">
        <ele>16</ele>
        <time>2010-02-07T13:53:59Z</time>
      </trkpt>
      <trkpt lat="43.61134" lon="7.1092">
        <ele>13</ele>
        <time>2010-02-07T13:54:03Z</time>
      </trkpt>
      <trkpt lat="43.61134" lon="7.1092">
        <ele>13</ele>
        <time>2010-02-07T13:54:12Z</time>
      </trkpt>
      <trkpt lat="43.61125" lon="7.10931">
        <ele>14</ele>
        <time>2010-02-07T13:54:16Z</time>
      </trkpt>
      <trkpt lat="43.61113" lon="7.10954">
        <ele>14</ele>
        <time>2010-02-07T13:54:30Z</time>
      </trkpt>
      <trkpt lat="43.611" lon="7.10967">
        <ele>13</ele>
        <time>2010-02-07T13:54:39Z</time>
      </trkpt>
      <trkpt lat="43.61077" lon="7.10991">
        <ele>12</ele>
        <time>2010-02-07T13:54:58Z</time>
      </trkpt>
      <trkpt lat="43.61077" lon="7.10991">
        <ele>12</ele>
        <time>2010-02-07T13:55:02Z</time>
      </trkpt>
      <trkpt lat="43.61068" lon="7.10993">
        <ele>12</ele>
        <time>2010-02-07T13:55:07Z</time>
      </trkpt>
      <trkpt lat="43.61057" lon="7.10995">
        <ele>13</ele>
        <time>2010-02-07T13:55:12Z</time>
      </trkpt>
      <trkpt lat="43.61029" lon="7.11002">
        <ele>10</ele>
        <time>2010-02-07T13:55:29Z</time>
      </trkpt>
      <trkpt lat="43.60978" lon="7.11017">
        <ele>11</ele>
        <time>2010-02-07T13:56:01Z</time>
      </trkpt>
      <trkpt lat="43.6097" lon="7.11019">
        <ele>11</ele>
        <time>2010-02-07T13:56:10Z</time>
      </trkpt>
      <trkpt lat="43.60965" lon="7.11021">
        <ele>11</ele>
        <time>2010-02-07T13:56:13Z</time>
      </trkpt>
      <trkpt lat="43.60956" lon="7.11021">
        <ele>11</ele>
        <time>2010-02-07T13:56:19Z</time>
      </trkpt>
      <trkpt lat="43.60936" lon="7.11025">
        <ele>12</ele>
        <time>2010-02-07T13:56:29Z</time>
      </trkpt>
      <trkpt lat="43.6093" lon="7.1103">
        <ele>12</ele>
        <time>2010-02-07T13:56:33Z</time>
      </trkpt>
      <trkpt lat="43.60868" lon="7.11077">
        <ele>13</ele>
        <time>2010-02-07T13:57:19Z</time>
      </trkpt>
      <trkpt lat="43.60868" lon="7.11077">
        <ele>13</ele>
        <time>2010-02-07T13:57:19Z</time>
      </trkpt>
    </trkseg>
      <trkpt lat="43.6085" lon="7.11098">
        <ele>12</ele>
        <time>2010-02-07T13:57:19Z</time>
      </trkpt>
      <trkpt lat="43.60837" lon="7.11105">
        <ele>12</ele>
        <time>2010-02-07T13:57:31Z</time>
      </trkpt>
      <trkpt lat="43.60837" lon="7.11105">
        <ele>12</ele>
        <time>2010-02-07T13:57:35Z</time>
      </trkpt>
      <trkpt lat="43.60837" lon="7.11105">
        <ele>12</ele>
        <time>2010-02-07T13:57:39Z</time>
      </trkpt>
      <trkpt lat="43.60821" lon="7.11115">
        <ele>13</ele>
        <time>2010-02-07T13:57:43Z</time>
      </trkpt>
      <trkpt lat="43.60814" lon="7.1112">
        <ele>13</ele>
        <time>2010-02-07T13:57:51Z</time>
      </trkpt>
      <trkpt lat="43.60809" lon="7.1112">
        <ele>13</ele>
        <time>2010-02-07T13:57:55Z</time>
      </trkpt>
      <trkpt lat="43.60799" lon="7.11124">
        <ele>13</ele>
        <time>2010-02-07T13:58:03Z</time>
      </trkpt>
      <trkpt lat="43.60785" lon="7.11126">
        <ele>13</ele>
        <time>2010-02-07T13:58:12Z</time>
      </trkpt>
      <trkpt lat="43.60785" lon="7.11126">
        <ele>13</ele>
        <time>2010-02-07T13:58:16Z</time>
      </trkpt>
      <trkpt lat="43.60777" lon="7.11117">
        <ele>13</ele>
        <time>2010-02-07T13:58:21Z</time>
      </trkpt>
      <trkpt lat="43.6077" lon="7.11113">
        <ele>14</ele>
        <time>2010-02-07T13:58:32Z</time>
      </trkpt>
      <trkpt lat="43.60765" lon="7.11109">
        <ele>14</ele>
        <time>2010-02-07T13:58:35Z</time>
      </trkpt>
      <trkpt lat="43.60765" lon="7.11109">
        <ele>14</ele>
        <time>2010-02-07T13:58:42Z</time>
      </trkpt>
      <trkpt lat="43.6075" lon="7.11102">
        <ele>14</ele>
        <time>2010-02-07T13:58:45Z</time>
      </trkpt>
      <trkpt lat="43.60737" lon="7.11092">
        <ele>15</ele>
        <time>2010-02-07T13:58:52Z</time>
      </trkpt>
      <trkpt lat="43.60737" lon="7.11092">
        <ele>15</ele>
        <time>2010-02-07T13:58:56Z</time>
      </trkpt>
      <trkpt lat="43.60726" lon="7.11081">
        <ele>17</ele>
        <time>2010-02-07T13:59:01Z</time>
      </trkpt>
      <trkpt lat="43.60716" lon="7.11075">
        <ele>17</ele>
        <time>2010-02-07T13:59:08Z</time>
      </trkpt>
      <trkpt lat="43.60695" lon="7.1106">
        <ele>18</ele>
        <time>2010-02-07T13:59:24Z</time>
      </trkpt>
      <trkpt lat="43.60678" lon="7.11047">
        <ele>18</ele>
        <time>2010-02-07T13:59:40Z</time>
      </trkpt>
      <trkpt lat="43.60657" lon="7.1103">
        <ele>20</ele>
        <time>2010-02-07T13:59:55Z</time>
      </trkpt>
      <trkpt lat="43.60628" lon="7.11008">
        <ele>20</ele>
        <time>2010-02-07T14:00:18Z</time>
      </trkpt>
      <trkpt lat="43.60628" lon="7.11008">
        <ele>20</ele>
        <time>2010-02-07T14:00:22Z</time>
      </trkpt>
      <trkpt lat="43.60617" lon="7.11004">
        <ele>21</ele>
        <time>2010-02-07T14:00:26Z</time>
      </trkpt>
      <trkpt lat="43.60602" lon="7.10993">
        <ele>22</ele>
        <time>2010-02-07T14:00:39Z</time>
      </trkpt>
      <trkpt lat="43.60583" lon="7.1098">
        <ele>23</ele>
        <time>2010-02-07T14:00:52Z</time>
      </trkpt>
      <trkpt lat="43.60561" lon="7.10969">
        <ele>23</ele>
        <time>2010-02-07T14:01:04Z</time>
      </trkpt>
      <trkpt lat="43.60551" lon="7.10969">
        <ele>23</ele>
        <time>2010-02-07T14:01:09Z</time>
      </trkpt>
      <trkpt lat="43.60535" lon="7.10969">
        <ele>23</ele>
        <time>2010-02-07T14:01:21Z</time>
      </trkpt>
      <trkpt lat="43.60535" lon="7.10969">
        <ele>23</ele>
        <time>2010-02-07T14:01:25Z</time>
      </trkpt>
      <trkpt lat="43.60526" lon="7.10969">
        <ele>23</ele>
        <time>2010-02-07T14:01:30Z</time>
      </trkpt>
      <trkpt lat="43.60509" lon="7.10974">
        <ele>23</ele>
        <time>2010-02-07T14:01:40Z</time>
      </trkpt>
      <trkpt lat="43.60483" lon="7.10982">
        <ele>24</ele>
        <time>2010-02-07T14:01:56Z</time>
      </trkpt>
      <trkpt lat="43.60475" lon="7.10989">
        <ele>24</ele>
        <time>2010-02-07T14:02:02Z</time>
      </trkpt>
      <trkpt lat="43.60475" lon="7.10989">
        <ele>24</ele>
        <time>2010-02-07T14:02:06Z</time>
      </trkpt>
      <trkpt lat="43.60465" lon="7.10999">
        <ele>24</ele>
        <time>2010-02-07T14:02:10Z</time>
      </trkpt>
      <trkpt lat="43.60458" lon="7.11002">
        <ele>25</ele>
        <time>2010-02-07T14:02:15Z</time>
      </trkpt>
      <trkpt lat="43.60443" lon="7.11004">
        <ele>25</ele>
        <time>2010-02-07T14:02:25Z</time>
      </trkpt>
      <trkpt lat="43.60443" lon="7.11004">
        <ele>25</ele>
        <time>2010-02-07T14:02:31Z</time>
      </trkpt>
      <trkpt lat="43.60443" lon="7.11004">
        <ele>25</ele>
        <time>2010-02-07T14:02:33Z</time>
      </trkpt>
      <trkpt lat="43.60443" lon="7.11004">
        <ele>25</ele>
        <time>2010-02-07T14:02:39Z</time>
      </trkpt>
      <trkpt lat="43.60419" lon="7.10999">
        <ele>25</ele>
        <time>2010-02-07T14:02:46Z</time>
      </trkpt>
      <trkpt lat="43.60404" lon="7.10995">
        <ele>27</ele>
        <time>2010-02-07T14:02:55Z</time>
      </trkpt>
      <trkpt lat="43.60384" lon="7.10995">
        <ele>28</ele>
        <time>2010-02-07T14:03:07Z</time>
      </trkpt>
      <trkpt lat="43.60378" lon="7.10999">
        <ele>28</ele>
        <time>2010-02-07T14:03:11Z</time>
      </trkpt>
      <trkpt lat="43.60362" lon="7.11012">
        <ele>28</ele>
        <time>2010-02-07T14:03:25Z</time>
      </trkpt>
      <trkpt lat="43.60345" lon="7.11021">
        <ele>28</ele>
        <time>2010-02-07T14:03:36Z</time>
      </trkpt>
      <trkpt lat="43.60338" lon="7.11021">
        <ele>28</ele>
        <time>2010-02-07T14:03:40Z</time>
      </trkpt>
      <trkpt lat="43.60324" lon="7.11025">
        <ele>29</ele>
        <time>2010-02-07T14:03:46Z</time>
      </trkpt>
      <trkpt lat="43.60311" lon="7.1103">
        <ele>29</ele>
        <time>2010-02-07T14:03:56Z</time>
      </trkpt>
      <trkpt lat="43.60275" lon="7.1104">
        <ele>30</ele>
        <time>2010-02-07T14:04:30Z</time>
      </trkpt>
      <trkpt lat="43.60275" lon="7.1104">
        <ele>30</ele>
        <time>2010-02-07T14:04:32Z</time>
      </trkpt>
      <trkpt lat="43.60269" lon="7.11021">
        <ele>30</ele>
        <time>2010-02-07T14:04:39Z</time>
      </trkpt>
      <trkpt lat="43.60267" lon="7.11004">
        <ele>31</ele>
        <time>2010-02-07T14:04:43Z</time>
      </trkpt>
      <trkpt lat="43.60263" lon="7.10978">
        <ele>33</ele>
        <time>2010-02-07T14:04:53Z</time>
      </trkpt>
      <trkpt lat="43.60259" lon="7.10952">
        <ele>34</ele>
        <time>2010-02-07T14:05:06Z</time>
      </trkpt>
      <trkpt lat="43.60259" lon="7.10952">
        <ele>34</ele>
        <time>2010-02-07T14:05:10Z</time>
      </trkpt>
      <trkpt lat="43.60254" lon="7.10939">
        <ele>34</ele>
        <time>2010-02-07T14:05:14Z</time>
      </trkpt>
      <trkpt lat="43.60254" lon="7.10939">
        <ele>34</ele>
        <time>2010-02-07T14:05:21Z</time>
      </trkpt>
      <trkpt lat="43.60252" lon="7.10922">
        <ele>36</ele>
        <time>2010-02-07T14:05:25Z</time>
      </trkpt>
      <trkpt lat="43.60253" lon="7.10909">
        <ele>37</ele>
        <time>2010-02-07T14:05:34Z</time>
      </trkpt>
      <trkpt lat="43.60253" lon="7.10909">
        <ele>37</ele>
        <time>2010-02-07T14:05:38Z</time>
      </trkpt>
      <trkpt lat="43.60253" lon="7.10892">
        <ele>38</ele>
        <time>2010-02-07T14:05:42Z</time>
      </trkpt>
      <trkpt lat="43.60249" lon="7.10858">
        <ele>41</ele>
        <time>2010-02-07T14:05:58Z</time>
      </trkpt>
      <trkpt lat="43.60248" lon="7.10847">
        <ele>42</ele>
        <time>2010-02-07T14:06:06Z</time>
      </trkpt>
      <trkpt lat="43.60248" lon="7.10847">
        <ele>42</ele>
        <time>2010-02-07T14:06:10Z</time>
      </trkpt>
      <trkpt lat="43.60246" lon="7.10828">
        <ele>44</ele>
        <time>2010-02-07T14:06:17Z</time>
      </trkpt>
      <trkpt lat="43.60246" lon="7.108">
        <ele>48</ele>
        <time>2010-02-07T14:06:29Z</time>
      </trkpt>
      <trkpt lat="43.60246" lon="7.10798">
        <ele>48</ele>
        <time>2010-02-07T14:06:33Z</time>
      </trkpt>
      <trkpt lat="43.60246" lon="7.10798">
        <ele>48</ele>
        <time>2010-02-07T14:06:38Z</time>
      </trkpt>
      <trkpt lat="43.60246" lon="7.10798">
        <ele>48</ele>
        <time>2010-02-07T14:06:44Z</time>
      </trkpt>
      <trkpt lat="43.60246" lon="7.10798">
        <ele>48</ele>
        <time>2010-02-07T14:06:48Z</time>
      </trkpt>
      <trkpt lat="43.60246" lon="7.10798">
        <ele>48</ele>
        <time>2010-02-07T14:06:53Z</time>
      </trkpt>
      <trkpt lat="43.60246" lon="7.10798">
        <ele>48</ele>
        <time>2010-02-07T14:07:12Z</time>
      </trkpt>
      <trkpt lat="43.60246" lon="7.10798">
        <ele>48</ele>
        <time>2010-02-07T14:07:21Z</time>
      </trkpt>
      <trkpt lat="43.60246" lon="7.10798">
        <ele>48</ele>
        <time>2010-02-07T14:07:21Z</time>
      </trkpt>
      <trkpt lat="43.60246" lon="7.10798">
        <ele>48</ele>
        <time>2010-02-07T14:07:34Z</time>
      </trkpt>
      <trkpt lat="43.60246" lon="7.10798">
        <ele>48</ele>
        <time>2010-02-07T14:07:37Z</time>
      </trkpt>
      <trkpt lat="43.60284" lon="7.10791">
        <ele>46</ele>
        <time>2010-02-07T14:07:46Z</time>
      </trkpt>
      <trkpt lat="43.60295" lon="7.10791">
        <ele>46</ele>
        <time>2010-02-07T14:07:52Z</time>
      </trkpt>
      <trkpt lat="43.60298" lon="7.10791">
        <ele>46</ele>
        <time>2010-02-07T14:07:58Z</time>
      </trkpt>
      <trkpt lat="43.60308" lon="7.10793">
        <ele>45</ele>
        <time>2010-02-07T14:08:01Z</time>
      </trkpt>
      <trkpt lat="43.60329" lon="7.10793">
        <ele>45</ele>
        <time>2010-02-07T14:08:14Z</time>
      </trkpt>
      <trkpt lat="43.6035" lon="7.10791">
        <ele>43</ele>
        <time>2010-02-07T14:08:28Z</time>
      </trkpt>
      <trkpt lat="43.6035" lon="7.10791">
        <ele>43</ele>
        <time>2010-02-07T14:08:33Z</time>
      </trkpt>
      <trkpt lat="43.6036" lon="7.10793">
        <ele>43</ele>
        <time>2010-02-07T14:08:37Z</time>
      </trkpt>
      <trkpt lat="43.60365" lon="7.10796">
        <ele>42</ele>
        <time>2010-02-07T14:08:45Z</time>
      </trkpt>
      <trkpt lat="43.60383" lon="7.10789">
        <ele>42</ele>
        <time>2010-02-07T14:08:52Z</time>
      </trkpt>
      <trkpt lat="43.60394" lon="7.10787">
        <ele>42</ele>
        <time>2010-02-07T14:09:02Z</time>
      </trkpt>
      <trkpt lat="43.60397" lon="7.10785">
        <ele>42</ele>
        <time>2010-02-07T14:09:10Z</time>
      </trkpt>
      <trkpt lat="43.60408" lon="7.10778">
        <ele>43</ele>
        <time>2010-02-07T14:09:14Z</time>
      </trkpt>
      <trkpt lat="43.60413" lon="7.10768">
        <ele>43</ele>
        <time>2010-02-07T14:09:19Z</time>
      </trkpt>
      <trkpt lat="43.60415" lon="7.10753">
        <ele>44</ele>
        <time>2010-02-07T14:09:28Z</time>
      </trkpt>
      <trkpt lat="43.60416" lon="7.10742">
        <ele>46</ele>
        <time>2010-02-07T14:09:39Z</time>
      </trkpt>
      <trkpt lat="43.60417" lon="7.10738">
        <ele>46</ele>
        <time>2010-02-07T14:09:41Z</time>
      </trkpt>
      <trkpt lat="43.60418" lon="7.10727">
        <ele>47</ele>
        <time>2010-02-07T14:09:51Z</time>
      </trkpt>
      <trkpt lat="43.60419" lon="7.10721">
        <ele>47</ele>
        <time>2010-02-07T14:09:53Z</time>
      </trkpt>
      <trkpt lat="43.60421" lon="7.10712">
        <ele>48</ele>
        <time>2010-02-07T14:10:01Z</time>
      </trkpt>
      <trkpt lat="43.60421" lon="7.10712">
        <ele>48</ele>
        <time>2010-02-07T14:10:05Z</time>
      </trkpt>
      <trkpt lat="43.60421" lon="7.10712">
        <ele>48</ele>
        <time>2010-02-07T14:10:09Z</time>
      </trkpt>
      <trkpt lat="43.60421" lon="7.10712">
        <ele>48</ele>
        <time>2010-02-07T14:10:21Z</time>
      </trkpt>
      <trkpt lat="43.60423" lon="7.10671">
        <ele>51</ele>
        <time>2010-02-07T14:10:28Z</time>
      </trkpt>
      <trkpt lat="43.60425" lon="7.10633">
        <ele>51</ele>
        <time>2010-02-07T14:10:39Z</time>
      </trkpt>
      <trkpt lat="43.6043" lon="7.1062">
        <ele>51</ele>
        <time>2010-02-07T14:10:43Z</time>
      </trkpt>
      <trkpt lat="43.60437" lon="7.10598">
        <ele>51</ele>
        <time>2010-02-07T14:10:54Z</time>
      </trkpt>
      <trkpt lat="43.60442" lon="7.10572">
        <ele>50</ele>
        <time>2010-02-07T14:11:09Z</time>
      </trkpt>
      <trkpt lat="43.60442" lon="7.10555">
        <ele>49</ele>
        <time>2010-02-07T14:11:13Z</time>
      </trkpt>
      <trkpt lat="43.60438" lon="7.10545">
        <ele>49</ele>
        <time>2010-02-07T14:11:19Z</time>
      </trkpt>
      <trkpt lat="43.60428" lon="7.1054">
        <ele>49</ele>
        <time>2010-02-07T14:11:29Z</time>
      </trkpt>
      <trkpt lat="43.60426" lon="7.10538">
        <ele>49</ele>
        <time>2010-02-07T14:11:37Z</time>
      </trkpt>
      <trkpt lat="43.60426" lon="7.10538">
        <ele>49</ele>
        <time>2010-02-07T14:11:42Z</time>
      </trkpt>
      <trkpt lat="43.60417" lon="7.10532">
        <ele>49</ele>
        <time>2010-02-07T14:11:48Z</time>
      </trkpt>
      <trkpt lat="43.60413" lon="7.10532">
        <ele>52</ele>
        <time>2010-02-07T14:11:57Z</time>
      </trkpt>
      <trkpt lat="43.60413" lon="7.10532">
        <ele>52</ele>
        <time>2010-02-07T14:12:01Z</time>
      </trkpt>
      <trkpt lat="43.60398" lon="7.1053">
        <ele>53</ele>
        <time>2010-02-07T14:12:06Z</time>
      </trkpt>
      <trkpt lat="43.60376" lon="7.10527">
        <ele>54</ele>
        <time>2010-02-07T14:12:22Z</time>
      </trkpt>
      <trkpt lat="43.60376" lon="7.10527">
        <ele>54</ele>
        <time>2010-02-07T14:12:26Z</time>
      </trkpt>
      <trkpt lat="43.60364" lon="7.10525">
        <ele>54</ele>
        <time>2010-02-07T14:12:30Z</time>
      </trkpt>
      <trkpt lat="43.60364" lon="7.10525">
        <ele>54</ele>
        <time>2010-02-07T14:12:38Z</time>
      </trkpt>
      <trkpt lat="43.60349" lon="7.10521">
        <ele>54</ele>
        <time>2010-02-07T14:12:42Z</time>
      </trkpt>
      <trkpt lat="43.60343" lon="7.10515">
        <ele>55</ele>
        <time>2010-02-07T14:12:46Z</time>
      </trkpt>
      <trkpt lat="43.60343" lon="7.10515">
        <ele>55</ele>
        <time>2010-02-07T14:12:50Z</time>
      </trkpt>
      <trkpt lat="43.60336" lon="7.105">
        <ele>55</ele>
        <time>2010-02-07T14:12:54Z</time>
      </trkpt>
      <trkpt lat="43.60333" lon="7.10484">
        <ele>55</ele>
        <time>2010-02-07T14:13:04Z</time>
      </trkpt>
      <trkpt lat="43.60333" lon="7.10484">
        <ele>55</ele>
        <time>2010-02-07T14:13:08Z</time>
      </trkpt>
      <trkpt lat="43.60332" lon="7.10472">
        <ele>55</ele>
        <time>2010-02-07T14:13:12Z</time>
      </trkpt>
      <trkpt lat="43.6033" lon="7.10467">
        <ele>55</ele>
        <time>2010-02-07T14:13:14Z</time>
      </trkpt>
      <trkpt lat="43.60332" lon="7.10459">
        <ele>55</ele>
        <time>2010-02-07T14:13:22Z</time>
      </trkpt>
      <trkpt lat="43.60329" lon="7.10444">
        <ele>54</ele>
        <time>2010-02-07T14:13:32Z</time>
      </trkpt>
      <trkpt lat="43.60332" lon="7.10431">
        <ele>53</ele>
        <time>2010-02-07T14:13:44Z</time>
      </trkpt>
      <trkpt lat="43.60332" lon="7.10431">
        <ele>53</ele>
        <time>2010-02-07T14:13:50Z</time>
      </trkpt>
      <trkpt lat="43.60332" lon="7.10431">
        <ele>53</ele>
        <time>2010-02-07T14:13:54Z</time>
      </trkpt>
      <trkpt lat="43.60332" lon="7.10431">
        <ele>53</ele>
        <time>2010-02-07T14:13:58Z</time>
      </trkpt>
      <trkpt lat="43.60336" lon="7.10435">
        <ele>51</ele>
        <time>2010-02-07T14:14:02Z</time>
      </trkpt>
      <trkpt lat="43.60326" lon="7.10435">
        <ele>54</ele>
        <time>2010-02-07T14:14:07Z</time>
      </trkpt>
      <trkpt lat="43.60322" lon="7.10437">
        <ele>54</ele>
        <time>2010-02-07T14:14:11Z</time>
      </trkpt>
      <trkpt lat="43.60322" lon="7.10437">
        <ele>54</ele>
        <time>2010-02-07T14:14:21Z</time>
      </trkpt>
      <trkpt lat="43.60313" lon="7.10452">
        <ele>55</ele>
        <time>2010-02-07T14:14:27Z</time>
      </trkpt>
      <trkpt lat="43.60313" lon="7.10452">
        <ele>55</ele>
        <time>2010-02-07T14:14:33Z</time>
      </trkpt>
      <trkpt lat="43.60313" lon="7.10452">
        <ele>55</ele>
        <time>2010-02-07T14:14:37Z</time>
      </trkpt>
    </trkseg>
  </trk>
</gpx>